PWSweather.com
Personal Weather Stations
Station Observations

Enon Chester, VA 23836

Lat: 37.3609267, Lon: -77.31545840000001

Elevation: 89

Station Type: Acurite

http://www.wunderground.com/personal-weather-station/dashboard?ID=KVACHEST67

High Low Average
Temperature 74.1°F23.4°C 44.6°F7.0°C 62.0°F16.7°C
Dew Point 63.8°F17.7°C 29.7°F-1.3°C 46.8°F8.2°C
Winds 26.9 mph 43.3 kmh Calm Calm 6.0 mph WSW9.7 kmh WSW
Wind Gusts 26.9 mph43.3 kmh 2.2 mph3.5 kmh 11.0 mph17.7 kmh
Humidity 98% 30% 62%
Pressure 29.91 in1012.9 mb 29.61 in1002.7 mb -
Precipitation 0.61 in15.5 mm - -
Hour Temp Dew Point Humidity Winds Wind Gusts Pressure Precip Precip Rate Daily Precip Total
05:36 AM 60.8°F16.0°C 58.5°F14.7°C 92% 9.4 mph SE15.1 kmh SE 9.4 mph15.1 kmh 29.77 in1008.1 mb 0.07 in1.8 mm 0.12 in3.0 mm 0.07 in1.8 mm
05:37 AM 60.8°F16.0°C 58.5°F14.7°C 92% 7.3 mph SE11.7 kmh SE 9.4 mph15.1 kmh 29.77 in1008.1 mb 0.07 in1.8 mm 0.00 in0.0 mm 0.07 in1.8 mm
05:38 AM 60.8°F16.0°C 58.5°F14.7°C 92% 4.2 mph SSE6.8 kmh SSE 9.4 mph15.1 kmh 29.77 in1008.1 mb 0.07 in1.8 mm 0.00 in0.0 mm 0.07 in1.8 mm
05:39 AM 60.8°F16.0°C 58.5°F14.7°C 92% 8.9 mph N14.3 kmh N 9.4 mph15.1 kmh 29.77 in1008.1 mb 0.07 in1.8 mm 0.00 in0.0 mm 0.07 in1.8 mm
05:40 AM 60.8°F16.0°C 58.5°F14.7°C 92% 5.8 mph ESE9.3 kmh ESE 9.4 mph15.1 kmh 29.77 in1008.1 mb 0.07 in1.8 mm 0.00 in0.0 mm 0.07 in1.8 mm
05:41 AM 60.8°F16.0°C 58.5°F14.7°C 92% 7.3 mph SSE11.7 kmh SSE 9.4 mph15.1 kmh 29.76 in1007.8 mb 0.08 in2.0 mm 0.60 in15.2 mm 0.08 in2.0 mm
05:42 AM 60.8°F16.0°C 58.5°F14.7°C 92% 5.3 mph S8.5 kmh S 9.4 mph15.1 kmh 29.76 in1007.8 mb 0.08 in2.0 mm 0.00 in0.0 mm 0.08 in2.0 mm
05:43 AM 60.6°F15.9°C 58.3°F14.6°C 92% 3.7 mph S6.0 kmh S 9.4 mph15.1 kmh 29.76 in1007.8 mb 0.08 in2.0 mm 0.00 in0.0 mm 0.08 in2.0 mm
05:44 AM 60.6°F15.9°C 58.3°F14.6°C 92% 7.3 mph SSW11.7 kmh SSW 9.9 mph15.9 kmh 29.76 in1007.8 mb 0.08 in2.0 mm 0.00 in0.0 mm 0.08 in2.0 mm
05:45 AM 60.6°F15.9°C 58.3°F14.6°C 92% 8.3 mph S13.4 kmh S 9.9 mph15.9 kmh 29.76 in1007.8 mb 0.08 in2.0 mm 0.00 in0.0 mm 0.08 in2.0 mm
05:46 AM 60.6°F15.9°C 58.3°F14.6°C 92% 8.3 mph SSW13.4 kmh SSW 10.4 mph16.7 kmh 29.76 in1007.8 mb 0.08 in2.0 mm 0.00 in0.0 mm 0.08 in2.0 mm
05:47 AM 60.6°F15.9°C 58.3°F14.6°C 92% 5.3 mph E8.5 kmh E 10.4 mph16.7 kmh 29.76 in1007.8 mb 0.08 in2.0 mm 0.00 in0.0 mm 0.08 in2.0 mm
05:48 AM 60.6°F15.9°C 58.3°F14.6°C 92% 6.3 mph SSW10.1 kmh SSW 10.4 mph16.7 kmh 29.76 in1007.8 mb 0.08 in2.0 mm 0.00 in0.0 mm 0.08 in2.0 mm
05:49 AM 60.6°F15.9°C 58.6°F14.8°C 93% 8.3 mph S13.4 kmh S 10.4 mph16.7 kmh 29.76 in1007.8 mb 0.08 in2.0 mm 0.00 in0.0 mm 0.08 in2.0 mm
05:50 AM 60.6°F15.9°C 58.6°F14.8°C 93% 8.9 mph SSE14.3 kmh SSE 10.4 mph16.7 kmh 29.76 in1007.8 mb 0.08 in2.0 mm 0.00 in0.0 mm 0.08 in2.0 mm
05:51 AM 60.8°F16.0°C 58.8°F14.9°C 93% 6.3 mph SSE10.1 kmh SSE 10.4 mph16.7 kmh 29.76 in1007.8 mb 0.08 in2.0 mm 0.00 in0.0 mm 0.08 in2.0 mm
05:52 AM 60.8°F16.0°C 58.8°F14.9°C 93% 9.9 mph S15.9 kmh S 14.5 mph23.3 kmh 29.76 in1007.8 mb 0.09 in2.3 mm 0.60 in15.2 mm 0.09 in2.3 mm
05:53 AM 60.8°F16.0°C 58.8°F14.9°C 93% 11.4 mph E18.3 kmh E 14.5 mph23.3 kmh 29.74 in1007.1 mb 0.09 in2.3 mm 0.00 in0.0 mm 0.09 in2.3 mm
05:54 AM 60.8°F16.0°C 58.8°F14.9°C 93% 6.8 mph S10.9 kmh S 14.5 mph23.3 kmh 29.74 in1007.1 mb 0.09 in2.3 mm 0.00 in0.0 mm 0.09 in2.3 mm
05:55 AM 60.8°F16.0°C 58.8°F14.9°C 93% 4.7 mph ESE7.6 kmh ESE 14.5 mph23.3 kmh 29.74 in1007.1 mb 0.09 in2.3 mm 0.00 in0.0 mm 0.09 in2.3 mm
05:56 AM 60.8°F16.0°C 58.8°F14.9°C 93% 7.3 mph S11.7 kmh S 14.5 mph23.3 kmh 29.74 in1007.1 mb 0.09 in2.3 mm 0.00 in0.0 mm 0.09 in2.3 mm
05:57 AM 60.8°F16.0°C 58.8°F14.9°C 93% 5.3 mph SSE8.5 kmh SSE 14.5 mph23.3 kmh 29.74 in1007.1 mb 0.09 in2.3 mm 0.00 in0.0 mm 0.09 in2.3 mm
05:58 AM 60.8°F16.0°C 58.8°F14.9°C 93% 3.2 mph ESE5.1 kmh ESE 14.5 mph23.3 kmh 29.74 in1007.1 mb 0.09 in2.3 mm 0.00 in0.0 mm 0.09 in2.3 mm
05:59 AM 60.6°F15.9°C 58.6°F14.8°C 93% 3.7 mph ESE6.0 kmh ESE 14.5 mph23.3 kmh 29.74 in1007.1 mb 0.09 in2.3 mm 0.00 in0.0 mm 0.09 in2.3 mm
06:00 AM 60.6°F15.9°C 58.6°F14.8°C 93% 5.3 mph SSE8.5 kmh SSE 14.5 mph23.3 kmh 29.74 in1007.1 mb 0.09 in2.3 mm 0.00 in0.0 mm 0.09 in2.3 mm
06:01 AM 60.6°F15.9°C 58.6°F14.8°C 93% 8.9 mph ESE14.3 kmh ESE 14.5 mph23.3 kmh 29.74 in1007.1 mb 0.09 in2.3 mm 0.00 in0.0 mm 0.09 in2.3 mm
06:02 AM 60.6°F15.9°C 58.6°F14.8°C 93% 6.3 mph S10.1 kmh S 11.9 mph19.2 kmh 29.74 in1007.1 mb 0.09 in2.3 mm 0.00 in0.0 mm 0.09 in2.3 mm
06:03 AM 60.6°F15.9°C 58.6°F14.8°C 93% 7.3 mph S11.7 kmh S 11.4 mph18.3 kmh 29.74 in1007.1 mb 0.09 in2.3 mm 0.00 in0.0 mm 0.09 in2.3 mm
06:04 AM 60.6°F15.9°C 58.6°F14.8°C 93% 7.3 mph SSE11.7 kmh SSE 11.4 mph18.3 kmh 29.74 in1007.1 mb 0.10 in2.5 mm 0.60 in15.2 mm 0.10 in2.5 mm
06:05 AM 60.6°F15.9°C 58.6°F14.8°C 93% 6.3 mph SSE10.1 kmh SSE 11.4 mph18.3 kmh 29.75 in1007.5 mb 0.10 in2.5 mm 0.00 in0.0 mm 0.10 in2.5 mm
06:06 AM 60.6°F15.9°C 58.6°F14.8°C 93% 7.3 mph S11.7 kmh S 11.4 mph18.3 kmh 29.75 in1007.5 mb 0.10 in2.5 mm 0.00 in0.0 mm 0.10 in2.5 mm
06:07 AM 60.6°F15.9°C 58.6°F14.8°C 93% 13.0 mph S20.9 kmh S 13.0 mph20.9 kmh 29.75 in1007.5 mb 0.11 in2.8 mm 0.60 in15.2 mm 0.11 in2.8 mm
06:08 AM 60.6°F15.9°C 58.6°F14.8°C 93% 13.0 mph S20.9 kmh S 13.0 mph20.9 kmh 29.75 in1007.5 mb 0.11 in2.8 mm 0.00 in0.0 mm 0.11 in2.8 mm
06:13 AM 60.6°F15.9°C 58.6°F14.8°C 93% 9.4 mph SE15.1 kmh SE 13.0 mph20.9 kmh 29.75 in1007.5 mb 0.12 in3.0 mm 0.12 in3.0 mm 0.12 in3.0 mm
06:14 AM 60.6°F15.9°C 58.9°F14.9°C 94% 5.8 mph S9.3 kmh S 13.0 mph20.9 kmh 29.75 in1007.5 mb 0.12 in3.0 mm 0.00 in0.0 mm 0.12 in3.0 mm
06:15 AM 60.6°F15.9°C 58.9°F14.9°C 94% 7.8 mph S12.6 kmh S 13.0 mph20.9 kmh 29.75 in1007.5 mb 0.12 in3.0 mm 0.00 in0.0 mm 0.12 in3.0 mm
06:16 AM 60.6°F15.9°C 58.9°F14.9°C 94% 5.8 mph S9.3 kmh S 13.0 mph20.9 kmh 29.75 in1007.5 mb 0.12 in3.0 mm 0.00 in0.0 mm 0.12 in3.0 mm
06:17 AM 60.6°F15.9°C 58.9°F14.9°C 94% 8.3 mph SE13.4 kmh SE 13.0 mph20.9 kmh 29.73 in1006.8 mb 0.13 in3.3 mm 0.60 in15.2 mm 0.13 in3.3 mm
06:18 AM 60.6°F15.9°C 58.9°F14.9°C 94% 9.9 mph S15.9 kmh S 11.4 mph18.3 kmh 29.73 in1006.8 mb 0.13 in3.3 mm 0.00 in0.0 mm 0.13 in3.3 mm
06:19 AM 60.6°F15.9°C 58.9°F14.9°C 94% 8.9 mph S14.3 kmh S 11.4 mph18.3 kmh 29.73 in1006.8 mb 0.14 in3.6 mm 0.60 in15.2 mm 0.14 in3.6 mm
06:20 AM 60.6°F15.9°C 58.9°F14.9°C 94% 14.0 mph S22.5 kmh S 14.0 mph22.5 kmh 29.73 in1006.8 mb 0.14 in3.6 mm 0.00 in0.0 mm 0.14 in3.6 mm
06:21 AM 60.6°F15.9°C 58.9°F14.9°C 94% 7.8 mph S12.6 kmh S 14.0 mph22.5 kmh 29.73 in1006.8 mb 0.14 in3.6 mm 0.00 in0.0 mm 0.14 in3.6 mm
06:22 AM 60.6°F15.9°C 58.9°F14.9°C 94% 5.3 mph S8.5 kmh S 14.0 mph22.5 kmh 29.73 in1006.8 mb 0.14 in3.6 mm 0.00 in0.0 mm 0.14 in3.6 mm
06:23 AM 60.6°F15.9°C 58.9°F14.9°C 94% 9.4 mph SSE15.1 kmh SSE 14.0 mph22.5 kmh 29.73 in1006.8 mb 0.14 in3.6 mm 0.00 in0.0 mm 0.14 in3.6 mm
06:24 AM 60.6°F15.9°C 58.9°F14.9°C 94% 6.3 mph NE10.1 kmh NE 14.0 mph22.5 kmh 29.73 in1006.8 mb 0.14 in3.6 mm 0.00 in0.0 mm 0.14 in3.6 mm
06:25 AM 60.6°F15.9°C 58.9°F14.9°C 94% 6.8 mph SSE10.9 kmh SSE 14.0 mph22.5 kmh 29.73 in1006.8 mb 0.14 in3.6 mm 0.00 in0.0 mm 0.14 in3.6 mm
06:26 AM 60.4°F15.8°C 58.7°F14.8°C 94% 5.8 mph ESE9.3 kmh ESE 14.0 mph22.5 kmh 29.73 in1006.8 mb 0.14 in3.6 mm 0.00 in0.0 mm 0.14 in3.6 mm
06:27 AM 60.4°F15.8°C 58.7°F14.8°C 94% 6.3 mph S10.1 kmh S 14.0 mph22.5 kmh 29.73 in1006.8 mb 0.14 in3.6 mm 0.00 in0.0 mm 0.14 in3.6 mm
06:28 AM 60.4°F15.8°C 58.7°F14.8°C 94% 11.4 mph ESE18.3 kmh ESE 14.0 mph22.5 kmh 29.73 in1006.8 mb 0.14 in3.6 mm 0.00 in0.0 mm 0.14 in3.6 mm
06:29 AM 60.4°F15.8°C 58.7°F14.8°C 94% 12.5 mph SSW20.1 kmh SSW 14.0 mph22.5 kmh 29.73 in1006.8 mb 0.15 in3.8 mm 0.60 in15.2 mm 0.15 in3.8 mm
06:30 AM 60.4°F15.8°C 58.7°F14.8°C 94% 5.8 mph ESE9.3 kmh ESE 13.0 mph20.9 kmh 29.73 in1006.8 mb 0.15 in3.8 mm 0.00 in0.0 mm 0.15 in3.8 mm
06:31 AM 60.4°F15.8°C 58.7°F14.8°C 94% 5.8 mph S9.3 kmh S 12.5 mph20.1 kmh 29.73 in1006.8 mb 0.15 in3.8 mm 0.00 in0.0 mm 0.15 in3.8 mm
06:32 AM 60.4°F15.8°C 58.7°F14.8°C 94% 8.3 mph ESE13.4 kmh ESE 12.5 mph20.1 kmh 29.73 in1006.8 mb 0.15 in3.8 mm 0.00 in0.0 mm 0.15 in3.8 mm
06:33 AM 60.4°F15.8°C 58.7°F14.8°C 94% 4.2 mph ESE6.8 kmh ESE 12.5 mph20.1 kmh 29.73 in1006.8 mb 0.15 in3.8 mm 0.00 in0.0 mm 0.15 in3.8 mm
06:34 AM 60.4°F15.8°C 58.7°F14.8°C 94% 3.2 mph N5.1 kmh N 12.5 mph20.1 kmh 29.73 in1006.8 mb 0.16 in4.1 mm 0.60 in15.2 mm 0.16 in4.1 mm
06:35 AM 60.4°F15.8°C 58.7°F14.8°C 94% 5.3 mph ESE8.5 kmh ESE 12.5 mph20.1 kmh 29.73 in1006.8 mb 0.16 in4.1 mm 0.00 in0.0 mm 0.16 in4.1 mm
06:36 AM 60.4°F15.8°C 58.7°F14.8°C 94% 5.3 mph SE8.5 kmh SE 12.5 mph20.1 kmh 29.73 in1006.8 mb 0.17 in4.3 mm 0.60 in15.2 mm 0.17 in4.3 mm
06:37 AM 60.4°F15.8°C 58.7°F14.8°C 94% 5.8 mph S9.3 kmh S 12.5 mph20.1 kmh 29.73 in1006.8 mb 0.10 in2.5 mm 0.00 in0.0 mm 0.17 in4.3 mm
06:38 AM 60.4°F15.8°C 58.7°F14.8°C 94% 3.2 mph E5.1 kmh E 12.5 mph20.1 kmh 29.73 in1006.8 mb 0.10 in2.5 mm 0.00 in0.0 mm 0.17 in4.3 mm
06:39 AM 60.4°F15.8°C 59.0°F15.0°C 95% 7.8 mph S12.6 kmh S 11.4 mph18.3 kmh 29.73 in1006.8 mb 0.11 in2.8 mm 0.60 in15.2 mm 0.18 in4.6 mm
06:40 AM 60.4°F15.8°C 59.0°F15.0°C 95% 5.3 mph S8.5 kmh S 11.4 mph18.3 kmh 29.73 in1006.8 mb 0.11 in2.8 mm 0.00 in0.0 mm 0.18 in4.6 mm
06:41 AM 60.4°F15.8°C 59.0°F15.0°C 95% 5.8 mph S9.3 kmh S 9.4 mph15.1 kmh 29.74 in1007.1 mb 0.10 in2.5 mm 0.00 in0.0 mm 0.18 in4.6 mm
06:42 AM 60.4°F15.8°C 59.0°F15.0°C 95% 4.2 mph SE6.8 kmh SE 9.4 mph15.1 kmh 29.74 in1007.1 mb 0.10 in2.5 mm 0.00 in0.0 mm 0.18 in4.6 mm
06:43 AM 60.4°F15.8°C 59.0°F15.0°C 95% 7.8 mph SSE12.6 kmh SSE 9.4 mph15.1 kmh 29.74 in1007.1 mb 0.10 in2.5 mm 0.00 in0.0 mm 0.18 in4.6 mm
06:44 AM 60.4°F15.8°C 59.0°F15.0°C 95% 2.2 mph NW3.5 kmh NW 9.4 mph15.1 kmh 29.74 in1007.1 mb 0.10 in2.5 mm 0.00 in0.0 mm 0.18 in4.6 mm
06:45 AM 60.4°F15.8°C 59.0°F15.0°C 95% 2.7 mph W4.3 kmh W 9.4 mph15.1 kmh 29.74 in1007.1 mb 0.10 in2.5 mm 0.00 in0.0 mm 0.18 in4.6 mm
06:46 AM 60.4°F15.8°C 59.0°F15.0°C 95% 3.2 mph NNW5.1 kmh NNW 9.4 mph15.1 kmh 29.74 in1007.1 mb 0.10 in2.5 mm 0.00 in0.0 mm 0.18 in4.6 mm
06:47 AM 60.3°F15.7°C 58.9°F14.9°C 95% 6.8 mph SSE10.9 kmh SSE 9.4 mph15.1 kmh 29.74 in1007.1 mb 0.10 in2.5 mm 0.00 in0.0 mm 0.18 in4.6 mm
06:48 AM 60.3°F15.7°C 58.9°F14.9°C 95% 7.3 mph SSE11.7 kmh SSE 9.4 mph15.1 kmh 29.74 in1007.1 mb 0.10 in2.5 mm 0.00 in0.0 mm 0.18 in4.6 mm
06:49 AM 60.3°F15.7°C 58.9°F14.9°C 95% 2.2 mph NNW3.5 kmh NNW 9.4 mph15.1 kmh 29.74 in1007.1 mb 0.10 in2.5 mm 0.00 in0.0 mm 0.18 in4.6 mm
06:50 AM 60.3°F15.7°C 58.9°F14.9°C 95% 6.3 mph SSW10.1 kmh SSW 9.4 mph15.1 kmh 29.74 in1007.1 mb 0.10 in2.5 mm 0.00 in0.0 mm 0.18 in4.6 mm
06:51 AM 60.3°F15.7°C 58.9°F14.9°C 95% 4.2 mph SE6.8 kmh SE 7.8 mph12.6 kmh 29.74 in1007.1 mb 0.10 in2.5 mm 0.00 in0.0 mm 0.18 in4.6 mm
06:52 AM 60.3°F15.7°C 58.9°F14.9°C 95% 3.7 mph E6.0 kmh E 7.8 mph12.6 kmh 29.74 in1007.1 mb 0.09 in2.3 mm 0.00 in0.0 mm 0.18 in4.6 mm
06:53 AM 60.3°F15.7°C 58.9°F14.9°C 95% 3.2 mph WNW5.1 kmh WNW 7.3 mph11.7 kmh 29.74 in1007.1 mb 0.09 in2.3 mm 0.00 in0.0 mm 0.18 in4.6 mm
06:54 AM 60.3°F15.7°C 58.9°F14.9°C 95% 4.7 mph NNW7.6 kmh NNW 7.3 mph11.7 kmh 29.74 in1007.1 mb 0.09 in2.3 mm 0.00 in0.0 mm 0.18 in4.6 mm
06:55 AM 60.3°F15.7°C 58.9°F14.9°C 95% 3.7 mph ESE6.0 kmh ESE 7.3 mph11.7 kmh 29.74 in1007.1 mb 0.09 in2.3 mm 0.00 in0.0 mm 0.18 in4.6 mm
06:56 AM 60.3°F15.7°C 58.9°F14.9°C 95% 3.7 mph ESE6.0 kmh ESE 7.3 mph11.7 kmh 29.74 in1007.1 mb 0.09 in2.3 mm 0.00 in0.0 mm 0.18 in4.6 mm
06:57 AM 60.3°F15.7°C 58.9°F14.9°C 95% 10.9 mph SE17.5 kmh SE 10.9 mph17.5 kmh 29.74 in1007.1 mb 0.09 in2.3 mm 0.00 in0.0 mm 0.18 in4.6 mm
06:58 AM 60.3°F15.7°C 58.9°F14.9°C 95% 5.8 mph SW9.3 kmh SW 10.9 mph17.5 kmh 29.74 in1007.1 mb 0.09 in2.3 mm 0.00 in0.0 mm 0.18 in4.6 mm
06:59 AM 60.3°F15.7°C 58.9°F14.9°C 95% 8.9 mph SSE14.3 kmh SSE 10.9 mph17.5 kmh 29.74 in1007.1 mb 0.09 in2.3 mm 0.00 in0.0 mm 0.18 in4.6 mm
07:00 AM 60.4°F15.8°C 59.0°F15.0°C 95% 3.2 mph SSE5.1 kmh SSE 10.9 mph17.5 kmh 29.74 in1007.1 mb 0.09 in2.3 mm 0.00 in0.0 mm 0.18 in4.6 mm
07:01 AM 60.4°F15.8°C 59.0°F15.0°C 95% 3.7 mph SSE6.0 kmh SSE 10.9 mph17.5 kmh 29.74 in1007.1 mb 0.09 in2.3 mm 0.00 in0.0 mm 0.18 in4.6 mm
07:02 AM 60.4°F15.8°C 59.0°F15.0°C 95% 5.3 mph SE8.5 kmh SE 10.9 mph17.5 kmh 29.74 in1007.1 mb 0.09 in2.3 mm 0.00 in0.0 mm 0.18 in4.6 mm
07:03 AM 60.4°F15.8°C 59.0°F15.0°C 95% 4.7 mph SE7.6 kmh SE 10.9 mph17.5 kmh 29.74 in1007.1 mb 0.09 in2.3 mm 0.00 in0.0 mm 0.18 in4.6 mm
07:04 AM 60.4°F15.8°C 59.0°F15.0°C 95% 4.7 mph SSW7.6 kmh SSW 10.9 mph17.5 kmh 29.74 in1007.1 mb 0.08 in2.0 mm 0.00 in0.0 mm 0.18 in4.6 mm
07:05 AM 60.4°F15.8°C 59.0°F15.0°C 95% 4.7 mph S7.6 kmh S 10.9 mph17.5 kmh 29.73 in1006.8 mb 0.08 in2.0 mm 0.00 in0.0 mm 0.18 in4.6 mm
07:06 AM 60.4°F15.8°C 59.0°F15.0°C 95% 3.2 mph S5.1 kmh S 10.9 mph17.5 kmh 29.73 in1006.8 mb 0.08 in2.0 mm 0.00 in0.0 mm 0.18 in4.6 mm
07:07 AM 60.4°F15.8°C 59.0°F15.0°C 95% 3.7 mph W6.0 kmh W 8.9 mph14.3 kmh 29.73 in1006.8 mb 0.07 in1.8 mm 0.00 in0.0 mm 0.18 in4.6 mm
07:08 AM 60.4°F15.8°C 59.0°F15.0°C 95% 4.7 mph WSW7.6 kmh WSW 8.9 mph14.3 kmh 29.73 in1006.8 mb 0.07 in1.8 mm 0.00 in0.0 mm 0.18 in4.6 mm
07:09 AM 60.4°F15.8°C 59.3°F15.2°C 96% 7.3 mph SW11.7 kmh SW 7.8 mph12.6 kmh 29.73 in1006.8 mb 0.07 in1.8 mm 0.00 in0.0 mm 0.18 in4.6 mm
07:10 AM 60.4°F15.8°C 59.3°F15.2°C 96% 10.4 mph W16.7 kmh W 10.4 mph16.7 kmh 29.73 in1006.8 mb 0.07 in1.8 mm 0.00 in0.0 mm 0.18 in4.6 mm
07:11 AM 60.4°F15.8°C 59.3°F15.2°C 96% 6.3 mph W10.1 kmh W 10.9 mph17.5 kmh 29.73 in1006.8 mb 0.08 in2.0 mm 0.60 in15.2 mm 0.19 in4.8 mm
07:12 AM 60.4°F15.8°C 59.3°F15.2°C 96% 7.8 mph W12.6 kmh W 10.9 mph17.5 kmh 29.73 in1006.8 mb 0.10 in2.5 mm 1.20 in30.5 mm 0.21 in5.3 mm
07:13 AM 60.4°F15.8°C 59.3°F15.2°C 96% 3.7 mph SW6.0 kmh SW 10.9 mph17.5 kmh 29.73 in1006.8 mb 0.12 in3.0 mm 1.20 in30.5 mm 0.23 in5.8 mm
07:14 AM 60.4°F15.8°C 59.3°F15.2°C 96% 3.2 mph NNE5.1 kmh NNE 10.9 mph17.5 kmh 29.73 in1006.8 mb 0.12 in3.0 mm 0.00 in0.0 mm 0.24 in6.1 mm
07:15 AM 60.4°F15.8°C 59.3°F15.2°C 96% 2.7 mph SSE4.3 kmh SSE 10.9 mph17.5 kmh 29.73 in1006.8 mb 0.12 in3.0 mm 0.00 in0.0 mm 0.24 in6.1 mm
07:16 AM 60.4°F15.8°C 59.3°F15.2°C 96% 2.2 mph ESE3.5 kmh ESE 10.9 mph17.5 kmh 29.73 in1006.8 mb 0.12 in3.0 mm 0.00 in0.0 mm 0.24 in6.1 mm
07:17 AM 60.4°F15.8°C 59.3°F15.2°C 96% 3.7 mph NW6.0 kmh NW 10.9 mph17.5 kmh 29.75 in1007.5 mb 0.11 in2.8 mm 0.00 in0.0 mm 0.24 in6.1 mm
07:18 AM 60.4°F15.8°C 59.3°F15.2°C 96% 4.2 mph W6.8 kmh W 10.9 mph17.5 kmh 29.75 in1007.5 mb 0.11 in2.8 mm 0.00 in0.0 mm 0.24 in6.1 mm
07:19 AM 60.4°F15.8°C 59.3°F15.2°C 96% 4.7 mph W7.6 kmh W 10.9 mph17.5 kmh 29.75 in1007.5 mb 0.11 in2.8 mm 0.00 in0.0 mm 0.25 in6.4 mm
07:20 AM 60.4°F15.8°C 59.3°F15.2°C 96% 8.9 mph WNW14.3 kmh WNW 10.9 mph17.5 kmh 29.75 in1007.5 mb 0.12 in3.0 mm 0.60 in15.2 mm 0.26 in6.6 mm
07:21 AM 60.4°F15.8°C 59.3°F15.2°C 96% 6.8 mph NW10.9 kmh NW 10.9 mph17.5 kmh 29.75 in1007.5 mb 0.12 in3.0 mm 0.00 in0.0 mm 0.26 in6.6 mm
07:22 AM 60.4°F15.8°C 59.3°F15.2°C 96% 3.2 mph NW5.1 kmh NW 10.9 mph17.5 kmh 29.75 in1007.5 mb 0.12 in3.0 mm 0.00 in0.0 mm 0.26 in6.6 mm
07:23 AM 60.4°F15.8°C 59.3°F15.2°C 96% 3.7 mph W6.0 kmh W 10.9 mph17.5 kmh 29.75 in1007.5 mb 0.12 in3.0 mm 0.00 in0.0 mm 0.26 in6.6 mm
07:24 AM 60.4°F15.8°C 59.3°F15.2°C 96% 4.2 mph NNW6.8 kmh NNW 10.9 mph17.5 kmh 29.75 in1007.5 mb 0.12 in3.0 mm 0.00 in0.0 mm 0.26 in6.6 mm
07:25 AM 60.4°F15.8°C 59.3°F15.2°C 96% 2.2 mph S3.5 kmh S 10.9 mph17.5 kmh 29.75 in1007.5 mb 0.12 in3.0 mm 0.00 in0.0 mm 0.26 in6.6 mm
07:26 AM 60.4°F15.8°C 59.3°F15.2°C 96% 2.7 mph SSE4.3 kmh SSE 10.9 mph17.5 kmh 29.75 in1007.5 mb 0.12 in3.0 mm 0.00 in0.0 mm 0.26 in6.6 mm
07:27 AM 60.4°F15.8°C 59.3°F15.2°C 96% 1.7 mph NW2.7 kmh NW 10.9 mph17.5 kmh 29.75 in1007.5 mb 0.12 in3.0 mm 0.00 in0.0 mm 0.26 in6.6 mm
07:28 AM 60.4°F15.8°C 59.3°F15.2°C 96% 3.2 mph E5.1 kmh E 10.9 mph17.5 kmh 29.75 in1007.5 mb 0.12 in3.0 mm 0.00 in0.0 mm 0.26 in6.6 mm
07:29 AM 60.4°F15.8°C 59.3°F15.2°C 96% 4.7 mph W7.6 kmh W 10.9 mph17.5 kmh 29.73 in1006.8 mb 0.11 in2.8 mm 0.00 in0.0 mm 0.26 in6.6 mm
07:30 AM 60.4°F15.8°C 59.3°F15.2°C 96% 6.3 mph N10.1 kmh N 10.9 mph17.5 kmh 29.73 in1006.8 mb 0.11 in2.8 mm 0.00 in0.0 mm 0.26 in6.6 mm
07:31 AM 60.4°F15.8°C 59.3°F15.2°C 96% 2.7 mph E4.3 kmh E 8.3 mph13.4 kmh 29.73 in1006.8 mb 0.11 in2.8 mm 0.00 in0.0 mm 0.26 in6.6 mm
07:32 AM 60.4°F15.8°C 59.3°F15.2°C 96% 6.8 mph SSW10.9 kmh SSW 8.3 mph13.4 kmh 29.73 in1006.8 mb 0.11 in2.8 mm 0.00 in0.0 mm 0.26 in6.6 mm
07:33 AM 60.4°F15.8°C 59.3°F15.2°C 96% 4.7 mph NE7.6 kmh NE 8.3 mph13.4 kmh 29.73 in1006.8 mb 0.11 in2.8 mm 0.00 in0.0 mm 0.26 in6.6 mm
07:34 AM 60.4°F15.8°C 59.3°F15.2°C 96% 6.8 mph ESE10.9 kmh ESE 6.8 mph10.9 kmh 29.73 in1006.8 mb 0.10 in2.5 mm 0.00 in0.0 mm 0.26 in6.6 mm
07:35 AM 60.4°F15.8°C 59.3°F15.2°C 96% 4.2 mph S6.8 kmh S 6.8 mph10.9 kmh 29.73 in1006.8 mb 0.10 in2.5 mm 0.00 in0.0 mm 0.26 in6.6 mm
07:36 AM 60.4°F15.8°C 59.3°F15.2°C 96% 4.2 mph S6.8 kmh S 6.8 mph10.9 kmh 29.73 in1006.8 mb 0.09 in2.3 mm 0.00 in0.0 mm 0.26 in6.6 mm
07:37 AM 60.4°F15.8°C 59.3°F15.2°C 96% 4.2 mph N6.8 kmh N 6.8 mph10.9 kmh 29.73 in1006.8 mb 0.09 in2.3 mm 0.00 in0.0 mm 0.26 in6.6 mm
07:38 AM 60.4°F15.8°C 59.3°F15.2°C 96% 3.2 mph W5.1 kmh W 6.8 mph10.9 kmh 29.73 in1006.8 mb 0.09 in2.3 mm 0.00 in0.0 mm 0.26 in6.6 mm
07:39 AM 60.4°F15.8°C 59.3°F15.2°C 96% 7.3 mph NE11.7 kmh NE 7.3 mph11.7 kmh 29.73 in1006.8 mb 0.10 in2.5 mm 0.60 in15.2 mm 0.28 in7.1 mm
07:40 AM 60.4°F15.8°C 59.3°F15.2°C 96% 5.3 mph NE8.5 kmh NE 7.3 mph11.7 kmh 29.73 in1006.8 mb 0.10 in2.5 mm 0.00 in0.0 mm 0.28 in7.1 mm
07:41 AM 60.4°F15.8°C 59.3°F15.2°C 96% 3.7 mph W6.0 kmh W 7.3 mph11.7 kmh 29.74 in1007.1 mb 0.11 in2.8 mm 0.60 in15.2 mm 0.29 in7.4 mm
07:42 AM 60.4°F15.8°C 59.3°F15.2°C 96% 2.2 mph ENE3.5 kmh ENE 7.3 mph11.7 kmh 29.74 in1007.1 mb 0.12 in3.0 mm 0.60 in15.2 mm 0.30 in7.6 mm
07:43 AM 60.4°F15.8°C 59.3°F15.2°C 96% 4.7 mph ENE7.6 kmh ENE 7.3 mph11.7 kmh 29.74 in1007.1 mb 0.12 in3.0 mm 0.00 in0.0 mm 0.30 in7.6 mm
07:44 AM 60.4°F15.8°C 59.3°F15.2°C 96% 2.2 mph ESE3.5 kmh ESE 7.3 mph11.7 kmh 29.74 in1007.1 mb 0.13 in3.3 mm 0.60 in15.2 mm 0.31 in7.9 mm
07:45 AM 60.4°F15.8°C 59.3°F15.2°C 96% 2.7 mph W4.3 kmh W 7.3 mph11.7 kmh 29.74 in1007.1 mb 0.14 in3.6 mm 0.60 in15.2 mm 0.32 in8.1 mm
07:46 AM 60.4°F15.8°C 59.3°F15.2°C 96% 2.7 mph W4.3 kmh W 7.3 mph11.7 kmh 29.74 in1007.1 mb 0.14 in3.6 mm 0.00 in0.0 mm 0.32 in8.1 mm
07:51 AM 60.4°F15.8°C 59.3°F15.2°C 96% 2.2 mph SSE3.5 kmh SSE 5.3 mph8.5 kmh 29.74 in1007.1 mb 0.15 in3.8 mm 0.12 in3.0 mm 0.33 in8.4 mm
07:52 AM 60.4°F15.8°C 59.5°F15.3°C 97% 4.2 mph NNE6.8 kmh NNE 4.7 mph7.6 kmh 29.74 in1007.1 mb 0.15 in3.8 mm 0.00 in0.0 mm 0.33 in8.4 mm
07:53 AM 60.4°F15.8°C 59.5°F15.3°C 97% 2.7 mph SSE4.3 kmh SSE 5.8 mph9.3 kmh 29.74 in1007.1 mb 0.15 in3.8 mm 0.00 in0.0 mm 0.33 in8.4 mm
07:54 AM 60.4°F15.8°C 59.5°F15.3°C 97% 3.2 mph SE5.1 kmh SE 5.8 mph9.3 kmh 29.74 in1007.1 mb 0.15 in3.8 mm 0.00 in0.0 mm 0.33 in8.4 mm
07:55 AM 60.4°F15.8°C 59.5°F15.3°C 97% 1.7 mph WSW2.7 kmh WSW 5.8 mph9.3 kmh 29.74 in1007.1 mb 0.16 in4.1 mm 0.60 in15.2 mm 0.34 in8.6 mm
07:56 AM 60.4°F15.8°C 59.5°F15.3°C 97% 2.7 mph ESE4.3 kmh ESE 5.8 mph9.3 kmh 29.74 in1007.1 mb 0.17 in4.3 mm 0.60 in15.2 mm 0.35 in8.9 mm
07:57 AM 60.4°F15.8°C 59.5°F15.3°C 97% 3.7 mph SSE6.0 kmh SSE 5.8 mph9.3 kmh 29.74 in1007.1 mb 0.18 in4.6 mm 0.60 in15.2 mm 0.36 in9.1 mm
07:58 AM 60.4°F15.8°C 59.5°F15.3°C 97% 2.7 mph W4.3 kmh W 5.8 mph9.3 kmh 29.74 in1007.1 mb 0.19 in4.8 mm 0.60 in15.2 mm 0.37 in9.4 mm
07:59 AM 60.4°F15.8°C 59.5°F15.3°C 97% 3.2 mph SSE5.1 kmh SSE 5.8 mph9.3 kmh 29.74 in1007.1 mb 0.19 in4.8 mm 0.00 in0.0 mm 0.37 in9.4 mm
08:00 AM 60.4°F15.8°C 59.5°F15.3°C 97% 2.7 mph SW4.3 kmh SW 5.8 mph9.3 kmh 29.74 in1007.1 mb 0.19 in4.8 mm 0.00 in0.0 mm 0.37 in9.4 mm
08:01 AM 60.4°F15.8°C 59.5°F15.3°C 97% 1.7 mph W2.7 kmh W 5.8 mph9.3 kmh 29.74 in1007.1 mb 0.19 in4.8 mm 0.00 in0.0 mm 0.37 in9.4 mm
08:02 AM 60.4°F15.8°C 59.5°F15.3°C 97% 4.2 mph SSW6.8 kmh SSW 5.8 mph9.3 kmh 29.74 in1007.1 mb 0.20 in5.1 mm 0.60 in15.2 mm 0.38 in9.7 mm
08:03 AM 60.4°F15.8°C 59.5°F15.3°C 97% 3.7 mph WNW6.0 kmh WNW 5.8 mph9.3 kmh 29.74 in1007.1 mb 0.20 in5.1 mm 0.00 in0.0 mm 0.38 in9.7 mm
08:04 AM 60.4°F15.8°C 59.5°F15.3°C 97% 2.2 mph S3.5 kmh S 5.8 mph9.3 kmh 29.74 in1007.1 mb 0.20 in5.1 mm 0.00 in0.0 mm 0.38 in9.7 mm
08:05 AM 60.4°F15.8°C 59.5°F15.3°C 97% 2.7 mph ESE4.3 kmh ESE 5.8 mph9.3 kmh 29.73 in1006.8 mb 0.20 in5.1 mm 0.00 in0.0 mm 0.38 in9.7 mm
08:06 AM 60.4°F15.8°C 59.5°F15.3°C 97% 1.7 mph NNW2.7 kmh NNW 5.8 mph9.3 kmh 29.73 in1006.8 mb 0.20 in5.1 mm 0.00 in0.0 mm 0.38 in9.7 mm
08:07 AM 60.4°F15.8°C 59.5°F15.3°C 97% 2.7 mph S4.3 kmh S 5.8 mph9.3 kmh 29.73 in1006.8 mb 0.20 in5.1 mm 0.00 in0.0 mm 0.38 in9.7 mm
08:08 AM 60.4°F15.8°C 59.5°F15.3°C 97% 4.7 mph SE7.6 kmh SE 5.8 mph9.3 kmh 29.73 in1006.8 mb 0.21 in5.3 mm 0.60 in15.2 mm 0.39 in9.9 mm
08:09 AM 60.4°F15.8°C 59.5°F15.3°C 97% 1.7 mph SSE2.7 kmh SSE 5.8 mph9.3 kmh 29.73 in1006.8 mb 0.21 in5.3 mm 0.00 in0.0 mm 0.39 in9.9 mm
08:10 AM 60.4°F15.8°C 59.5°F15.3°C 97% 2.2 mph SSE3.5 kmh SSE 4.7 mph7.6 kmh 29.73 in1006.8 mb 0.21 in5.3 mm 0.00 in0.0 mm 0.39 in9.9 mm
08:11 AM 60.4°F15.8°C 59.5°F15.3°C 97% 1.7 mph WSW2.7 kmh WSW 4.7 mph7.6 kmh 29.73 in1006.8 mb 0.20 in5.1 mm 0.00 in0.0 mm 0.39 in9.9 mm
08:12 AM 60.4°F15.8°C 59.5°F15.3°C 97% 1.7 mph SE2.7 kmh SE 4.7 mph7.6 kmh 29.73 in1006.8 mb 0.18 in4.6 mm 0.00 in0.0 mm 0.39 in9.9 mm
08:13 AM 60.4°F15.8°C 59.5°F15.3°C 97% 2.7 mph S4.3 kmh S 4.7 mph7.6 kmh 29.73 in1006.8 mb 0.16 in4.1 mm 0.00 in0.0 mm 0.39 in9.9 mm
08:14 AM 60.4°F15.8°C 59.5°F15.3°C 97% 2.2 mph W3.5 kmh W 4.7 mph7.6 kmh 29.73 in1006.8 mb 0.15 in3.8 mm 0.00 in0.0 mm 0.39 in9.9 mm
08:15 AM 60.4°F15.8°C 59.5°F15.3°C 97% 2.2 mph WNW3.5 kmh WNW 4.7 mph7.6 kmh 29.73 in1006.8 mb 0.15 in3.8 mm 0.00 in0.0 mm 0.39 in9.9 mm
08:16 AM 60.4°F15.8°C 59.5°F15.3°C 97% 2.2 mph ESE3.5 kmh ESE 4.7 mph7.6 kmh 29.72 in1006.4 mb 0.16 in4.1 mm 0.60 in15.2 mm 0.40 in10.2 mm
08:17 AM 60.4°F15.8°C 59.5°F15.3°C 97% 4.2 mph SSW6.8 kmh SSW 4.7 mph7.6 kmh 29.72 in1006.4 mb 0.16 in4.1 mm 0.00 in0.0 mm 0.40 in10.2 mm
08:18 AM 60.4°F15.8°C 59.8°F15.4°C 98% 3.7 mph SSW6.0 kmh SSW 4.7 mph7.6 kmh 29.72 in1006.4 mb 0.16 in4.1 mm 0.00 in0.0 mm 0.40 in10.2 mm
08:19 AM 60.4°F15.8°C 59.8°F15.4°C 98% 2.2 mph WSW3.5 kmh WSW 4.2 mph6.8 kmh 29.72 in1006.4 mb 0.15 in3.8 mm 0.00 in0.0 mm 0.40 in10.2 mm
08:20 AM 60.4°F15.8°C 59.8°F15.4°C 98% 1.7 mph WSW2.7 kmh WSW 4.2 mph6.8 kmh 29.72 in1006.4 mb 0.14 in3.6 mm 0.00 in0.0 mm 0.40 in10.2 mm
08:21 AM 60.4°F15.8°C 59.8°F15.4°C 98% 2.2 mph WNW3.5 kmh WNW 4.2 mph6.8 kmh 29.72 in1006.4 mb 0.14 in3.6 mm 0.00 in0.0 mm 0.40 in10.2 mm
08:22 AM 60.4°F15.8°C 59.8°F15.4°C 98% 2.2 mph NNE3.5 kmh NNE 4.2 mph6.8 kmh 29.72 in1006.4 mb 0.14 in3.6 mm 0.00 in0.0 mm 0.40 in10.2 mm
08:23 AM 60.6°F15.9°C 60.0°F15.6°C 98% 2.2 mph S3.5 kmh S 4.2 mph6.8 kmh 29.72 in1006.4 mb 0.14 in3.6 mm 0.00 in0.0 mm 0.40 in10.2 mm
08:24 AM 60.6°F15.9°C 60.0°F15.6°C 98% 4.7 mph SW7.6 kmh SW 4.7 mph7.6 kmh 29.72 in1006.4 mb 0.14 in3.6 mm 0.00 in0.0 mm 0.40 in10.2 mm
08:25 AM 60.6°F15.9°C 60.0°F15.6°C 98% 2.7 mph NNW4.3 kmh NNW 4.7 mph7.6 kmh 29.72 in1006.4 mb 0.14 in3.6 mm 0.00 in0.0 mm 0.40 in10.2 mm
08:26 AM 60.6°F15.9°C 60.0°F15.6°C 98% 2.2 mph WSW3.5 kmh WSW 4.7 mph7.6 kmh 29.72 in1006.4 mb 0.14 in3.6 mm 0.00 in0.0 mm 0.40 in10.2 mm
08:27 AM 60.6°F15.9°C 60.0°F15.6°C 98% 1.7 mph SW2.7 kmh SW 4.7 mph7.6 kmh 29.72 in1006.4 mb 0.14 in3.6 mm 0.00 in0.0 mm 0.40 in10.2 mm
08:28 AM 60.6°F15.9°C 60.0°F15.6°C 98% 1.1 mph NNE1.8 kmh NNE 4.7 mph7.6 kmh 29.72 in1006.4 mb 0.15 in3.8 mm 0.60 in15.2 mm 0.41 in10.4 mm
08:29 AM 60.6°F15.9°C 60.0°F15.6°C 98% 3.7 mph W6.0 kmh W 4.7 mph7.6 kmh 29.73 in1006.8 mb 0.15 in3.8 mm 0.00 in0.0 mm 0.41 in10.4 mm
08:30 AM 60.6°F15.9°C 60.0°F15.6°C 98% 1.7 mph SSW2.7 kmh SSW 4.7 mph7.6 kmh 29.73 in1006.8 mb 0.15 in3.8 mm 0.00 in0.0 mm 0.41 in10.4 mm
08:31 AM 60.6°F15.9°C 60.0°F15.6°C 98% 2.7 mph S4.3 kmh S 4.7 mph7.6 kmh 29.73 in1006.8 mb 0.15 in3.8 mm 0.00 in0.0 mm 0.41 in10.4 mm
08:32 AM 60.6°F15.9°C 60.0°F15.6°C 98% 1.1 mph NNW1.8 kmh NNW 4.7 mph7.6 kmh 29.73 in1006.8 mb 0.15 in3.8 mm 0.00 in0.0 mm 0.41 in10.4 mm
08:33 AM 60.6°F15.9°C 60.0°F15.6°C 98% 1.7 mph S2.7 kmh S 4.7 mph7.6 kmh 29.73 in1006.8 mb 0.15 in3.8 mm 0.00 in0.0 mm 0.41 in10.4 mm
08:34 AM 60.6°F15.9°C 60.0°F15.6°C 98% 4.2 mph WNW6.8 kmh WNW 4.2 mph6.8 kmh 29.73 in1006.8 mb 0.15 in3.8 mm 0.00 in0.0 mm 0.41 in10.4 mm
08:35 AM 60.6°F15.9°C 60.0°F15.6°C 98% 2.2 mph NW3.5 kmh NW 4.2 mph6.8 kmh 29.73 in1006.8 mb 0.15 in3.8 mm 0.00 in0.0 mm 0.41 in10.4 mm
08:36 AM 60.6°F15.9°C 60.0°F15.6°C 98% 2.2 mph SW3.5 kmh SW 4.2 mph6.8 kmh 29.73 in1006.8 mb 0.15 in3.8 mm 0.00 in0.0 mm 0.41 in10.4 mm
08:37 AM 60.6°F15.9°C 60.0°F15.6°C 98% 2.2 mph SE3.5 kmh SE 4.2 mph6.8 kmh 29.73 in1006.8 mb 0.15 in3.8 mm 0.00 in0.0 mm 0.41 in10.4 mm
08:38 AM 60.6°F15.9°C 60.0°F15.6°C 98% 2.7 mph WSW4.3 kmh WSW 4.2 mph6.8 kmh 29.73 in1006.8 mb 0.15 in3.8 mm 0.00 in0.0 mm 0.41 in10.4 mm
08:39 AM 60.6°F15.9°C 60.0°F15.6°C 98% 1.7 mph NNE2.7 kmh NNE 4.2 mph6.8 kmh 29.73 in1006.8 mb 0.14 in3.6 mm 0.00 in0.0 mm 0.41 in10.4 mm
08:40 AM 60.6°F15.9°C 60.0°F15.6°C 98% 1.7 mph SSE2.7 kmh SSE 4.2 mph6.8 kmh 29.73 in1006.8 mb 0.13 in3.3 mm 0.00 in0.0 mm 0.41 in10.4 mm
08:41 AM 60.6°F15.9°C 60.0°F15.6°C 98% 1.7 mph S2.7 kmh S 4.2 mph6.8 kmh 29.73 in1006.8 mb 0.12 in3.0 mm 0.00 in0.0 mm 0.41 in10.4 mm
08:42 AM 60.6°F15.9°C 60.0°F15.6°C 98% 1.1 mph NNW1.8 kmh NNW 4.2 mph6.8 kmh 29.73 in1006.8 mb 0.11 in2.8 mm 0.00 in0.0 mm 0.41 in10.4 mm
08:43 AM 60.6°F15.9°C 60.0°F15.6°C 98% 1.1 mph SSE1.8 kmh SSE 4.2 mph6.8 kmh 29.73 in1006.8 mb 0.11 in2.8 mm 0.00 in0.0 mm 0.41 in10.4 mm
08:44 AM 60.6°F15.9°C 60.0°F15.6°C 98% 1.7 mph SSE2.7 kmh SSE 4.2 mph6.8 kmh 29.73 in1006.8 mb 0.10 in2.5 mm 0.00 in0.0 mm 0.41 in10.4 mm
08:45 AM 60.6°F15.9°C 60.0°F15.6°C 98% 1.1 mph WNW1.8 kmh WNW 4.2 mph6.8 kmh 29.73 in1006.8 mb 0.09 in2.3 mm 0.00 in0.0 mm 0.41 in10.4 mm
08:46 AM 60.6°F15.9°C 60.0°F15.6°C 98% 2.7 mph SSE4.3 kmh SSE 4.2 mph6.8 kmh 29.73 in1006.8 mb 0.09 in2.3 mm 0.00 in0.0 mm 0.41 in10.4 mm
08:47 AM 60.6°F15.9°C 60.0°F15.6°C 98% 3.2 mph S5.1 kmh S 4.2 mph6.8 kmh 29.73 in1006.8 mb 0.09 in2.3 mm 0.00 in0.0 mm 0.41 in10.4 mm
08:48 AM 60.6°F15.9°C 60.0°F15.6°C 98% 2.2 mph SSE3.5 kmh SSE 3.7 mph6.0 kmh 29.73 in1006.8 mb 0.09 in2.3 mm 0.00 in0.0 mm 0.41 in10.4 mm
08:49 AM 60.6°F15.9°C 60.0°F15.6°C 98% 1.7 mph NE2.7 kmh NE 3.7 mph6.0 kmh 29.73 in1006.8 mb 0.09 in2.3 mm 0.00 in0.0 mm 0.41 in10.4 mm
08:50 AM 60.6°F15.9°C 60.0°F15.6°C 98% 3.2 mph SE5.1 kmh SE 3.2 mph5.1 kmh 29.73 in1006.8 mb 0.09 in2.3 mm 0.00 in0.0 mm 0.41 in10.4 mm
08:51 AM 60.6°F15.9°C 60.0°F15.6°C 98% 1.7 mph SE2.7 kmh SE 3.2 mph5.1 kmh 29.73 in1006.8 mb 0.09 in2.3 mm 0.00 in0.0 mm 0.41 in10.4 mm
08:52 AM 60.6°F15.9°C 60.0°F15.6°C 98% 2.7 mph ESE4.3 kmh ESE 3.2 mph5.1 kmh 29.72 in1006.4 mb 0.08 in2.0 mm 0.00 in0.0 mm 0.41 in10.4 mm
08:53 AM 60.6°F15.9°C 60.0°F15.6°C 98% 1.1 mph S1.8 kmh S 3.2 mph5.1 kmh 29.72 in1006.4 mb 0.08 in2.0 mm 0.00 in0.0 mm 0.41 in10.4 mm
08:54 AM 60.6°F15.9°C 60.0°F15.6°C 98% 1.1 mph SSE1.8 kmh SSE 3.2 mph5.1 kmh 29.72 in1006.4 mb 0.08 in2.0 mm 0.00 in0.0 mm 0.41 in10.4 mm
08:55 AM 60.6°F15.9°C 60.0°F15.6°C 98% Calm Calm 3.2 mph5.1 kmh 29.72 in1006.4 mb 0.07 in1.8 mm 0.00 in0.0 mm 0.41 in10.4 mm
08:56 AM 60.6°F15.9°C 60.0°F15.6°C 98% 3.7 mph SSE6.0 kmh SSE 3.7 mph6.0 kmh 29.72 in1006.4 mb 0.06 in1.5 mm 0.00 in0.0 mm 0.41 in10.4 mm
08:57 AM 60.6°F15.9°C 60.0°F15.6°C 98% 2.2 mph SSE3.5 kmh SSE 3.7 mph6.0 kmh 29.72 in1006.4 mb 0.05 in1.3 mm 0.00 in0.0 mm 0.41 in10.4 mm
08:58 AM 60.6°F15.9°C 60.0°F15.6°C 98% 2.7 mph SSE4.3 kmh SSE 3.7 mph6.0 kmh 29.72 in1006.4 mb 0.04 in1.0 mm 0.00 in0.0 mm 0.41 in10.4 mm
08:59 AM 60.8°F16.0°C 60.2°F15.7°C 98% 2.2 mph N3.5 kmh N 3.7 mph6.0 kmh 29.72 in1006.4 mb 0.04 in1.0 mm 0.00 in0.0 mm 0.41 in10.4 mm
09:00 AM 60.8°F16.0°C 60.2°F15.7°C 98% 2.2 mph SE3.5 kmh SE 3.7 mph6.0 kmh 29.72 in1006.4 mb 0.04 in1.0 mm 0.00 in0.0 mm 0.41 in10.4 mm
09:01 AM 60.8°F16.0°C 60.2°F15.7°C 98% 4.7 mph E7.6 kmh E 4.7 mph7.6 kmh 29.72 in1006.4 mb 0.04 in1.0 mm 0.00 in0.0 mm 0.41 in10.4 mm
09:02 AM 60.8°F16.0°C 60.2°F15.7°C 98% Calm Calm 4.7 mph7.6 kmh 29.72 in1006.4 mb 0.03 in0.8 mm 0.00 in0.0 mm 0.41 in10.4 mm
09:03 AM 60.8°F16.0°C 60.2°F15.7°C 98% 2.2 mph SSE3.5 kmh SSE 4.7 mph7.6 kmh 29.72 in1006.4 mb 0.03 in0.8 mm 0.00 in0.0 mm 0.41 in10.4 mm
09:04 AM 60.8°F16.0°C 60.2°F15.7°C 98% 3.2 mph S5.1 kmh S 4.7 mph7.6 kmh 29.72 in1006.4 mb 0.03 in0.8 mm 0.00 in0.0 mm 0.41 in10.4 mm
09:05 AM 60.8°F16.0°C 60.2°F15.7°C 98% 2.2 mph S3.5 kmh S 4.7 mph7.6 kmh 29.72 in1006.4 mb 0.03 in0.8 mm 0.00 in0.0 mm 0.41 in10.4 mm
09:06 AM 60.8°F16.0°C 60.2°F15.7°C 98% 3.2 mph SSW5.1 kmh SSW 4.7 mph7.6 kmh 29.71 in1006.1 mb 0.04 in1.0 mm 0.60 in15.2 mm 0.42 in10.7 mm
09:07 AM 61.0°F16.1°C 60.4°F15.8°C 98% 2.7 mph SSE4.3 kmh SSE 4.7 mph7.6 kmh 29.71 in1006.1 mb 0.04 in1.0 mm 0.00 in0.0 mm 0.42 in10.7 mm
09:08 AM 61.0°F16.1°C 60.4°F15.8°C 98% 2.7 mph SSW4.3 kmh SSW 4.7 mph7.6 kmh 29.71 in1006.1 mb 0.04 in1.0 mm 0.00 in0.0 mm 0.42 in10.7 mm
09:09 AM 61.0°F16.1°C 60.4°F15.8°C 98% 1.7 mph WSW2.7 kmh WSW 4.7 mph7.6 kmh 29.71 in1006.1 mb 0.03 in0.8 mm 0.00 in0.0 mm 0.42 in10.7 mm
09:10 AM 61.0°F16.1°C 60.4°F15.8°C 98% Calm Calm 4.7 mph7.6 kmh 29.71 in1006.1 mb 0.03 in0.8 mm 0.00 in0.0 mm 0.42 in10.7 mm
09:11 AM 61.0°F16.1°C 60.4°F15.8°C 98% 2.7 mph WNW4.3 kmh WNW 4.2 mph6.8 kmh 29.71 in1006.1 mb 0.03 in0.8 mm 0.00 in0.0 mm 0.42 in10.7 mm
09:12 AM 61.2°F16.2°C 60.6°F15.9°C 98% 1.7 mph ESE2.7 kmh ESE 4.2 mph6.8 kmh 29.71 in1006.1 mb 0.03 in0.8 mm 0.00 in0.0 mm 0.42 in10.7 mm
09:13 AM 61.2°F16.2°C 60.6°F15.9°C 98% 2.7 mph ESE4.3 kmh ESE 4.2 mph6.8 kmh 29.71 in1006.1 mb 0.03 in0.8 mm 0.00 in0.0 mm 0.42 in10.7 mm
09:14 AM 61.2°F16.2°C 60.6°F15.9°C 98% 2.2 mph ESE3.5 kmh ESE 4.2 mph6.8 kmh 29.71 in1006.1 mb 0.03 in0.8 mm 0.00 in0.0 mm 0.42 in10.7 mm
09:15 AM 61.2°F16.2°C 60.6°F15.9°C 98% 2.2 mph S3.5 kmh S 4.2 mph6.8 kmh 29.71 in1006.1 mb 0.03 in0.8 mm 0.00 in0.0 mm 0.42 in10.7 mm
09:16 AM 61.2°F16.2°C 60.6°F15.9°C 98% 4.7 mph SSW7.6 kmh SSW 7.3 mph11.7 kmh 29.71 in1006.1 mb 0.02 in0.5 mm 0.00 in0.0 mm 0.42 in10.7 mm
09:17 AM 61.2°F16.2°C 60.6°F15.9°C 98% 3.2 mph SSW5.1 kmh SSW 7.3 mph11.7 kmh 29.72 in1006.4 mb 0.02 in0.5 mm 0.00 in0.0 mm 0.42 in10.7 mm
09:18 AM 61.2°F16.2°C 60.6°F15.9°C 98% 2.7 mph SW4.3 kmh SW 7.3 mph11.7 kmh 29.72 in1006.4 mb 0.03 in0.8 mm 0.60 in15.2 mm 0.43 in10.9 mm
09:19 AM 61.2°F16.2°C 60.6°F15.9°C 98% 3.2 mph SE5.1 kmh SE 7.3 mph11.7 kmh 29.72 in1006.4 mb 0.03 in0.8 mm 0.00 in0.0 mm 0.43 in10.9 mm
09:20 AM 61.2°F16.2°C 60.6°F15.9°C 98% 1.7 mph E2.7 kmh E 7.3 mph11.7 kmh 29.72 in1006.4 mb 0.03 in0.8 mm 0.00 in0.0 mm 0.43 in10.9 mm
09:21 AM 61.2°F16.2°C 60.6°F15.9°C 98% 2.2 mph SW3.5 kmh SW 7.3 mph11.7 kmh 29.72 in1006.4 mb 0.03 in0.8 mm 0.00 in0.0 mm 0.43 in10.9 mm
09:22 AM 61.2°F16.2°C 60.6°F15.9°C 98% 5.3 mph SW8.5 kmh SW 7.3 mph11.7 kmh 29.72 in1006.4 mb 0.03 in0.8 mm 0.00 in0.0 mm 0.43 in10.9 mm
09:23 AM 61.2°F16.2°C 60.6°F15.9°C 98% 2.2 mph NW3.5 kmh NW 7.3 mph11.7 kmh 29.72 in1006.4 mb 0.03 in0.8 mm 0.00 in0.0 mm 0.43 in10.9 mm
09:24 AM 61.2°F16.2°C 60.6°F15.9°C 98% 4.7 mph S7.6 kmh S 7.3 mph11.7 kmh 29.72 in1006.4 mb 0.04 in1.0 mm 0.60 in15.2 mm 0.44 in11.2 mm
09:25 AM 61.2°F16.2°C 60.6°F15.9°C 98% 3.2 mph W5.1 kmh W 7.3 mph11.7 kmh 29.72 in1006.4 mb 0.04 in1.0 mm 0.00 in0.0 mm 0.44 in11.2 mm
09:26 AM 61.3°F16.3°C 60.7°F15.9°C 98% 2.2 mph WSW3.5 kmh WSW 5.3 mph8.5 kmh 29.72 in1006.4 mb 0.04 in1.0 mm 0.00 in0.0 mm 0.44 in11.2 mm
09:27 AM 61.3°F16.3°C 60.7°F15.9°C 98% 1.7 mph SSE2.7 kmh SSE 5.3 mph8.5 kmh 29.72 in1006.4 mb 0.05 in1.3 mm 0.60 in15.2 mm 0.45 in11.4 mm
09:28 AM 61.3°F16.3°C 60.7°F15.9°C 98% 3.7 mph SE6.0 kmh SE 5.3 mph8.5 kmh 29.72 in1006.4 mb 0.04 in1.0 mm 0.00 in0.0 mm 0.45 in11.4 mm
09:29 AM 61.3°F16.3°C 60.7°F15.9°C 98% 2.2 mph ESE3.5 kmh ESE 5.3 mph8.5 kmh 29.71 in1006.1 mb 0.04 in1.0 mm 0.00 in0.0 mm 0.45 in11.4 mm
09:30 AM 61.3°F16.3°C 60.7°F15.9°C 98% 2.7 mph ESE4.3 kmh ESE 5.3 mph8.5 kmh 29.71 in1006.1 mb 0.04 in1.0 mm 0.00 in0.0 mm 0.45 in11.4 mm
09:31 AM 61.3°F16.3°C 60.7°F15.9°C 98% 2.7 mph SSE4.3 kmh SSE 5.3 mph8.5 kmh 29.71 in1006.1 mb 0.04 in1.0 mm 0.00 in0.0 mm 0.45 in11.4 mm
09:32 AM 61.5°F16.4°C 60.9°F16.1°C 98% 2.7 mph SSE4.3 kmh SSE 5.3 mph8.5 kmh 29.71 in1006.1 mb 0.04 in1.0 mm 0.00 in0.0 mm 0.45 in11.4 mm
09:33 AM 61.5°F16.4°C 60.9°F16.1°C 98% 7.8 mph S12.6 kmh S 7.8 mph12.6 kmh 29.71 in1006.1 mb 0.05 in1.3 mm 0.60 in15.2 mm 0.46 in11.7 mm
09:34 AM 61.7°F16.5°C 61.1°F16.2°C 98% 7.3 mph WSW11.7 kmh WSW 7.8 mph12.6 kmh 29.71 in1006.1 mb 0.05 in1.3 mm 0.00 in0.0 mm 0.46 in11.7 mm
09:35 AM 61.7°F16.5°C 61.1°F16.2°C 98% 5.3 mph NW8.5 kmh NW 7.8 mph12.6 kmh 29.71 in1006.1 mb 0.05 in1.3 mm 0.00 in0.0 mm 0.46 in11.7 mm
09:36 AM 61.7°F16.5°C 61.1°F16.2°C 98% 6.8 mph W10.9 kmh W 7.8 mph12.6 kmh 29.71 in1006.1 mb 0.05 in1.3 mm 0.00 in0.0 mm 0.46 in11.7 mm
09:37 AM 61.7°F16.5°C 61.1°F16.2°C 98% 7.8 mph W12.6 kmh W 9.9 mph15.9 kmh 29.71 in1006.1 mb 0.09 in2.3 mm 2.40 in61.0 mm 0.50 in12.7 mm
09:38 AM 61.7°F16.5°C 61.1°F16.2°C 98% 7.3 mph W11.7 kmh W 9.9 mph15.9 kmh 29.71 in1006.1 mb 0.11 in2.8 mm 1.20 in30.5 mm 0.52 in13.2 mm
09:39 AM 61.7°F16.5°C 61.1°F16.2°C 98% 4.2 mph S6.8 kmh S 9.9 mph15.9 kmh 29.71 in1006.1 mb 0.13 in3.3 mm 1.20 in30.5 mm 0.54 in13.7 mm
09:40 AM 61.5°F16.4°C 60.9°F16.1°C 98% 3.7 mph SW6.0 kmh SW 9.9 mph15.9 kmh 29.71 in1006.1 mb 0.13 in3.3 mm 0.00 in0.0 mm 0.54 in13.7 mm
09:41 AM 61.5°F16.4°C 60.9°F16.1°C 98% 2.7 mph SW4.3 kmh SW 9.9 mph15.9 kmh 29.72 in1006.4 mb 0.13 in3.3 mm 0.00 in0.0 mm 0.54 in13.7 mm
09:42 AM 61.5°F16.4°C 60.9°F16.1°C 98% 3.7 mph W6.0 kmh W 9.9 mph15.9 kmh 29.72 in1006.4 mb 0.13 in3.3 mm 0.00 in0.0 mm 0.54 in13.7 mm
09:43 AM 61.5°F16.4°C 60.9°F16.1°C 98% 2.2 mph W3.5 kmh W 9.9 mph15.9 kmh 29.72 in1006.4 mb 0.13 in3.3 mm 0.00 in0.0 mm 0.54 in13.7 mm
09:44 AM 61.5°F16.4°C 60.9°F16.1°C 98% 3.2 mph SW5.1 kmh SW 9.9 mph15.9 kmh 29.72 in1006.4 mb 0.13 in3.3 mm 0.00 in0.0 mm 0.54 in13.7 mm
09:45 AM 61.5°F16.4°C 60.9°F16.1°C 98% 2.7 mph W4.3 kmh W 9.9 mph15.9 kmh 29.72 in1006.4 mb 0.13 in3.3 mm 0.00 in0.0 mm 0.54 in13.7 mm
09:46 AM 61.5°F16.4°C 60.9°F16.1°C 98% 2.7 mph W4.3 kmh W 9.9 mph15.9 kmh 29.72 in1006.4 mb 0.13 in3.3 mm 0.00 in0.0 mm 0.54 in13.7 mm
09:47 AM 61.5°F16.4°C 60.9°F16.1°C 98% 2.2 mph SW3.5 kmh SW 8.3 mph13.4 kmh 29.72 in1006.4 mb 0.13 in3.3 mm 0.00 in0.0 mm 0.54 in13.7 mm
09:48 AM 61.5°F16.4°C 60.9°F16.1°C 98% 5.8 mph WSW9.3 kmh WSW 7.3 mph11.7 kmh 29.72 in1006.4 mb 0.13 in3.3 mm 0.00 in0.0 mm 0.54 in13.7 mm
09:49 AM 61.5°F16.4°C 60.9°F16.1°C 98% 4.2 mph WSW6.8 kmh WSW 6.3 mph10.1 kmh 29.72 in1006.4 mb 0.14 in3.6 mm 0.60 in15.2 mm 0.55 in14.0 mm
09:50 AM 61.5°F16.4°C 60.9°F16.1°C 98% 2.2 mph SSE3.5 kmh SSE 6.3 mph10.1 kmh 29.72 in1006.4 mb 0.14 in3.6 mm 0.00 in0.0 mm 0.55 in14.0 mm
09:51 AM 61.7°F16.5°C 61.1°F16.2°C 98% 2.7 mph ESE4.3 kmh ESE 6.3 mph10.1 kmh 29.72 in1006.4 mb 0.14 in3.6 mm 0.00 in0.0 mm 0.55 in14.0 mm
09:52 AM 61.7°F16.5°C 61.1°F16.2°C 98% 7.3 mph N11.7 kmh N 7.3 mph11.7 kmh 29.72 in1006.4 mb 0.14 in3.6 mm 0.00 in0.0 mm 0.55 in14.0 mm
09:53 AM 61.7°F16.5°C 60.8°F16.0°C 97% 3.7 mph W6.0 kmh W 7.3 mph11.7 kmh 29.72 in1006.4 mb 0.14 in3.6 mm 0.00 in0.0 mm 0.55 in14.0 mm
09:54 AM 61.7°F16.5°C 60.8°F16.0°C 97% 2.7 mph ESE4.3 kmh ESE 7.3 mph11.7 kmh 29.72 in1006.4 mb 0.14 in3.6 mm 0.00 in0.0 mm 0.55 in14.0 mm
09:55 AM 61.7°F16.5°C 60.8°F16.0°C 97% 3.2 mph W5.1 kmh W 7.3 mph11.7 kmh 29.72 in1006.4 mb 0.14 in3.6 mm 0.00 in0.0 mm 0.55 in14.0 mm
09:56 AM 61.9°F16.6°C 61.0°F16.1°C 97% 3.7 mph W6.0 kmh W 7.3 mph11.7 kmh 29.72 in1006.4 mb 0.15 in3.8 mm 0.60 in15.2 mm 0.56 in14.2 mm
09:57 AM 61.9°F16.6°C 61.0°F16.1°C 97% 2.7 mph WNW4.3 kmh WNW 7.3 mph11.7 kmh 29.72 in1006.4 mb 0.15 in3.8 mm 0.00 in0.0 mm 0.56 in14.2 mm
09:58 AM 61.9°F16.6°C 61.0°F16.1°C 97% 6.3 mph S10.1 kmh S 7.3 mph11.7 kmh 29.72 in1006.4 mb 0.15 in3.8 mm 0.00 in0.0 mm 0.56 in14.2 mm
09:59 AM 61.9°F16.6°C 61.0°F16.1°C 97% 3.2 mph WNW5.1 kmh WNW 7.3 mph11.7 kmh 29.72 in1006.4 mb 0.15 in3.8 mm 0.00 in0.0 mm 0.56 in14.2 mm
10:00 AM 62.1°F16.7°C 61.2°F16.2°C 97% 2.2 mph WNW3.5 kmh WNW 7.3 mph11.7 kmh 29.72 in1006.4 mb 0.15 in3.8 mm 0.00 in0.0 mm 0.56 in14.2 mm
10:01 AM 62.1°F16.7°C 61.2°F16.2°C 97% 2.7 mph NW4.3 kmh NW 7.3 mph11.7 kmh 29.72 in1006.4 mb 0.15 in3.8 mm 0.00 in0.0 mm 0.56 in14.2 mm
10:02 AM 62.2°F16.8°C 61.3°F16.3°C 97% 4.7 mph ESE7.6 kmh ESE 7.3 mph11.7 kmh 29.72 in1006.4 mb 0.15 in3.8 mm 0.00 in0.0 mm 0.56 in14.2 mm
10:03 AM 62.2°F16.8°C 61.3°F16.3°C 97% 3.2 mph ESE5.1 kmh ESE 6.3 mph10.1 kmh 29.72 in1006.4 mb 0.15 in3.8 mm 0.00 in0.0 mm 0.56 in14.2 mm
10:04 AM 62.4°F16.9°C 61.5°F16.4°C 97% 2.2 mph W3.5 kmh W 6.3 mph10.1 kmh 29.72 in1006.4 mb 0.15 in3.8 mm 0.00 in0.0 mm 0.56 in14.2 mm
10:05 AM 62.4°F16.9°C 61.5°F16.4°C 97% 2.2 mph E3.5 kmh E 6.3 mph10.1 kmh 29.72 in1006.4 mb 0.15 in3.8 mm 0.00 in0.0 mm 0.56 in14.2 mm
10:06 AM 62.6°F17.0°C 61.7°F16.5°C 97% 4.2 mph W6.8 kmh W 6.3 mph10.1 kmh 29.72 in1006.4 mb 0.14 in3.6 mm 0.00 in0.0 mm 0.56 in14.2 mm
10:07 AM 62.6°F17.0°C 61.7°F16.5°C 97% 2.2 mph ENE3.5 kmh ENE 6.3 mph10.1 kmh 29.72 in1006.4 mb 0.14 in3.6 mm 0.00 in0.0 mm 0.56 in14.2 mm
10:08 AM 62.6°F17.0°C 61.7°F16.5°C 97% 5.8 mph W9.3 kmh W 5.8 mph9.3 kmh 29.72 in1006.4 mb 0.14 in3.6 mm 0.00 in0.0 mm 0.56 in14.2 mm
10:09 AM 62.6°F17.0°C 61.4°F16.3°C 96% 4.2 mph W6.8 kmh W 6.8 mph10.9 kmh 29.72 in1006.4 mb 0.14 in3.6 mm 0.00 in0.0 mm 0.56 in14.2 mm
10:10 AM 62.6°F17.0°C 61.4°F16.3°C 96% 2.2 mph NW3.5 kmh NW 6.8 mph10.9 kmh 29.72 in1006.4 mb 0.14 in3.6 mm 0.00 in0.0 mm 0.56 in14.2 mm
10:11 AM 63.0°F17.2°C 61.8°F16.6°C 96% 3.2 mph NNE5.1 kmh NNE 6.8 mph10.9 kmh 29.72 in1006.4 mb 0.14 in3.6 mm 0.00 in0.0 mm 0.56 in14.2 mm
10:12 AM 63.1°F17.3°C 61.9°F16.6°C 96% 3.2 mph WSW5.1 kmh WSW 6.8 mph10.9 kmh 29.72 in1006.4 mb 0.14 in3.6 mm 0.00 in0.0 mm 0.56 in14.2 mm
10:13 AM 63.1°F17.3°C 61.9°F16.6°C 96% 1.7 mph WSW2.7 kmh WSW 6.8 mph10.9 kmh 29.72 in1006.4 mb 0.14 in3.6 mm 0.00 in0.0 mm 0.56 in14.2 mm
10:14 AM 63.1°F17.3°C 61.9°F16.6°C 96% 2.7 mph WSW4.3 kmh WSW 6.8 mph10.9 kmh 29.72 in1006.4 mb 0.14 in3.6 mm 0.00 in0.0 mm 0.56 in14.2 mm
10:15 AM 63.1°F17.3°C 61.9°F16.6°C 96% 1.7 mph WNW2.7 kmh WNW 6.8 mph10.9 kmh 29.72 in1006.4 mb 0.14 in3.6 mm 0.00 in0.0 mm 0.56 in14.2 mm
10:16 AM 63.1°F17.3°C 61.9°F16.6°C 96% 4.2 mph WSW6.8 kmh WSW 6.8 mph10.9 kmh 29.72 in1006.4 mb 0.14 in3.6 mm 0.00 in0.0 mm 0.56 in14.2 mm
10:17 AM 63.1°F17.3°C 61.9°F16.6°C 96% 1.1 mph W1.8 kmh W 6.8 mph10.9 kmh 29.71 in1006.1 mb 0.14 in3.6 mm 0.00 in0.0 mm 0.56 in14.2 mm
10:18 AM 63.0°F17.2°C 61.8°F16.6°C 96% 2.2 mph SSW3.5 kmh SSW 6.8 mph10.9 kmh 29.71 in1006.1 mb 0.13 in3.3 mm 0.00 in0.0 mm 0.56 in14.2 mm
10:19 AM 63.0°F17.2°C 61.8°F16.6°C 96% 4.2 mph S6.8 kmh S 6.8 mph10.9 kmh 29.71 in1006.1 mb 0.13 in3.3 mm 0.00 in0.0 mm 0.56 in14.2 mm
10:20 AM 63.3°F17.4°C 62.1°F16.7°C 96% 1.7 mph WNW2.7 kmh WNW 6.8 mph10.9 kmh 29.71 in1006.1 mb 0.13 in3.3 mm 0.00 in0.0 mm 0.56 in14.2 mm
10:21 AM 63.5°F17.5°C 62.3°F16.8°C 96% 3.7 mph S6.0 kmh S 6.8 mph10.9 kmh 29.71 in1006.1 mb 0.13 in3.3 mm 0.00 in0.0 mm 0.56 in14.2 mm
10:22 AM 63.5°F17.5°C 62.3°F16.8°C 96% 1.7 mph E2.7 kmh E 6.8 mph10.9 kmh 29.71 in1006.1 mb 0.13 in3.3 mm 0.00 in0.0 mm 0.56 in14.2 mm
10:23 AM 63.3°F17.4°C 62.1°F16.7°C 96% 2.7 mph W4.3 kmh W 6.8 mph10.9 kmh 29.71 in1006.1 mb 0.13 in3.3 mm 0.00 in0.0 mm 0.56 in14.2 mm
10:24 AM 63.3°F17.4°C 62.1°F16.7°C 96% 2.2 mph ENE3.5 kmh ENE 6.8 mph10.9 kmh 29.71 in1006.1 mb 0.12 in3.0 mm 0.00 in0.0 mm 0.56 in14.2 mm
10:25 AM 63.3°F17.4°C 62.1°F16.7°C 96% 1.1 mph WSW1.8 kmh WSW 6.8 mph10.9 kmh 29.71 in1006.1 mb 0.12 in3.0 mm 0.00 in0.0 mm 0.56 in14.2 mm
10:26 AM 63.5°F17.5°C 62.3°F16.8°C 96% 2.2 mph W3.5 kmh W 6.8 mph10.9 kmh 29.71 in1006.1 mb 0.11 in2.8 mm 0.00 in0.0 mm 0.56 in14.2 mm
10:27 AM 63.5°F17.5°C 62.3°F16.8°C 96% 4.7 mph W7.6 kmh W 6.8 mph10.9 kmh 29.71 in1006.1 mb 0.11 in2.8 mm 0.00 in0.0 mm 0.56 in14.2 mm
10:28 AM 63.9°F17.7°C 62.7°F17.1°C 96% 1.7 mph W2.7 kmh W 6.8 mph10.9 kmh 29.71 in1006.1 mb 0.11 in2.8 mm 0.00 in0.0 mm 0.56 in14.2 mm
10:29 AM 64.0°F17.8°C 62.8°F17.1°C 96% 2.7 mph ENE4.3 kmh ENE 4.7 mph7.6 kmh 29.71 in1006.1 mb 0.11 in2.8 mm 0.00 in0.0 mm 0.56 in14.2 mm
10:30 AM 64.0°F17.8°C 62.8°F17.1°C 96% 3.2 mph W5.1 kmh W 4.7 mph7.6 kmh 29.71 in1006.1 mb 0.11 in2.8 mm 0.00 in0.0 mm 0.56 in14.2 mm
10:31 AM 64.2°F17.9°C 63.0°F17.2°C 96% 2.2 mph ESE3.5 kmh ESE 4.7 mph7.6 kmh 29.71 in1006.1 mb 0.11 in2.8 mm 0.00 in0.0 mm 0.56 in14.2 mm
10:32 AM 64.2°F17.9°C 63.0°F17.2°C 96% 3.7 mph W6.0 kmh W 4.7 mph7.6 kmh 29.71 in1006.1 mb 0.11 in2.8 mm 0.00 in0.0 mm 0.56 in14.2 mm
10:33 AM 64.2°F17.9°C 62.7°F17.1°C 95% 3.2 mph ESE5.1 kmh ESE 4.7 mph7.6 kmh 29.71 in1006.1 mb 0.10 in2.5 mm 0.00 in0.0 mm 0.56 in14.2 mm
10:34 AM 64.4°F18.0°C 62.9°F17.2°C 95% 5.3 mph SE8.5 kmh SE 5.3 mph8.5 kmh 29.71 in1006.1 mb 0.10 in2.5 mm 0.00 in0.0 mm 0.56 in14.2 mm
10:35 AM 64.4°F18.0°C 62.9°F17.2°C 95% 1.7 mph NNE2.7 kmh NNE 5.3 mph8.5 kmh 29.71 in1006.1 mb 0.10 in2.5 mm 0.00 in0.0 mm 0.56 in14.2 mm
10:36 AM 64.2°F17.9°C 62.7°F17.1°C 95% 2.2 mph NE3.5 kmh NE 5.3 mph8.5 kmh 29.71 in1006.1 mb 0.10 in2.5 mm 0.00 in0.0 mm 0.56 in14.2 mm
10:37 AM 64.2°F17.9°C 62.7°F17.1°C 95% 2.2 mph SSE3.5 kmh SSE 5.3 mph8.5 kmh 29.71 in1006.1 mb 0.06 in1.5 mm 0.00 in0.0 mm 0.56 in14.2 mm
10:38 AM 64.2°F17.9°C 62.7°F17.1°C 95% 2.7 mph SSW4.3 kmh SSW 5.3 mph8.5 kmh 29.71 in1006.1 mb 0.04 in1.0 mm 0.00 in0.0 mm 0.56 in14.2 mm
10:39 AM 64.2°F17.9°C 62.7°F17.1°C 95% 3.2 mph WNW5.1 kmh WNW 5.3 mph8.5 kmh 29.71 in1006.1 mb 0.02 in0.5 mm 0.00 in0.0 mm 0.56 in14.2 mm
10:40 AM 64.2°F17.9°C 62.7°F17.1°C 95% 2.7 mph W4.3 kmh W 5.3 mph8.5 kmh 29.71 in1006.1 mb 0.02 in0.5 mm 0.00 in0.0 mm 0.56 in14.2 mm
10:41 AM 64.2°F17.9°C 62.7°F17.1°C 95% 1.1 mph NW1.8 kmh NW 5.3 mph8.5 kmh 29.70 in1005.8 mb 0.02 in0.5 mm 0.00 in0.0 mm 0.56 in14.2 mm
10:42 AM 64.2°F17.9°C 62.7°F17.1°C 95% 2.7 mph W4.3 kmh W 5.3 mph8.5 kmh 29.70 in1005.8 mb 0.02 in0.5 mm 0.00 in0.0 mm 0.56 in14.2 mm
10:43 AM 64.6°F18.1°C 63.1°F17.3°C 95% 2.2 mph NNE3.5 kmh NNE 5.3 mph8.5 kmh 29.70 in1005.8 mb 0.02 in0.5 mm 0.00 in0.0 mm 0.56 in14.2 mm
10:44 AM 64.8°F18.2°C 63.0°F17.2°C 94% 2.7 mph NNE4.3 kmh NNE 5.3 mph8.5 kmh 29.70 in1005.8 mb 0.02 in0.5 mm 0.00 in0.0 mm 0.56 in14.2 mm
10:45 AM 64.8°F18.2°C 63.0°F17.2°C 94% 3.7 mph SE6.0 kmh SE 5.8 mph9.3 kmh 29.70 in1005.8 mb 0.02 in0.5 mm 0.00 in0.0 mm 0.56 in14.2 mm
10:46 AM 64.8°F18.2°C 63.0°F17.2°C 94% 2.7 mph W4.3 kmh W 5.8 mph9.3 kmh 29.70 in1005.8 mb 0.02 in0.5 mm 0.00 in0.0 mm 0.56 in14.2 mm
10:47 AM 64.8°F18.2°C 62.7°F17.1°C 93% 4.2 mph W6.8 kmh W 5.8 mph9.3 kmh 29.70 in1005.8 mb 0.02 in0.5 mm 0.00 in0.0 mm 0.56 in14.2 mm
10:48 AM 64.8°F18.2°C 63.0°F17.2°C 94% 4.2 mph SW6.8 kmh SW 5.8 mph9.3 kmh 29.70 in1005.8 mb 0.02 in0.5 mm 0.00 in0.0 mm 0.56 in14.2 mm
10:49 AM 64.8°F18.2°C 63.0°F17.2°C 94% 3.2 mph W5.1 kmh W 5.8 mph9.3 kmh 29.70 in1005.8 mb 0.01 in0.3 mm 0.00 in0.0 mm 0.56 in14.2 mm
10:50 AM 64.8°F18.2°C 63.0°F17.2°C 94% 1.7 mph NNE2.7 kmh NNE 5.8 mph9.3 kmh 29.70 in1005.8 mb 0.01 in0.3 mm 0.00 in0.0 mm 0.56 in14.2 mm
10:51 AM 64.8°F18.2°C 63.0°F17.2°C 94% 3.7 mph W6.0 kmh W 5.8 mph9.3 kmh 29.70 in1005.8 mb 0.01 in0.3 mm 0.00 in0.0 mm 0.56 in14.2 mm
10:52 AM 64.9°F18.3°C 62.8°F17.1°C 93% 2.2 mph W3.5 kmh W 5.8 mph9.3 kmh 29.70 in1005.8 mb 0.01 in0.3 mm 0.00 in0.0 mm 0.56 in14.2 mm
10:53 AM 64.9°F18.3°C 62.8°F17.1°C 93% 2.7 mph S4.3 kmh S 5.8 mph9.3 kmh 29.70 in1005.8 mb 0.01 in0.3 mm 0.00 in0.0 mm 0.56 in14.2 mm
10:54 AM 65.1°F18.4°C 63.0°F17.2°C 93% 7.3 mph S11.7 kmh S 7.3 mph11.7 kmh 29.70 in1005.8 mb 0.01 in0.3 mm 0.00 in0.0 mm 0.56 in14.2 mm
10:55 AM 65.1°F18.4°C 63.0°F17.2°C 93% 2.2 mph W3.5 kmh W 7.3 mph11.7 kmh 29.70 in1005.8 mb 0.01 in0.3 mm 0.00 in0.0 mm 0.56 in14.2 mm
10:56 AM 65.1°F18.4°C 63.0°F17.2°C 93% 4.2 mph W6.8 kmh W 7.3 mph11.7 kmh 29.70 in1005.8 mb 0.00 in0.0 mm 0.00 in0.0 mm 0.56 in14.2 mm
10:57 AM 65.1°F18.4°C 62.7°F17.1°C 92% 4.2 mph W6.8 kmh W 9.4 mph15.1 kmh 29.70 in1005.8 mb 0.00 in0.0 mm 0.00 in0.0 mm 0.56 in14.2 mm
10:58 AM 65.3°F18.5°C 62.9°F17.2°C 92% 8.9 mph W14.3 kmh W 9.9 mph15.9 kmh 29.70 in1005.8 mb 0.00 in0.0 mm 0.00 in0.0 mm 0.56 in14.2 mm
10:59 AM 65.3°F18.5°C 62.9°F17.2°C 92% 5.3 mph W8.5 kmh W 9.9 mph15.9 kmh 29.70 in1005.8 mb 0.00 in0.0 mm 0.00 in0.0 mm 0.56 in14.2 mm
11:00 AM 65.3°F18.5°C 62.9°F17.2°C 92% 5.8 mph SSW9.3 kmh SSW 9.9 mph15.9 kmh 29.70 in1005.8 mb 0.00 in0.0 mm 0.00 in0.0 mm 0.56 in14.2 mm
11:01 AM 65.3°F18.5°C 62.6°F17.0°C 91% 5.3 mph SSW8.5 kmh SSW 9.9 mph15.9 kmh 29.70 in1005.8 mb 0.00 in0.0 mm 0.00 in0.0 mm 0.56 in14.2 mm
11:02 AM 65.3°F18.5°C 62.6°F17.0°C 91% 1.1 mph SW1.8 kmh SW 9.9 mph15.9 kmh 29.70 in1005.8 mb 0.00 in0.0 mm 0.00 in0.0 mm 0.56 in14.2 mm
11:03 AM 65.3°F18.5°C 62.9°F17.2°C 92% 2.7 mph SSW4.3 kmh SSW 9.9 mph15.9 kmh 29.70 in1005.8 mb 0.00 in0.0 mm 0.00 in0.0 mm 0.56 in14.2 mm
11:04 AM 65.3°F18.5°C 62.9°F17.2°C 92% 5.3 mph ESE8.5 kmh ESE 9.9 mph15.9 kmh 29.70 in1005.8 mb 0.00 in0.0 mm 0.00 in0.0 mm 0.56 in14.2 mm
11:05 AM 65.3°F18.5°C 62.9°F17.2°C 92% 5.3 mph ESE8.5 kmh ESE 9.9 mph15.9 kmh 29.70 in1005.8 mb 0.00 in0.0 mm 0.00 in0.0 mm 0.56 in14.2 mm
11:06 AM 65.5°F18.6°C 63.1°F17.3°C 92% 4.2 mph WNW6.8 kmh WNW 9.9 mph15.9 kmh 29.70 in1005.8 mb 0.00 in0.0 mm 0.00 in0.0 mm 0.56 in14.2 mm
11:07 AM 65.5°F18.6°C 63.1°F17.3°C 92% 4.2 mph SW6.8 kmh SW 9.9 mph15.9 kmh 29.70 in1005.8 mb 0.00 in0.0 mm 0.00 in0.0 mm 0.56 in14.2 mm
11:08 AM 65.8°F18.8°C 63.1°F17.3°C 91% 4.2 mph W6.8 kmh W 8.3 mph13.4 kmh 29.70 in1005.8 mb 0.00 in0.0 mm 0.00 in0.0 mm 0.56 in14.2 mm
11:09 AM 66.0°F18.9°C 63.3°F17.4°C 91% 2.2 mph W3.5 kmh W 8.3 mph13.4 kmh 29.70 in1005.8 mb 0.00 in0.0 mm 0.00 in0.0 mm 0.56 in14.2 mm
11:10 AM 66.2°F19.0°C 63.5°F17.5°C 91% 3.7 mph W6.0 kmh W 8.3 mph13.4 kmh 29.70 in1005.8 mb 0.00 in0.0 mm 0.00 in0.0 mm 0.56 in14.2 mm
11:11 AM 66.2°F19.0°C 63.2°F17.3°C 90% 3.2 mph S5.1 kmh S 5.8 mph9.3 kmh 29.70 in1005.8 mb 0.00 in0.0 mm 0.00 in0.0 mm 0.56 in14.2 mm
11:12 AM 66.6°F19.2°C 63.3°F17.4°C 89% 3.2 mph SW5.1 kmh SW 5.8 mph9.3 kmh 29.70 in1005.8 mb 0.00 in0.0 mm 0.00 in0.0 mm 0.56 in14.2 mm
11:13 AM 66.6°F19.2°C 63.3°F17.4°C 89% 4.2 mph SW6.8 kmh SW 6.8 mph10.9 kmh 29.70 in1005.8 mb 0.00 in0.0 mm 0.00 in0.0 mm 0.56 in14.2 mm
11:14 AM 66.6°F19.2°C 63.3°F17.4°C 89% 6.3 mph W10.1 kmh W 6.8 mph10.9 kmh 29.70 in1005.8 mb 0.00 in0.0 mm 0.00 in0.0 mm 0.56 in14.2 mm
11:15 AM 66.7°F19.3°C 63.4°F17.4°C 89% 3.2 mph W5.1 kmh W 6.8 mph10.9 kmh 29.70 in1005.8 mb 0.00 in0.0 mm 0.00 in0.0 mm 0.56 in14.2 mm
11:16 AM 66.7°F19.3°C 63.4°F17.4°C 89% 5.3 mph SSW8.5 kmh SSW 6.8 mph10.9 kmh 29.70 in1005.8 mb 0.00 in0.0 mm 0.00 in0.0 mm 0.56 in14.2 mm
11:17 AM 66.7°F19.3°C 63.0°F17.2°C 88% 3.7 mph W6.0 kmh W 6.8 mph10.9 kmh 29.69 in1005.4 mb 0.00 in0.0 mm 0.00 in0.0 mm 0.56 in14.2 mm
11:18 AM 67.1°F19.5°C 63.1°F17.3°C 87% 5.8 mph W9.3 kmh W 7.3 mph11.7 kmh 29.69 in1005.4 mb 0.00 in0.0 mm 0.00 in0.0 mm 0.56 in14.2 mm
11:19 AM 67.5°F19.7°C 63.5°F17.5°C 87% 2.2 mph E3.5 kmh E 7.3 mph11.7 kmh 29.69 in1005.4 mb 0.00 in0.0 mm 0.00 in0.0 mm 0.56 in14.2 mm
11:20 AM 67.5°F19.7°C 63.8°F17.7°C 88% 4.7 mph W7.6 kmh W 7.3 mph11.7 kmh 29.69 in1005.4 mb 0.00 in0.0 mm 0.00 in0.0 mm 0.56 in14.2 mm
11:21 AM 67.3°F19.6°C 63.3°F17.4°C 87% 8.9 mph W14.3 kmh W 8.9 mph14.3 kmh 29.69 in1005.4 mb 0.00 in0.0 mm 0.00 in0.0 mm 0.56 in14.2 mm
11:22 AM 67.5°F19.7°C 63.2°F17.3°C 86% 5.8 mph W9.3 kmh W 8.9 mph14.3 kmh 29.69 in1005.4 mb 0.00 in0.0 mm 0.00 in0.0 mm 0.56 in14.2 mm
11:23 AM 67.3°F19.6°C 63.3°F17.4°C 87% 2.7 mph W4.3 kmh W 8.9 mph14.3 kmh 29.69 in1005.4 mb 0.00 in0.0 mm 0.00 in0.0 mm 0.56 in14.2 mm
11:24 AM 67.3°F19.6°C 63.3°F17.4°C 87% 4.7 mph W7.6 kmh W 8.9 mph14.3 kmh 29.69 in1005.4 mb 0.00 in0.0 mm 0.00 in0.0 mm 0.56 in14.2 mm
11:25 AM 67.3°F19.6°C 63.3°F17.4°C 87% 5.3 mph W8.5 kmh W 8.9 mph14.3 kmh 29.69 in1005.4 mb 0.00 in0.0 mm 0.00 in0.0 mm 0.56 in14.2 mm
11:26 AM 67.1°F19.5°C 63.1°F17.3°C 87% 5.8 mph SSW9.3 kmh SSW 8.9 mph14.3 kmh 29.69 in1005.4 mb 0.00 in0.0 mm 0.00 in0.0 mm 0.56 in14.2 mm
11:27 AM 66.9°F19.4°C 63.2°F17.3°C 88% 1.7 mph NNW2.7 kmh NNW 8.9 mph14.3 kmh 29.69 in1005.4 mb 0.00 in0.0 mm 0.00 in0.0 mm 0.56 in14.2 mm
11:28 AM 66.9°F19.4°C 62.9°F17.2°C 87% 4.7 mph NW7.6 kmh NW 8.9 mph14.3 kmh 29.69 in1005.4 mb 0.00 in0.0 mm 0.00 in0.0 mm 0.56 in14.2 mm
11:29 AM 66.9°F19.4°C 62.9°F17.2°C 87% 3.2 mph NNW5.1 kmh NNW 8.9 mph14.3 kmh 29.69 in1005.4 mb 0.00 in0.0 mm 0.00 in0.0 mm 0.56 in14.2 mm
11:30 AM 66.9°F19.4°C 62.9°F17.2°C 87% 3.2 mph W5.1 kmh W 8.9 mph14.3 kmh 29.69 in1005.4 mb 0.00 in0.0 mm 0.00 in0.0 mm 0.56 in14.2 mm
11:31 AM 67.1°F19.5°C 63.1°F17.3°C 87% 5.3 mph NNW8.5 kmh NNW 7.3 mph11.7 kmh 29.69 in1005.4 mb 0.00 in0.0 mm 0.00 in0.0 mm 0.56 in14.2 mm
11:32 AM 67.1°F19.5°C 62.8°F17.1°C 86% 2.7 mph SW4.3 kmh SW 7.3 mph11.7 kmh 29.69 in1005.4 mb 0.00 in0.0 mm 0.00 in0.0 mm 0.56 in14.2 mm
11:33 AM 67.3°F19.6°C 63.0°F17.2°C 86% 5.3 mph W8.5 kmh W 7.3 mph11.7 kmh 29.69 in1005.4 mb 0.00 in0.0 mm 0.00 in0.0 mm 0.56 in14.2 mm
11:34 AM 67.5°F19.7°C 63.2°F17.3°C 86% 7.8 mph W12.6 kmh W 7.8 mph12.6 kmh 29.69 in1005.4 mb 0.00 in0.0 mm 0.00 in0.0 mm 0.56 in14.2 mm
11:35 AM 67.5°F19.7°C 63.2°F17.3°C 86% 4.7 mph SSW7.6 kmh SSW 7.8 mph12.6 kmh 29.69 in1005.4 mb 0.00 in0.0 mm 0.00 in0.0 mm 0.56 in14.2 mm
11:36 AM 67.8°F19.9°C 62.8°F17.1°C 84% 4.7 mph E7.6 kmh E 7.8 mph12.6 kmh 29.69 in1005.4 mb 0.00 in0.0 mm 0.00 in0.0 mm 0.56 in14.2 mm
11:37 AM 68.0°F20.0°C 63.3°F17.4°C 85% 7.3 mph WSW11.7 kmh WSW 10.9 mph17.5 kmh 29.69 in1005.4 mb 0.00 in0.0 mm 0.00 in0.0 mm 0.56 in14.2 mm
11:38 AM 68.0°F20.0°C 63.0°F17.2°C 84% 8.3 mph SSW13.4 kmh SSW 10.9 mph17.5 kmh 29.69 in1005.4 mb 0.00 in0.0 mm 0.00 in0.0 mm 0.56 in14.2 mm
11:39 AM 67.8°F19.9°C 63.1°F17.3°C 85% 4.7 mph WNW7.6 kmh WNW 10.9 mph17.5 kmh 29.69 in1005.4 mb 0.00 in0.0 mm 0.00 in0.0 mm 0.56 in14.2 mm
11:40 AM 67.8°F19.9°C 63.1°F17.3°C 85% 5.8 mph W9.3 kmh W 10.9 mph17.5 kmh 29.69 in1005.4 mb 0.00 in0.0 mm 0.00 in0.0 mm 0.56 in14.2 mm
11:41 AM 67.8°F19.9°C 62.8°F17.1°C 84% 8.9 mph W14.3 kmh W 10.9 mph17.5 kmh 29.68 in1005.1 mb 0.00 in0.0 mm 0.00 in0.0 mm 0.56 in14.2 mm
11:42 AM 67.8°F19.9°C 62.8°F17.1°C 84% 6.3 mph W10.1 kmh W 10.9 mph17.5 kmh 29.68 in1005.1 mb 0.00 in0.0 mm 0.00 in0.0 mm 0.56 in14.2 mm
11:43 AM 67.6°F19.8°C 62.2°F16.8°C 83% 4.2 mph SSW6.8 kmh SSW 10.9 mph17.5 kmh 29.68 in1005.1 mb 0.00 in0.0 mm 0.00 in0.0 mm 0.56 in14.2 mm
11:44 AM 67.6°F19.8°C 62.2°F16.8°C 83% 5.3 mph W8.5 kmh W 10.9 mph17.5 kmh 29.68 in1005.1 mb 0.00 in0.0 mm 0.00 in0.0 mm 0.56 in14.2 mm
11:45 AM 67.5°F19.7°C 62.1°F16.7°C 83% 7.8 mph SSW12.6 kmh SSW 10.9 mph17.5 kmh 29.68 in1005.1 mb 0.00 in0.0 mm 0.00 in0.0 mm 0.56 in14.2 mm
11:46 AM 67.5°F19.7°C 62.1°F16.7°C 83% 14.0 mph WNW22.5 kmh WNW 14.0 mph22.5 kmh 29.68 in1005.1 mb 0.00 in0.0 mm 0.00 in0.0 mm 0.56 in14.2 mm
11:47 AM 67.5°F19.7°C 62.1°F16.7°C 83% 8.3 mph SSW13.4 kmh SSW 14.0 mph22.5 kmh 29.68 in1005.1 mb 0.00 in0.0 mm 0.00 in0.0 mm 0.56 in14.2 mm
11:48 AM 67.5°F19.7°C 61.8°F16.6°C 82% 10.9 mph W17.5 kmh W 14.0 mph22.5 kmh 29.68 in1005.1 mb 0.00 in0.0 mm 0.00 in0.0 mm 0.56 in14.2 mm
11:49 AM 67.5°F19.7°C 61.8°F16.6°C 82% 8.9 mph W14.3 kmh W 14.0 mph22.5 kmh 29.68 in1005.1 mb 0.00 in0.0 mm 0.00 in0.0 mm 0.56 in14.2 mm
11:50 AM 67.5°F19.7°C 61.8°F16.6°C 82% 3.2 mph W5.1 kmh W 14.0 mph22.5 kmh 29.68 in1005.1 mb 0.00 in0.0 mm 0.00 in0.0 mm 0.56 in14.2 mm
11:51 AM 67.3°F19.6°C 61.6°F16.4°C 82% 6.3 mph S10.1 kmh S 14.0 mph22.5 kmh 29.68 in1005.1 mb 0.00 in0.0 mm 0.00 in0.0 mm 0.56 in14.2 mm
11:52 AM 67.3°F19.6°C 61.6°F16.4°C 82% 3.7 mph S6.0 kmh S 14.0 mph22.5 kmh 29.68 in1005.1 mb 0.00 in0.0 mm 0.00 in0.0 mm 0.56 in14.2 mm
11:53 AM 67.3°F19.6°C 61.6°F16.4°C 82% 4.7 mph W7.6 kmh W 14.0 mph22.5 kmh 29.67 in1004.7 mb 0.00 in0.0 mm 0.00 in0.0 mm 0.56 in14.2 mm
11:54 AM 67.5°F19.7°C 61.8°F16.6°C 82% 5.8 mph SSW9.3 kmh SSW 14.0 mph22.5 kmh 29.67 in1004.7 mb 0.00 in0.0 mm 0.00 in0.0 mm 0.56 in14.2 mm
11:55 AM 67.5°F19.7°C 61.8°F16.6°C 82% 4.7 mph NNW7.6 kmh NNW 14.0 mph22.5 kmh 29.67 in1004.7 mb 0.00 in0.0 mm 0.00 in0.0 mm 0.56 in14.2 mm
11:56 AM 67.3°F19.6°C 61.6°F16.4°C 82% 6.8 mph SW10.9 kmh SW 14.0 mph22.5 kmh 29.67 in1004.7 mb 0.00 in0.0 mm 0.00 in0.0 mm 0.56 in14.2 mm
11:57 AM 67.3°F19.6°C 61.6°F16.4°C 82% 6.8 mph W10.9 kmh W 11.9 mph19.2 kmh 29.67 in1004.7 mb 0.00 in0.0 mm 0.00 in0.0 mm 0.56 in14.2 mm
11:58 AM 67.1°F19.5°C 61.8°F16.6°C 83% 6.3 mph W10.1 kmh W 11.9 mph19.2 kmh 29.67 in1004.7 mb 0.00 in0.0 mm 0.00 in0.0 mm 0.56 in14.2 mm
11:59 AM 67.3°F19.6°C 61.6°F16.4°C 82% 5.3 mph W8.5 kmh W 11.9 mph19.2 kmh 29.67 in1004.7 mb 0.00 in0.0 mm 0.00 in0.0 mm 0.56 in14.2 mm
12:00 PM 67.3°F19.6°C 61.6°F16.4°C 82% 7.3 mph W11.7 kmh W 9.9 mph15.9 kmh 29.67 in1004.7 mb 0.00 in0.0 mm 0.00 in0.0 mm 0.56 in14.2 mm
12:01 PM 67.5°F19.7°C 61.8°F16.6°C 82% 5.3 mph ESE8.5 kmh ESE 9.9 mph15.9 kmh 29.67 in1004.7 mb 0.00 in0.0 mm 0.00 in0.0 mm 0.56 in14.2 mm
12:02 PM 67.6°F19.8°C 61.9°F16.6°C 82% 6.8 mph WNW10.9 kmh WNW 9.9 mph15.9 kmh 29.67 in1004.7 mb 0.00 in0.0 mm 0.00 in0.0 mm 0.56 in14.2 mm
12:03 PM 68.0°F20.0°C 61.6°F16.4°C 80% 13.5 mph WNW21.7 kmh WNW 13.5 mph21.7 kmh 29.67 in1004.7 mb 0.00 in0.0 mm 0.00 in0.0 mm 0.56 in14.2 mm
12:04 PM 68.2°F20.1°C 61.8°F16.6°C 80% 3.2 mph SW5.1 kmh SW 13.5 mph21.7 kmh 29.66 in1004.4 mb 0.00 in0.0 mm 0.00 in0.0 mm 0.56 in14.2 mm
12:05 PM 68.2°F20.1°C 61.8°F16.6°C 80% 8.9 mph SW14.3 kmh SW 13.5 mph21.7 kmh 29.66 in1004.4 mb 0.00 in0.0 mm 0.00 in0.0 mm 0.56 in14.2 mm
12:06 PM 68.2°F20.1°C 61.8°F16.6°C 80% 4.7 mph W7.6 kmh W 13.5 mph21.7 kmh 29.66 in1004.4 mb 0.00 in0.0 mm 0.00 in0.0 mm 0.56 in14.2 mm
12:07 PM 68.2°F20.1°C 61.8°F16.6°C 80% 6.3 mph W10.1 kmh W 13.5 mph21.7 kmh 29.66 in1004.4 mb 0.00 in0.0 mm 0.00 in0.0 mm 0.56 in14.2 mm
12:08 PM 68.7°F20.4°C 62.6°F17.0°C 81% 5.8 mph ESE9.3 kmh ESE 13.5 mph21.7 kmh 29.66 in1004.4 mb 0.00 in0.0 mm 0.00 in0.0 mm 0.56 in14.2 mm
12:09 PM 69.4°F20.8°C 63.0°F17.2°C 80% 9.4 mph SSW15.1 kmh SSW 13.5 mph21.7 kmh 29.66 in1004.4 mb 0.00 in0.0 mm 0.00 in0.0 mm 0.56 in14.2 mm
12:10 PM 69.6°F20.9°C 62.8°F17.1°C 79% 6.8 mph SSW10.9 kmh SSW 13.5 mph21.7 kmh 29.66 in1004.4 mb 0.00 in0.0 mm 0.00 in0.0 mm 0.56 in14.2 mm
12:11 PM 69.4°F20.8°C 62.6°F17.0°C 79% 4.2 mph SSW6.8 kmh SSW 13.5 mph21.7 kmh 29.66 in1004.4 mb 0.00 in0.0 mm 0.00 in0.0 mm 0.56 in14.2 mm
12:12 PM 69.4°F20.8°C 62.2°F16.8°C 78% 8.9 mph WNW14.3 kmh WNW 13.5 mph21.7 kmh 29.66 in1004.4 mb 0.00 in0.0 mm 0.00 in0.0 mm 0.56 in14.2 mm
12:13 PM 69.6°F20.9°C 61.7°F16.5°C 76% 10.4 mph W16.7 kmh W 10.4 mph16.7 kmh 29.66 in1004.4 mb 0.00 in0.0 mm 0.00 in0.0 mm 0.56 in14.2 mm
12:14 PM 69.8°F21.0°C 61.1°F16.2°C 74% 9.9 mph W15.9 kmh W 10.4 mph16.7 kmh 29.66 in1004.4 mb 0.00 in0.0 mm 0.00 in0.0 mm 0.56 in14.2 mm
12:15 PM 69.6°F20.9°C 60.9°F16.1°C 74% 9.4 mph W15.1 kmh W 10.4 mph16.7 kmh 29.66 in1004.4 mb 0.00 in0.0 mm 0.00 in0.0 mm 0.56 in14.2 mm
12:16 PM 69.6°F20.9°C 60.9°F16.1°C 74% 5.3 mph W8.5 kmh W 11.4 mph18.3 kmh 29.66 in1004.4 mb 0.00 in0.0 mm 0.00 in0.0 mm 0.56 in14.2 mm
12:17 PM 69.3°F20.7°C 61.0°F16.1°C 75% 9.9 mph SW15.9 kmh SW 11.4 mph18.3 kmh 29.65 in1004.1 mb 0.00 in0.0 mm 0.00 in0.0 mm 0.56 in14.2 mm
12:18 PM 69.3°F20.7°C 60.6°F15.9°C 74% 11.4 mph W18.3 kmh W 13.0 mph20.9 kmh 29.65 in1004.1 mb 0.00 in0.0 mm 0.00 in0.0 mm 0.56 in14.2 mm
12:19 PM 69.3°F20.7°C 60.6°F15.9°C 74% 8.3 mph W13.4 kmh W 13.0 mph20.9 kmh 29.65 in1004.1 mb 0.00 in0.0 mm 0.00 in0.0 mm 0.56 in14.2 mm
12:20 PM 69.3°F20.7°C 60.3°F15.7°C 73% 7.3 mph WSW11.7 kmh WSW 13.0 mph20.9 kmh 29.65 in1004.1 mb 0.00 in0.0 mm 0.00 in0.0 mm 0.56 in14.2 mm
12:21 PM 69.3°F20.7°C 60.6°F15.9°C 74% 6.3 mph W10.1 kmh W 13.0 mph20.9 kmh 29.65 in1004.1 mb 0.00 in0.0 mm 0.00 in0.0 mm 0.56 in14.2 mm
12:22 PM 69.3°F20.7°C 59.9°F15.5°C 72% 14.5 mph WNW23.3 kmh WNW 14.5 mph23.3 kmh 29.65 in1004.1 mb 0.00 in0.0 mm 0.00 in0.0 mm 0.56 in14.2 mm
12:23 PM 69.3°F20.7°C 59.9°F15.5°C 72% 11.4 mph W18.3 kmh W 15.5 mph24.9 kmh 29.65 in1004.1 mb 0.00 in0.0 mm 0.00 in0.0 mm 0.56 in14.2 mm
12:24 PM 69.4°F20.8°C 60.0°F15.6°C 72% 7.8 mph WSW12.6 kmh WSW 15.5 mph24.9 kmh 29.65 in1004.1 mb 0.00 in0.0 mm 0.00 in0.0 mm 0.56 in14.2 mm
12:25 PM 69.6°F20.9°C 60.2°F15.7°C 72% 7.3 mph WNW11.7 kmh WNW 15.5 mph24.9 kmh 29.65 in1004.1 mb 0.00 in0.0 mm 0.00 in0.0 mm 0.56 in14.2 mm
12:26 PM 70.2°F21.2°C 60.3°F15.7°C 71% 7.3 mph WSW11.7 kmh WSW 15.5 mph24.9 kmh 29.65 in1004.1 mb 0.00 in0.0 mm 0.00 in0.0 mm 0.56 in14.2 mm
12:27 PM 70.3°F21.3°C 60.4°F15.8°C 71% 5.3 mph W8.5 kmh W 15.5 mph24.9 kmh 29.65 in1004.1 mb 0.00 in0.0 mm 0.00 in0.0 mm 0.56 in14.2 mm
12:28 PM 70.3°F21.3°C 60.8°F16.0°C 72% 7.3 mph WNW11.7 kmh WNW 15.5 mph24.9 kmh 29.65 in1004.1 mb 0.00 in0.0 mm 0.00 in0.0 mm 0.56 in14.2 mm
12:29 PM 70.5°F21.4°C 60.6°F15.9°C 71% 8.3 mph W13.4 kmh W 15.5 mph24.9 kmh 29.64 in1003.7 mb 0.00 in0.0 mm 0.00 in0.0 mm 0.56 in14.2 mm
12:30 PM 70.7°F21.5°C 60.8°F16.0°C 71% 5.3 mph S8.5 kmh S 15.5 mph24.9 kmh 29.64 in1003.7 mb 0.00 in0.0 mm 0.00 in0.0 mm 0.56 in14.2 mm
12:31 PM 71.2°F21.8°C 60.9°F16.1°C 70% 4.2 mph ENE6.8 kmh ENE 15.5 mph24.9 kmh 29.64 in1003.7 mb 0.00 in0.0 mm 0.00 in0.0 mm 0.56 in14.2 mm
12:32 PM 71.2°F21.8°C 60.5°F15.8°C 69% 6.8 mph NNE10.9 kmh NNE 15.5 mph24.9 kmh 29.64 in1003.7 mb 0.00 in0.0 mm 0.00 in0.0 mm 0.56 in14.2 mm
12:33 PM 71.1°F21.7°C 60.4°F15.8°C 69% 6.3 mph W10.1 kmh W 14.0 mph22.5 kmh 29.64 in1003.7 mb 0.00 in0.0 mm 0.00 in0.0 mm 0.56 in14.2 mm
12:34 PM 70.9°F21.6°C 60.2°F15.7°C 69% 7.3 mph W11.7 kmh W 10.9 mph17.5 kmh 29.64 in1003.7 mb 0.00 in0.0 mm 0.00 in0.0 mm 0.56 in14.2 mm
12:35 PM 71.1°F21.7°C 60.0°F15.6°C 68% 10.4 mph WSW16.7 kmh WSW 14.0 mph22.5 kmh 29.64 in1003.7 mb 0.00 in0.0 mm 0.00 in0.0 mm 0.56 in14.2 mm
12:36 PM 71.1°F21.7°C 59.6°F15.3°C 67% 13.0 mph W20.9 kmh W 16.1 mph25.9 kmh 29.64 in1003.7 mb 0.00 in0.0 mm 0.00 in0.0 mm 0.56 in14.2 mm
12:37 PM 71.2°F21.8°C 59.7°F15.4°C 67% 3.7 mph S6.0 kmh S 16.1 mph25.9 kmh 29.64 in1003.7 mb 0.00 in0.0 mm 0.00 in0.0 mm 0.56 in14.2 mm
12:38 PM 71.4°F21.9°C 60.3°F15.7°C 68% 14.5 mph WNW23.3 kmh WNW 16.1 mph25.9 kmh 29.64 in1003.7 mb 0.00 in0.0 mm 0.00 in0.0 mm 0.56 in14.2 mm
12:39 PM 71.8°F22.1°C 59.4°F15.2°C 65% 7.3 mph W11.7 kmh W 16.1 mph25.9 kmh 29.64 in1003.7 mb 0.00 in0.0 mm 0.00 in0.0 mm 0.56 in14.2 mm
12:40 PM 71.6°F22.0°C 59.6°F15.3°C 66% 7.8 mph SSE12.6 kmh SSE 16.1 mph25.9 kmh 29.63 in1003.4 mb 0.00 in0.0 mm 0.00 in0.0 mm 0.56 in14.2 mm
12:41 PM 71.8°F22.1°C 59.4°F15.2°C 65% 4.7 mph S7.6 kmh S 16.1 mph25.9 kmh 29.63 in1003.4 mb 0.00 in0.0 mm 0.00 in0.0 mm 0.56 in14.2 mm
12:42 PM 71.8°F22.1°C 59.8°F15.4°C 66% 16.6 mph W26.7 kmh W 16.6 mph26.7 kmh 29.63 in1003.4 mb 0.00 in0.0 mm 0.00 in0.0 mm 0.56 in14.2 mm
12:43 PM 72.0°F22.2°C 59.1°F15.1°C 64% 11.9 mph WSW19.2 kmh WSW 16.6 mph26.7 kmh 29.63 in1003.4 mb 0.00 in0.0 mm 0.00 in0.0 mm 0.56 in14.2 mm
12:44 PM 72.0°F22.2°C 59.1°F15.1°C 64% 6.3 mph SW10.1 kmh SW 16.6 mph26.7 kmh 29.63 in1003.4 mb 0.00 in0.0 mm 0.00 in0.0 mm 0.56 in14.2 mm
12:45 PM 72.0°F22.2°C 59.1°F15.1°C 64% 13.0 mph W20.9 kmh W 16.6 mph26.7 kmh 29.63 in1003.4 mb 0.00 in0.0 mm 0.00 in0.0 mm 0.56 in14.2 mm
12:46 PM 72.1°F22.3°C 59.2°F15.1°C 64% 10.4 mph SE16.7 kmh SE 16.6 mph26.7 kmh 29.63 in1003.4 mb 0.00 in0.0 mm 0.00 in0.0 mm 0.56 in14.2 mm
12:47 PM 72.1°F22.3°C 58.3°F14.6°C 62% 10.9 mph W17.5 kmh W 17.1 mph27.5 kmh 29.63 in1003.4 mb 0.00 in0.0 mm 0.00 in0.0 mm 0.56 in14.2 mm
12:48 PM 72.3°F22.4°C 57.6°F14.2°C 60% 23.8 mph S38.3 kmh S 24.3 mph39.1 kmh 29.63 in1003.4 mb 0.03 in0.8 mm 1.80 in45.7 mm 0.59 in15.0 mm
12:49 PM 72.3°F22.4°C 57.6°F14.2°C 60% 14.5 mph SSW23.3 kmh SSW 24.3 mph39.1 kmh 29.63 in1003.4 mb 0.03 in0.8 mm 0.00 in0.0 mm 0.59 in15.0 mm
12:50 PM 72.3°F22.4°C 57.2°F14.0°C 59% 4.2 mph NE6.8 kmh NE 24.3 mph39.1 kmh 29.63 in1003.4 mb 0.03 in0.8 mm 0.00 in0.0 mm 0.59 in15.0 mm
12:51 PM 72.3°F22.4°C 57.2°F14.0°C 59% 15.0 mph W24.1 kmh W 24.3 mph39.1 kmh 29.63 in1003.4 mb 0.03 in0.8 mm 0.00 in0.0 mm 0.59 in15.0 mm
12:52 PM 72.1°F22.3°C 56.0°F13.3°C 57% 17.6 mph WNW28.3 kmh WNW 24.3 mph39.1 kmh 29.63 in1003.4 mb 0.03 in0.8 mm 0.00 in0.0 mm 0.59 in15.0 mm
12:53 PM 72.3°F22.4°C 56.2°F13.4°C 57% 8.9 mph WNW14.3 kmh WNW 24.3 mph39.1 kmh 29.63 in1003.4 mb 0.03 in0.8 mm 0.00 in0.0 mm 0.59 in15.0 mm
12:54 PM 72.3°F22.4°C 56.2°F13.4°C 57% 15.0 mph SW24.1 kmh SW 24.3 mph39.1 kmh 29.63 in1003.4 mb 0.03 in0.8 mm 0.00 in0.0 mm 0.59 in15.0 mm
12:55 PM 72.3°F22.4°C 55.7°F13.2°C 56% 13.0 mph SSW20.9 kmh SSW 24.3 mph39.1 kmh 29.63 in1003.4 mb 0.03 in0.8 mm 0.00 in0.0 mm 0.59 in15.0 mm
12:56 PM 72.3°F22.4°C 55.2°F12.9°C 55% 11.4 mph WNW18.3 kmh WNW 24.3 mph39.1 kmh 29.63 in1003.4 mb 0.03 in0.8 mm 0.00 in0.0 mm 0.59 in15.0 mm
12:57 PM 72.1°F22.3°C 54.5°F12.5°C 54% 18.6 mph W29.9 kmh W 24.3 mph39.1 kmh 29.63 in1003.4 mb 0.03 in0.8 mm 0.00 in0.0 mm 0.59 in15.0 mm
12:58 PM 71.8°F22.1°C 54.8°F12.7°C 55% 12.5 mph W20.1 kmh W 26.9 mph43.3 kmh 29.63 in1003.4 mb 0.03 in0.8 mm 0.00 in0.0 mm 0.59 in15.0 mm
12:59 PM 71.4°F21.9°C 54.4°F12.4°C 55% 11.4 mph W18.3 kmh W 26.9 mph43.3 kmh 29.63 in1003.4 mb 0.03 in0.8 mm 0.00 in0.0 mm 0.59 in15.0 mm
01:00 PM 71.4°F21.9°C 54.4°F12.4°C 55% 6.8 mph W10.9 kmh W 26.9 mph43.3 kmh 29.63 in1003.4 mb 0.03 in0.8 mm 0.00 in0.0 mm 0.59 in15.0 mm
01:01 PM 71.1°F21.7°C 55.1°F12.8°C 57% 12.5 mph WNW20.1 kmh WNW 26.9 mph43.3 kmh 29.63 in1003.4 mb 0.03 in0.8 mm 0.00 in0.0 mm 0.59 in15.0 mm
01:02 PM 71.1°F21.7°C 55.1°F12.8°C 57% 13.5 mph NNW21.7 kmh NNW 26.9 mph43.3 kmh 29.63 in1003.4 mb 0.03 in0.8 mm 0.00 in0.0 mm 0.59 in15.0 mm
01:03 PM 71.2°F21.8°C 54.7°F12.6°C 56% 5.8 mph W9.3 kmh W 26.9 mph43.3 kmh 29.63 in1003.4 mb 0.03 in0.8 mm 0.00 in0.0 mm 0.59 in15.0 mm
01:04 PM 71.6°F22.0°C 55.1°F12.8°C 56% 5.8 mph ESE9.3 kmh ESE 26.9 mph43.3 kmh 29.63 in1003.4 mb 0.03 in0.8 mm 0.00 in0.0 mm 0.59 in15.0 mm
01:05 PM 71.8°F22.1°C 55.2°F12.9°C 56% 8.3 mph W13.4 kmh W 26.9 mph43.3 kmh 29.62 in1003.0 mb 0.03 in0.8 mm 0.00 in0.0 mm 0.59 in15.0 mm
01:06 PM 71.8°F22.1°C 55.2°F12.9°C 56% 14.0 mph W22.5 kmh W 26.9 mph43.3 kmh 29.62 in1003.0 mb 0.03 in0.8 mm 0.00 in0.0 mm 0.59 in15.0 mm
01:07 PM 71.6°F22.0°C 55.1°F12.8°C 56% 12.5 mph NW20.1 kmh NW 26.9 mph43.3 kmh 29.62 in1003.0 mb 0.03 in0.8 mm 0.00 in0.0 mm 0.59 in15.0 mm
01:08 PM 71.4°F21.9°C 54.9°F12.7°C 56% 13.5 mph W21.7 kmh W 16.1 mph25.9 kmh 29.62 in1003.0 mb 0.03 in0.8 mm 0.00 in0.0 mm 0.59 in15.0 mm
01:09 PM 71.4°F21.9°C 54.9°F12.7°C 56% 20.7 mph W33.3 kmh W 20.7 mph33.3 kmh 29.62 in1003.0 mb 0.03 in0.8 mm 0.00 in0.0 mm 0.59 in15.0 mm
01:10 PM 71.8°F22.1°C 54.8°F12.7°C 55% 13.0 mph W20.9 kmh W 20.7 mph33.3 kmh 29.62 in1003.0 mb 0.03 in0.8 mm 0.00 in0.0 mm 0.59 in15.0 mm
01:11 PM 72.0°F22.2°C 54.9°F12.7°C 55% 13.0 mph W20.9 kmh W 20.7 mph33.3 kmh 29.62 in1003.0 mb 0.03 in0.8 mm 0.00 in0.0 mm 0.59 in15.0 mm
01:12 PM 72.1°F22.3°C 55.0°F12.8°C 55% 11.4 mph SW18.3 kmh SW 20.7 mph33.3 kmh 29.62 in1003.0 mb 0.03 in0.8 mm 0.00 in0.0 mm 0.59 in15.0 mm
01:13 PM 72.3°F22.4°C 55.2°F12.9°C 55% 7.3 mph ENE11.7 kmh ENE 20.7 mph33.3 kmh 29.62 in1003.0 mb 0.03 in0.8 mm 0.00 in0.0 mm 0.59 in15.0 mm
01:14 PM 72.3°F22.4°C 55.2°F12.9°C 55% 14.5 mph W23.3 kmh W 22.2 mph35.7 kmh 29.62 in1003.0 mb 0.04 in1.0 mm 0.60 in15.2 mm 0.60 in15.2 mm
01:15 PM 72.7°F22.6°C 54.6°F12.6°C 53% 15.0 mph W24.1 kmh W 25.3 mph40.7 kmh 29.62 in1003.0 mb 0.05 in1.3 mm 0.60 in15.2 mm 0.61 in15.5 mm
01:16 PM 72.5°F22.5°C 54.4°F12.4°C 53% 15.0 mph W24.1 kmh W 25.3 mph40.7 kmh 29.62 in1003.0 mb 0.05 in1.3 mm 0.00 in0.0 mm 0.61 in15.5 mm
01:17 PM 72.5°F22.5°C 54.4°F12.4°C 53% 7.3 mph S11.7 kmh S 25.3 mph40.7 kmh 29.61 in1002.7 mb 0.05 in1.3 mm 0.00 in0.0 mm 0.61 in15.5 mm
01:18 PM 72.3°F22.4°C 54.2°F12.3°C 53% 18.1 mph W29.1 kmh W 25.3 mph40.7 kmh 29.61 in1002.7 mb 0.05 in1.3 mm 0.00 in0.0 mm 0.61 in15.5 mm
01:19 PM 72.3°F22.4°C 54.2°F12.3°C 53% 15.5 mph N24.9 kmh N 25.3 mph40.7 kmh 29.61 in1002.7 mb 0.05 in1.3 mm 0.00 in0.0 mm 0.61 in15.5 mm
01:20 PM 72.0°F22.2°C 53.9°F12.2°C 53% 10.4 mph NW16.7 kmh NW 25.3 mph40.7 kmh 29.61 in1002.7 mb 0.05 in1.3 mm 0.00 in0.0 mm 0.61 in15.5 mm
01:21 PM 71.6°F22.0°C 53.6°F12.0°C 53% 15.0 mph S24.1 kmh S 25.3 mph40.7 kmh 29.61 in1002.7 mb 0.05 in1.3 mm 0.00 in0.0 mm 0.61 in15.5 mm
01:22 PM 72.0°F22.2°C 53.4°F11.9°C 52% 20.7 mph W33.3 kmh W 25.3 mph40.7 kmh 29.61 in1002.7 mb 0.05 in1.3 mm 0.00 in0.0 mm 0.61 in15.5 mm
01:23 PM 72.0°F22.2°C 52.9°F11.6°C 51% 7.8 mph S12.6 kmh S 25.3 mph40.7 kmh 29.61 in1002.7 mb 0.05 in1.3 mm 0.00 in0.0 mm 0.61 in15.5 mm
01:24 PM 72.0°F22.2°C 52.9°F11.6°C 51% 24.8 mph W39.9 kmh W 25.3 mph40.7 kmh 29.61 in1002.7 mb 0.05 in1.3 mm 0.00 in0.0 mm 0.61 in15.5 mm
01:25 PM 72.1°F22.3°C 52.4°F11.3°C 50% 17.6 mph SW28.3 kmh SW 24.8 mph39.9 kmh 29.61 in1002.7 mb 0.05 in1.3 mm 0.00 in0.0 mm 0.61 in15.5 mm
01:26 PM 72.1°F22.3°C 53.0°F11.7°C 51% 13.0 mph WSW20.9 kmh WSW 24.8 mph39.9 kmh 29.61 in1002.7 mb 0.05 in1.3 mm 0.00 in0.0 mm 0.61 in15.5 mm
01:27 PM 72.3°F22.4°C 52.6°F11.4°C 50% 18.1 mph WSW29.1 kmh WSW 24.8 mph39.9 kmh 29.61 in1002.7 mb 0.05 in1.3 mm 0.00 in0.0 mm 0.61 in15.5 mm
01:28 PM 72.1°F22.3°C 52.4°F11.3°C 50% 7.8 mph WSW12.6 kmh WSW 24.8 mph39.9 kmh 29.61 in1002.7 mb 0.05 in1.3 mm 0.00 in0.0 mm 0.61 in15.5 mm
01:29 PM 72.0°F22.2°C 52.3°F11.3°C 50% 9.9 mph S15.9 kmh S 24.8 mph39.9 kmh 29.61 in1002.7 mb 0.05 in1.3 mm 0.00 in0.0 mm 0.61 in15.5 mm
01:30 PM 72.1°F22.3°C 52.4°F11.3°C 50% 4.2 mph W6.8 kmh W 24.8 mph39.9 kmh 29.61 in1002.7 mb 0.05 in1.3 mm 0.00 in0.0 mm 0.61 in15.5 mm
01:31 PM 72.3°F22.4°C 52.6°F11.4°C 50% 10.4 mph W16.7 kmh W 24.8 mph39.9 kmh 29.61 in1002.7 mb 0.05 in1.3 mm 0.00 in0.0 mm 0.61 in15.5 mm
01:32 PM 72.3°F22.4°C 52.6°F11.4°C 50% 6.8 mph W10.9 kmh W 24.8 mph39.9 kmh 29.61 in1002.7 mb 0.05 in1.3 mm 0.00 in0.0 mm 0.61 in15.5 mm
01:33 PM 72.3°F22.4°C 53.1°F11.7°C 51% 11.4 mph W18.3 kmh W 24.8 mph39.9 kmh 29.61 in1002.7 mb 0.05 in1.3 mm 0.00 in0.0 mm 0.61 in15.5 mm
01:34 PM 72.5°F22.5°C 52.8°F11.6°C 50% 10.9 mph SSE17.5 kmh SSE 24.8 mph39.9 kmh 29.61 in1002.7 mb 0.05 in1.3 mm 0.00 in0.0 mm 0.61 in15.5 mm
01:35 PM 73.0°F22.8°C 52.7°F11.5°C 49% 15.5 mph WSW24.9 kmh WSW 23.8 mph38.3 kmh 29.61 in1002.7 mb 0.05 in1.3 mm 0.00 in0.0 mm 0.61 in15.5 mm
01:36 PM 73.0°F22.8°C 52.7°F11.5°C 49% 10.9 mph NNW17.5 kmh NNW 23.8 mph38.3 kmh 29.61 in1002.7 mb 0.05 in1.3 mm 0.00 in0.0 mm 0.61 in15.5 mm
01:37 PM 72.7°F22.6°C 52.4°F11.3°C 49% 8.3 mph S13.4 kmh S 19.1 mph30.7 kmh 29.61 in1002.7 mb 0.05 in1.3 mm 0.00 in0.0 mm 0.61 in15.5 mm
01:38 PM 72.7°F22.6°C 52.4°F11.3°C 49% 11.9 mph SW19.2 kmh SW 19.1 mph30.7 kmh 29.61 in1002.7 mb 0.05 in1.3 mm 0.00 in0.0 mm 0.61 in15.5 mm
01:39 PM 72.9°F22.7°C 52.6°F11.4°C 49% 13.5 mph W21.7 kmh W 19.1 mph30.7 kmh 29.61 in1002.7 mb 0.05 in1.3 mm 0.00 in0.0 mm 0.61 in15.5 mm
01:40 PM 73.0°F22.8°C 52.7°F11.5°C 49% 16.6 mph W26.7 kmh W 19.1 mph30.7 kmh 29.61 in1002.7 mb 0.05 in1.3 mm 0.00 in0.0 mm 0.61 in15.5 mm
01:41 PM 73.0°F22.8°C 52.7°F11.5°C 49% 6.3 mph W10.1 kmh W 19.1 mph30.7 kmh 29.61 in1002.7 mb 0.05 in1.3 mm 0.00 in0.0 mm 0.61 in15.5 mm
01:42 PM 73.0°F22.8°C 52.1°F11.2°C 48% 8.3 mph WNW13.4 kmh WNW 19.1 mph30.7 kmh 29.61 in1002.7 mb 0.05 in1.3 mm 0.00 in0.0 mm 0.61 in15.5 mm
01:43 PM 73.2°F22.9°C 52.3°F11.3°C 48% 15.5 mph W24.9 kmh W 19.1 mph30.7 kmh 29.61 in1002.7 mb 0.05 in1.3 mm 0.00 in0.0 mm 0.61 in15.5 mm
01:44 PM 73.2°F22.9°C 52.3°F11.3°C 48% 7.3 mph W11.7 kmh W 19.1 mph30.7 kmh 29.61 in1002.7 mb 0.05 in1.3 mm 0.00 in0.0 mm 0.61 in15.5 mm
01:45 PM 73.4°F23.0°C 51.9°F11.1°C 47% 14.5 mph NW23.3 kmh NW 17.1 mph27.5 kmh 29.61 in1002.7 mb 0.05 in1.3 mm 0.00 in0.0 mm 0.61 in15.5 mm
01:46 PM 73.6°F23.1°C 51.5°F10.8°C 46% 11.4 mph WNW18.3 kmh WNW 17.1 mph27.5 kmh 29.61 in1002.7 mb 0.05 in1.3 mm 0.00 in0.0 mm 0.61 in15.5 mm
01:47 PM 73.6°F23.1°C 51.5°F10.8°C 46% 14.0 mph WNW22.5 kmh WNW 17.1 mph27.5 kmh 29.61 in1002.7 mb 0.05 in1.3 mm 0.00 in0.0 mm 0.61 in15.5 mm
01:48 PM 73.6°F23.1°C 50.9°F10.5°C 45% 11.4 mph W18.3 kmh W 17.1 mph27.5 kmh 29.61 in1002.7 mb 0.02 in0.5 mm 0.00 in0.0 mm 0.61 in15.5 mm
01:49 PM 73.8°F23.2°C 51.1°F10.6°C 45% 9.4 mph W15.1 kmh W 17.1 mph27.5 kmh 29.61 in1002.7 mb 0.02 in0.5 mm 0.00 in0.0 mm 0.61 in15.5 mm
01:50 PM 73.8°F23.2°C 51.1°F10.6°C 45% 9.4 mph W15.1 kmh W 17.1 mph27.5 kmh 29.61 in1002.7 mb 0.02 in0.5 mm 0.00 in0.0 mm 0.61 in15.5 mm
01:51 PM 73.8°F23.2°C 51.1°F10.6°C 45% 8.9 mph WNW14.3 kmh WNW 15.5 mph24.9 kmh 29.61 in1002.7 mb 0.02 in0.5 mm 0.00 in0.0 mm 0.61 in15.5 mm
01:52 PM 73.8°F23.2°C 49.3°F9.6°C 42% 8.9 mph W14.3 kmh W 15.5 mph24.9 kmh 29.61 in1002.7 mb 0.02 in0.5 mm 0.00 in0.0 mm 0.61 in15.5 mm
01:53 PM 73.9°F23.3°C 48.7°F9.3°C 41% 14.5 mph W23.3 kmh W 15.5 mph24.9 kmh 29.61 in1002.7 mb 0.02 in0.5 mm 0.00 in0.0 mm 0.61 in15.5 mm
01:54 PM 73.8°F23.2°C 49.3°F9.6°C 42% 9.4 mph W15.1 kmh W 15.0 mph24.1 kmh 29.61 in1002.7 mb 0.02 in0.5 mm 0.00 in0.0 mm 0.61 in15.5 mm
01:55 PM 73.9°F23.3°C 48.7°F9.3°C 41% 18.1 mph WNW29.1 kmh WNW 18.1 mph29.1 kmh 29.61 in1002.7 mb 0.02 in0.5 mm 0.00 in0.0 mm 0.61 in15.5 mm
01:56 PM 74.1°F23.4°C 48.2°F9.0°C 40% 14.0 mph W22.5 kmh W 18.1 mph29.1 kmh 29.61 in1002.7 mb 0.02 in0.5 mm 0.00 in0.0 mm 0.61 in15.5 mm
01:57 PM 73.8°F23.2°C 48.6°F9.2°C 41% 11.4 mph WNW18.3 kmh WNW 18.1 mph29.1 kmh 29.61 in1002.7 mb 0.02 in0.5 mm 0.00 in0.0 mm 0.61 in15.5 mm
01:58 PM 73.6°F23.1°C 47.8°F8.8°C 40% 5.3 mph W8.5 kmh W 18.1 mph29.1 kmh 29.61 in1002.7 mb 0.02 in0.5 mm 0.00 in0.0 mm 0.61 in15.5 mm
01:59 PM 73.8°F23.2°C 48.0°F8.9°C 40% 6.8 mph W10.9 kmh W 18.1 mph29.1 kmh 29.61 in1002.7 mb 0.02 in0.5 mm 0.00 in0.0 mm 0.61 in15.5 mm
02:00 PM 73.8°F23.2°C 48.0°F8.9°C 40% 17.6 mph W28.3 kmh W 18.1 mph29.1 kmh 29.61 in1002.7 mb 0.02 in0.5 mm 0.00 in0.0 mm 0.61 in15.5 mm
02:01 PM 73.6°F23.1°C 47.8°F8.8°C 40% 8.9 mph ESE14.3 kmh ESE 18.1 mph29.1 kmh 29.61 in1002.7 mb 0.02 in0.5 mm 0.00 in0.0 mm 0.61 in15.5 mm
02:02 PM 73.6°F23.1°C 47.8°F8.8°C 40% 7.3 mph NNE11.7 kmh NNE 18.1 mph29.1 kmh 29.61 in1002.7 mb 0.02 in0.5 mm 0.00 in0.0 mm 0.61 in15.5 mm
02:03 PM 73.6°F23.1°C 47.8°F8.8°C 40% 13.0 mph W20.9 kmh W 18.1 mph29.1 kmh 29.61 in1002.7 mb 0.02 in0.5 mm 0.00 in0.0 mm 0.61 in15.5 mm
02:04 PM 73.4°F23.0°C 48.3°F9.1°C 41% 7.3 mph S11.7 kmh S 18.1 mph29.1 kmh 29.61 in1002.7 mb 0.02 in0.5 mm 0.00 in0.0 mm 0.61 in15.5 mm
02:05 PM 73.8°F23.2°C 48.0°F8.9°C 40% 11.4 mph W18.3 kmh W 17.6 mph28.3 kmh 29.61 in1002.7 mb 0.02 in0.5 mm 0.00 in0.0 mm 0.61 in15.5 mm
02:06 PM 73.8°F23.2°C 48.0°F8.9°C 40% 17.1 mph W27.5 kmh W 17.6 mph28.3 kmh 29.61 in1002.7 mb 0.02 in0.5 mm 0.00 in0.0 mm 0.61 in15.5 mm
02:07 PM 73.8°F23.2°C 48.0°F8.9°C 40% 17.6 mph W28.3 kmh W 17.6 mph28.3 kmh 29.61 in1002.7 mb 0.02 in0.5 mm 0.00 in0.0 mm 0.61 in15.5 mm
02:08 PM 73.8°F23.2°C 48.0°F8.9°C 40% 17.1 mph WSW27.5 kmh WSW 17.6 mph28.3 kmh 29.61 in1002.7 mb 0.02 in0.5 mm 0.00 in0.0 mm 0.61 in15.5 mm
02:09 PM 73.8°F23.2°C 48.0°F8.9°C 40% 9.9 mph W15.9 kmh W 17.6 mph28.3 kmh 29.61 in1002.7 mb 0.02 in0.5 mm 0.00 in0.0 mm 0.61 in15.5 mm
02:10 PM 73.6°F23.1°C 47.8°F8.8°C 40% 10.4 mph W16.7 kmh W 17.6 mph28.3 kmh 29.61 in1002.7 mb 0.02 in0.5 mm 0.00 in0.0 mm 0.61 in15.5 mm
02:11 PM 73.8°F23.2°C 48.0°F8.9°C 40% 5.8 mph W9.3 kmh W 17.6 mph28.3 kmh 29.61 in1002.7 mb 0.02 in0.5 mm 0.00 in0.0 mm 0.61 in15.5 mm
02:12 PM 73.8°F23.2°C 48.0°F8.9°C 40% 7.3 mph WNW11.7 kmh WNW 17.6 mph28.3 kmh 29.61 in1002.7 mb 0.02 in0.5 mm 0.00 in0.0 mm 0.61 in15.5 mm
02:13 PM 73.8°F23.2°C 48.0°F8.9°C 40% 6.8 mph WNW10.9 kmh WNW 17.6 mph28.3 kmh 29.61 in1002.7 mb 0.02 in0.5 mm 0.00 in0.0 mm 0.61 in15.5 mm
02:18 PM 73.8°F23.2°C 48.0°F8.9°C 40% 6.8 mph W10.9 kmh W 17.1 mph27.5 kmh 29.61 in1002.7 mb 0.00 in0.0 mm 0.00 in0.0 mm 0.61 in15.5 mm
02:19 PM 73.9°F23.3°C 48.7°F9.3°C 41% 9.9 mph WSW15.9 kmh WSW 10.4 mph16.7 kmh 29.61 in1002.7 mb 0.00 in0.0 mm 0.00 in0.0 mm 0.61 in15.5 mm
02:20 PM 73.9°F23.3°C 48.7°F9.3°C 41% 5.8 mph W9.3 kmh W 9.9 mph15.9 kmh 29.61 in1002.7 mb 0.00 in0.0 mm 0.00 in0.0 mm 0.61 in15.5 mm
02:21 PM 73.9°F23.3°C 48.0°F8.9°C 40% 8.3 mph WSW13.4 kmh WSW 15.0 mph24.1 kmh 29.61 in1002.7 mb 0.00 in0.0 mm 0.00 in0.0 mm 0.61 in15.5 mm
02:22 PM 73.9°F23.3°C 48.7°F9.3°C 41% 12.5 mph W20.1 kmh W 15.0 mph24.1 kmh 29.61 in1002.7 mb 0.00 in0.0 mm 0.00 in0.0 mm 0.61 in15.5 mm
02:23 PM 73.8°F23.2°C 48.6°F9.2°C 41% 11.9 mph NNW19.2 kmh NNW 15.0 mph24.1 kmh 29.61 in1002.7 mb 0.00 in0.0 mm 0.00 in0.0 mm 0.61 in15.5 mm
02:24 PM 73.8°F23.2°C 48.0°F8.9°C 40% 10.9 mph W17.5 kmh W 15.0 mph24.1 kmh 29.61 in1002.7 mb 0.00 in0.0 mm 0.00 in0.0 mm 0.61 in15.5 mm
02:25 PM 73.6°F23.1°C 47.8°F8.8°C 40% 13.0 mph W20.9 kmh W 15.0 mph24.1 kmh 29.61 in1002.7 mb 0.00 in0.0 mm 0.00 in0.0 mm 0.61 in15.5 mm
02:26 PM 73.8°F23.2°C 48.0°F8.9°C 40% 14.0 mph W22.5 kmh W 15.0 mph24.1 kmh 29.61 in1002.7 mb 0.00 in0.0 mm 0.00 in0.0 mm 0.61 in15.5 mm
02:27 PM 73.6°F23.1°C 47.8°F8.8°C 40% 7.3 mph WSW11.7 kmh WSW 15.0 mph24.1 kmh 29.61 in1002.7 mb 0.00 in0.0 mm 0.00 in0.0 mm 0.61 in15.5 mm
02:28 PM 73.4°F23.0°C 47.6°F8.7°C 40% 10.9 mph WNW17.5 kmh WNW 15.0 mph24.1 kmh 29.61 in1002.7 mb 0.00 in0.0 mm 0.00 in0.0 mm 0.61 in15.5 mm
02:29 PM 73.6°F23.1°C 47.1°F8.4°C 39% 17.1 mph WNW27.5 kmh WNW 17.1 mph27.5 kmh 29.61 in1002.7 mb 0.00 in0.0 mm 0.00 in0.0 mm 0.61 in15.5 mm
02:30 PM 73.6°F23.1°C 48.4°F9.1°C 41% 4.2 mph NNE6.8 kmh NNE 17.1 mph27.5 kmh 29.61 in1002.7 mb 0.00 in0.0 mm 0.00 in0.0 mm 0.61 in15.5 mm
02:31 PM 73.6°F23.1°C 47.8°F8.8°C 40% 11.4 mph W18.3 kmh W 17.1 mph27.5 kmh 29.61 in1002.7 mb 0.00 in0.0 mm 0.00 in0.0 mm 0.61 in15.5 mm
02:32 PM 73.6°F23.1°C 47.8°F8.8°C 40% 5.3 mph WNW8.5 kmh WNW 17.1 mph27.5 kmh 29.61 in1002.7 mb 0.00 in0.0 mm 0.00 in0.0 mm 0.61 in15.5 mm
02:33 PM 73.6°F23.1°C 47.8°F8.8°C 40% 12.5 mph W20.1 kmh W 21.7 mph34.9 kmh 29.61 in1002.7 mb 0.00 in0.0 mm 0.00 in0.0 mm 0.61 in15.5 mm
02:34 PM 73.4°F23.0°C 47.6°F8.7°C 40% 14.5 mph WNW23.3 kmh WNW 21.7 mph34.9 kmh 29.61 in1002.7 mb 0.00 in0.0 mm 0.00 in0.0 mm 0.61 in15.5 mm
02:35 PM 73.4°F23.0°C 47.6°F8.7°C 40% 10.9 mph W17.5 kmh W 21.7 mph34.9 kmh 29.61 in1002.7 mb 0.00 in0.0 mm 0.00 in0.0 mm 0.61 in15.5 mm
02:36 PM 73.4°F23.0°C 47.6°F8.7°C 40% 6.3 mph NW10.1 kmh NW 21.7 mph34.9 kmh 29.61 in1002.7 mb 0.00 in0.0 mm 0.00 in0.0 mm 0.61 in15.5 mm
02:37 PM 73.4°F23.0°C 47.6°F8.7°C 40% 11.4 mph WSW18.3 kmh WSW 21.7 mph34.9 kmh 29.61 in1002.7 mb 0.00 in0.0 mm 0.00 in0.0 mm 0.61 in15.5 mm
02:38 PM 73.4°F23.0°C 47.6°F8.7°C 40% 15.0 mph WNW24.1 kmh WNW 21.7 mph34.9 kmh 29.61 in1002.7 mb 0.00 in0.0 mm 0.00 in0.0 mm 0.61 in15.5 mm
02:39 PM 73.4°F23.0°C 46.9°F8.3°C 39% 7.3 mph WNW11.7 kmh WNW 21.7 mph34.9 kmh 29.61 in1002.7 mb 0.00 in0.0 mm 0.00 in0.0 mm 0.61 in15.5 mm
02:40 PM 73.2°F22.9°C 46.7°F8.2°C 39% 9.9 mph W15.9 kmh W 21.7 mph34.9 kmh 29.61 in1002.7 mb 0.00 in0.0 mm 0.00 in0.0 mm 0.61 in15.5 mm
02:41 PM 73.2°F22.9°C 46.7°F8.2°C 39% 8.9 mph W14.3 kmh W 21.7 mph34.9 kmh 29.62 in1003.0 mb 0.00 in0.0 mm 0.00 in0.0 mm 0.61 in15.5 mm
02:42 PM 73.2°F22.9°C 46.7°F8.2°C 39% 4.7 mph WSW7.6 kmh WSW 21.7 mph34.9 kmh 29.62 in1003.0 mb 0.00 in0.0 mm 0.00 in0.0 mm 0.61 in15.5 mm
02:43 PM 73.0°F22.8°C 46.6°F8.1°C 39% 4.7 mph N7.6 kmh N 18.6 mph29.9 kmh 29.62 in1003.0 mb 0.00 in0.0 mm 0.00 in0.0 mm 0.61 in15.5 mm
02:44 PM 73.0°F22.8°C 46.6°F8.1°C 39% 8.9 mph WSW14.3 kmh WSW 18.6 mph29.9 kmh 29.62 in1003.0 mb 0.00 in0.0 mm 0.00 in0.0 mm 0.61 in15.5 mm
02:45 PM 73.2°F22.9°C 46.1°F7.8°C 38% 15.0 mph W24.1 kmh W 18.6 mph29.9 kmh 29.62 in1003.0 mb 0.00 in0.0 mm 0.00 in0.0 mm 0.61 in15.5 mm
02:46 PM 73.2°F22.9°C 46.1°F7.8°C 38% 14.0 mph W22.5 kmh W 18.6 mph29.9 kmh 29.62 in1003.0 mb 0.00 in0.0 mm 0.00 in0.0 mm 0.61 in15.5 mm
02:47 PM 73.2°F22.9°C 44.6°F7.0°C 36% 12.5 mph NW20.1 kmh NW 18.6 mph29.9 kmh 29.62 in1003.0 mb 0.00 in0.0 mm 0.00 in0.0 mm 0.61 in15.5 mm
02:48 PM 73.2°F22.9°C 44.6°F7.0°C 36% 12.5 mph WSW20.1 kmh WSW 18.6 mph29.9 kmh 29.62 in1003.0 mb 0.00 in0.0 mm 0.00 in0.0 mm 0.61 in15.5 mm
02:49 PM 73.2°F22.9°C 44.6°F7.0°C 36% 10.4 mph NNE16.7 kmh NNE 18.6 mph29.9 kmh 29.62 in1003.0 mb 0.00 in0.0 mm 0.00 in0.0 mm 0.61 in15.5 mm
02:50 PM 73.2°F22.9°C 44.6°F7.0°C 36% 10.9 mph WNW17.5 kmh WNW 18.6 mph29.9 kmh 29.62 in1003.0 mb 0.00 in0.0 mm 0.00 in0.0 mm 0.61 in15.5 mm
02:51 PM 73.2°F22.9°C 44.6°F7.0°C 36% 13.0 mph W20.9 kmh W 16.1 mph25.9 kmh 29.62 in1003.0 mb 0.00 in0.0 mm 0.00 in0.0 mm 0.61 in15.5 mm
02:52 PM 73.2°F22.9°C 44.6°F7.0°C 36% 12.5 mph WSW20.1 kmh WSW 16.1 mph25.9 kmh 29.62 in1003.0 mb 0.00 in0.0 mm 0.00 in0.0 mm 0.61 in15.5 mm
02:53 PM 73.0°F22.8°C 43.7°F6.5°C 35% 8.9 mph SSW14.3 kmh SSW 18.1 mph29.1 kmh 29.62 in1003.0 mb 0.00 in0.0 mm 0.00 in0.0 mm 0.61 in15.5 mm
02:54 PM 73.0°F22.8°C 43.7°F6.5°C 35% 11.9 mph W19.2 kmh W 18.1 mph29.1 kmh 29.62 in1003.0 mb 0.00 in0.0 mm 0.00 in0.0 mm 0.61 in15.5 mm
02:55 PM 72.9°F22.7°C 43.6°F6.4°C 35% 9.4 mph W15.1 kmh W 18.1 mph29.1 kmh 29.62 in1003.0 mb 0.00 in0.0 mm 0.00 in0.0 mm 0.61 in15.5 mm
02:56 PM 72.9°F22.7°C 43.6°F6.4°C 35% 9.9 mph W15.9 kmh W 18.1 mph29.1 kmh 29.62 in1003.0 mb 0.00 in0.0 mm 0.00 in0.0 mm 0.61 in15.5 mm
02:57 PM 72.9°F22.7°C 44.4°F6.9°C 36% 8.3 mph WSW13.4 kmh WSW 18.1 mph29.1 kmh 29.62 in1003.0 mb 0.00 in0.0 mm 0.00 in0.0 mm 0.61 in15.5 mm
02:58 PM 72.9°F22.7°C 44.4°F6.9°C 36% 3.7 mph W6.0 kmh W 18.1 mph29.1 kmh 29.62 in1003.0 mb 0.00 in0.0 mm 0.00 in0.0 mm 0.61 in15.5 mm
02:59 PM 72.9°F22.7°C 44.4°F6.9°C 36% 8.3 mph W13.4 kmh W 18.1 mph29.1 kmh 29.62 in1003.0 mb 0.00 in0.0 mm 0.00 in0.0 mm 0.61 in15.5 mm
03:00 PM 72.9°F22.7°C 44.4°F6.9°C 36% 6.8 mph NNW10.9 kmh NNW 18.1 mph29.1 kmh 29.62 in1003.0 mb 0.00 in0.0 mm 0.00 in0.0 mm 0.61 in15.5 mm
03:01 PM 72.9°F22.7°C 44.4°F6.9°C 36% 9.9 mph W15.9 kmh W 18.1 mph29.1 kmh 29.62 in1003.0 mb 0.00 in0.0 mm 0.00 in0.0 mm 0.61 in15.5 mm
03:02 PM 72.9°F22.7°C 44.4°F6.9°C 36% 7.3 mph WNW11.7 kmh WNW 18.1 mph29.1 kmh 29.62 in1003.0 mb 0.00 in0.0 mm 0.00 in0.0 mm 0.61 in15.5 mm
03:03 PM 72.9°F22.7°C 43.6°F6.4°C 35% 13.0 mph W20.9 kmh W 14.0 mph22.5 kmh 29.62 in1003.0 mb 0.00 in0.0 mm 0.00 in0.0 mm 0.61 in15.5 mm
03:04 PM 72.9°F22.7°C 43.6°F6.4°C 35% 21.2 mph W34.1 kmh W 21.2 mph34.1 kmh 29.62 in1003.0 mb 0.00 in0.0 mm 0.00 in0.0 mm 0.61 in15.5 mm
03:05 PM 72.7°F22.6°C 43.5°F6.4°C 35% 15.5 mph W24.9 kmh W 21.2 mph34.1 kmh 29.63 in1003.4 mb 0.00 in0.0 mm 0.00 in0.0 mm 0.61 in15.5 mm
03:06 PM 72.7°F22.6°C 42.7°F5.9°C 34% 15.5 mph WSW24.9 kmh WSW 21.2 mph34.1 kmh 29.63 in1003.4 mb 0.00 in0.0 mm 0.00 in0.0 mm 0.61 in15.5 mm
03:07 PM 72.9°F22.7°C 42.9°F6.1°C 34% 11.9 mph WNW19.2 kmh WNW 21.2 mph34.1 kmh 29.63 in1003.4 mb 0.00 in0.0 mm 0.00 in0.0 mm 0.61 in15.5 mm
03:08 PM 72.9°F22.7°C 42.9°F6.1°C 34% 7.3 mph W11.7 kmh W 21.2 mph34.1 kmh 29.63 in1003.4 mb 0.00 in0.0 mm 0.00 in0.0 mm 0.61 in15.5 mm
03:09 PM 72.9°F22.7°C 42.9°F6.1°C 34% 8.3 mph WNW13.4 kmh WNW 21.2 mph34.1 kmh 29.63 in1003.4 mb 0.00 in0.0 mm 0.00 in0.0 mm 0.61 in15.5 mm
03:10 PM 72.9°F22.7°C 42.9°F6.1°C 34% 12.5 mph W20.1 kmh W 21.2 mph34.1 kmh 29.63 in1003.4 mb 0.00 in0.0 mm 0.00 in0.0 mm 0.61 in15.5 mm
03:11 PM 72.9°F22.7°C 42.1°F5.6°C 33% 15.0 mph W24.1 kmh W 21.2 mph34.1 kmh 29.63 in1003.4 mb 0.00 in0.0 mm 0.00 in0.0 mm 0.61 in15.5 mm
03:12 PM 72.9°F22.7°C 42.1°F5.6°C 33% 14.5 mph W23.3 kmh W 21.2 mph34.1 kmh 29.63 in1003.4 mb 0.00 in0.0 mm 0.00 in0.0 mm 0.61 in15.5 mm
03:13 PM 72.9°F22.7°C 42.1°F5.6°C 33% 8.9 mph WSW14.3 kmh WSW 21.2 mph34.1 kmh 29.63 in1003.4 mb 0.00 in0.0 mm 0.00 in0.0 mm 0.61 in15.5 mm
03:14 PM 72.9°F22.7°C 42.9°F6.1°C 34% 14.0 mph W22.5 kmh W 16.1 mph25.9 kmh 29.63 in1003.4 mb 0.00 in0.0 mm 0.00 in0.0 mm 0.61 in15.5 mm
03:15 PM 72.9°F22.7°C 42.9°F6.1°C 34% 8.9 mph NNW14.3 kmh NNW 15.5 mph24.9 kmh 29.63 in1003.4 mb 0.00 in0.0 mm 0.00 in0.0 mm 0.61 in15.5 mm
03:16 PM 72.9°F22.7°C 42.9°F6.1°C 34% 9.4 mph W15.1 kmh W 15.5 mph24.9 kmh 29.63 in1003.4 mb 0.00 in0.0 mm 0.00 in0.0 mm 0.61 in15.5 mm
03:17 PM 72.9°F22.7°C 42.9°F6.1°C 34% 13.5 mph W21.7 kmh W 17.1 mph27.5 kmh 29.63 in1003.4 mb 0.00 in0.0 mm 0.00 in0.0 mm 0.61 in15.5 mm
03:18 PM 72.9°F22.7°C 42.9°F6.1°C 34% 10.4 mph W16.7 kmh W 17.1 mph27.5 kmh 29.63 in1003.4 mb 0.00 in0.0 mm 0.00 in0.0 mm 0.61 in15.5 mm
03:19 PM 72.9°F22.7°C 42.9°F6.1°C 34% 16.6 mph W26.7 kmh W 18.1 mph29.1 kmh 29.63 in1003.4 mb 0.00 in0.0 mm 0.00 in0.0 mm 0.61 in15.5 mm
03:20 PM 72.9°F22.7°C 42.1°F5.6°C 33% 11.9 mph W19.2 kmh W 18.1 mph29.1 kmh 29.63 in1003.4 mb 0.00 in0.0 mm 0.00 in0.0 mm 0.61 in15.5 mm
03:21 PM 72.7°F22.6°C 42.7°F5.9°C 34% 4.7 mph W7.6 kmh W 18.1 mph29.1 kmh 29.63 in1003.4 mb 0.00 in0.0 mm 0.00 in0.0 mm 0.61 in15.5 mm
03:22 PM 72.7°F22.6°C 42.7°F5.9°C 34% 7.3 mph NNW11.7 kmh NNW 18.1 mph29.1 kmh 29.63 in1003.4 mb 0.00 in0.0 mm 0.00 in0.0 mm 0.61 in15.5 mm
03:23 PM 72.7°F22.6°C 42.7°F5.9°C 34% 9.4 mph W15.1 kmh W 18.1 mph29.1 kmh 29.63 in1003.4 mb 0.00 in0.0 mm 0.00 in0.0 mm 0.61 in15.5 mm
03:24 PM 72.7°F22.6°C 42.7°F5.9°C 34% 5.3 mph W8.5 kmh W 18.1 mph29.1 kmh 29.63 in1003.4 mb 0.00 in0.0 mm 0.00 in0.0 mm 0.61 in15.5 mm
03:25 PM 72.5°F22.5°C 43.3°F6.3°C 35% 7.3 mph W11.7 kmh W 18.1 mph29.1 kmh 29.63 in1003.4 mb 0.00 in0.0 mm 0.00 in0.0 mm 0.61 in15.5 mm
03:26 PM 72.5°F22.5°C 43.3°F6.3°C 35% 9.9 mph W15.9 kmh W 18.1 mph29.1 kmh 29.63 in1003.4 mb 0.00 in0.0 mm 0.00 in0.0 mm 0.61 in15.5 mm
03:27 PM 72.7°F22.6°C 42.7°F5.9°C 34% 6.3 mph W10.1 kmh W 18.1 mph29.1 kmh 29.63 in1003.4 mb 0.00 in0.0 mm 0.00 in0.0 mm 0.61 in15.5 mm
03:28 PM 72.5°F22.5°C 43.3°F6.3°C 35% 7.8 mph SSW12.6 kmh SSW 18.1 mph29.1 kmh 29.63 in1003.4 mb 0.00 in0.0 mm 0.00 in0.0 mm 0.61 in15.5 mm
03:29 PM 72.7°F22.6°C 42.7°F5.9°C 34% 12.5 mph SSW20.1 kmh SSW 16.6 mph26.7 kmh 29.63 in1003.4 mb 0.00 in0.0 mm 0.00 in0.0 mm 0.61 in15.5 mm
03:30 PM 72.5°F22.5°C 43.3°F6.3°C 35% 6.3 mph W10.1 kmh W 13.0 mph20.9 kmh 29.63 in1003.4 mb 0.00 in0.0 mm 0.00 in0.0 mm 0.61 in15.5 mm
03:31 PM 72.5°F22.5°C 43.3°F6.3°C 35% 10.9 mph W17.5 kmh W 13.0 mph20.9 kmh 29.63 in1003.4 mb 0.00 in0.0 mm 0.00 in0.0 mm 0.61 in15.5 mm
03:32 PM 72.5°F22.5°C 43.3°F6.3°C 35% 21.7 mph W34.9 kmh W 21.7 mph34.9 kmh 29.63 in1003.4 mb 0.00 in0.0 mm 0.00 in0.0 mm 0.61 in15.5 mm
03:33 PM 72.5°F22.5°C 43.3°F6.3°C 35% 8.9 mph W14.3 kmh W 21.7 mph34.9 kmh 29.63 in1003.4 mb 0.00 in0.0 mm 0.00 in0.0 mm 0.61 in15.5 mm
03:34 PM 72.5°F22.5°C 43.3°F6.3°C 35% 9.9 mph W15.9 kmh W 21.7 mph34.9 kmh 29.63 in1003.4 mb 0.00 in0.0 mm 0.00 in0.0 mm 0.61 in15.5 mm
03:35 PM 72.5°F22.5°C 43.3°F6.3°C 35% 7.3 mph W11.7 kmh W 21.7 mph34.9 kmh 29.63 in1003.4 mb 0.00 in0.0 mm 0.00 in0.0 mm 0.61 in15.5 mm
03:36 PM 72.3°F22.4°C 43.1°F6.2°C 35% 4.2 mph W6.8 kmh W 21.7 mph34.9 kmh 29.63 in1003.4 mb 0.00 in0.0 mm 0.00 in0.0 mm 0.61 in15.5 mm
03:37 PM 72.3°F22.4°C 43.1°F6.2°C 35% 7.3 mph W11.7 kmh W 21.7 mph34.9 kmh 29.63 in1003.4 mb 0.00 in0.0 mm 0.00 in0.0 mm 0.61 in15.5 mm
03:38 PM 72.3°F22.4°C 43.1°F6.2°C 35% 8.9 mph WSW14.3 kmh WSW 21.7 mph34.9 kmh 29.63 in1003.4 mb 0.00 in0.0 mm 0.00 in0.0 mm 0.61 in15.5 mm
03:39 PM 72.3°F22.4°C 43.1°F6.2°C 35% 8.3 mph SSW13.4 kmh SSW 21.7 mph34.9 kmh 29.63 in1003.4 mb 0.00 in0.0 mm 0.00 in0.0 mm 0.61 in15.5 mm
03:40 PM 72.3°F22.4°C 43.1°F6.2°C 35% 9.9 mph W15.9 kmh W 21.7 mph34.9 kmh 29.63 in1003.4 mb 0.00 in0.0 mm 0.00 in0.0 mm 0.61 in15.5 mm
03:41 PM 72.3°F22.4°C 43.1°F6.2°C 35% 10.9 mph W17.5 kmh W 21.7 mph34.9 kmh 29.64 in1003.7 mb 0.00 in0.0 mm 0.00 in0.0 mm 0.61 in15.5 mm
03:42 PM 72.3°F22.4°C 43.1°F6.2°C 35% 10.4 mph W16.7 kmh W 21.7 mph34.9 kmh 29.64 in1003.7 mb 0.00 in0.0 mm 0.00 in0.0 mm 0.61 in15.5 mm
03:43 PM 72.5°F22.5°C 43.3°F6.3°C 35% 6.8 mph W10.9 kmh W 13.0 mph20.9 kmh 29.64 in1003.7 mb 0.00 in0.0 mm 0.00 in0.0 mm 0.61 in15.5 mm
03:44 PM 72.5°F22.5°C 43.3°F6.3°C 35% 5.3 mph W8.5 kmh W 13.0 mph20.9 kmh 29.64 in1003.7 mb 0.00 in0.0 mm 0.00 in0.0 mm 0.61 in15.5 mm
03:45 PM 72.7°F22.6°C 43.5°F6.4°C 35% 6.8 mph W10.9 kmh W 13.0 mph20.9 kmh 29.64 in1003.7 mb 0.00 in0.0 mm 0.00 in0.0 mm 0.61 in15.5 mm
03:46 PM 72.7°F22.6°C 43.5°F6.4°C 35% 6.3 mph WSW10.1 kmh WSW 11.4 mph18.3 kmh 29.64 in1003.7 mb 0.00 in0.0 mm 0.00 in0.0 mm 0.61 in15.5 mm
03:47 PM 72.7°F22.6°C 43.5°F6.4°C 35% 6.8 mph WNW10.9 kmh WNW 11.4 mph18.3 kmh 29.64 in1003.7 mb 0.00 in0.0 mm 0.00 in0.0 mm 0.61 in15.5 mm
03:48 PM 73.0°F22.8°C 43.7°F6.5°C 35% 13.5 mph W21.7 kmh W 13.5 mph21.7 kmh 29.64 in1003.7 mb 0.00 in0.0 mm 0.00 in0.0 mm 0.61 in15.5 mm
03:49 PM 73.0°F22.8°C 43.7°F6.5°C 35% 12.5 mph W20.1 kmh W 13.5 mph21.7 kmh 29.64 in1003.7 mb 0.00 in0.0 mm 0.00 in0.0 mm 0.61 in15.5 mm
03:50 PM 73.0°F22.8°C 43.7°F6.5°C 35% 6.8 mph W10.9 kmh W 13.5 mph21.7 kmh 29.64 in1003.7 mb 0.00 in0.0 mm 0.00 in0.0 mm 0.61 in15.5 mm
03:51 PM 73.0°F22.8°C 43.7°F6.5°C 35% 9.4 mph SSW15.1 kmh SSW 13.5 mph21.7 kmh 29.64 in1003.7 mb 0.00 in0.0 mm 0.00 in0.0 mm 0.61 in15.5 mm
03:52 PM 73.0°F22.8°C 43.7°F6.5°C 35% 12.5 mph WNW20.1 kmh WNW 13.5 mph21.7 kmh 29.64 in1003.7 mb 0.00 in0.0 mm 0.00 in0.0 mm 0.61 in15.5 mm
03:53 PM 72.9°F22.7°C 44.4°F6.9°C 36% 8.3 mph WNW13.4 kmh WNW 13.5 mph21.7 kmh 29.64 in1003.7 mb 0.00 in0.0 mm 0.00 in0.0 mm 0.61 in15.5 mm
03:54 PM 72.5°F22.5°C 44.7°F7.1°C 37% 9.4 mph W15.1 kmh W 13.5 mph21.7 kmh 29.64 in1003.7 mb 0.00 in0.0 mm 0.00 in0.0 mm 0.61 in15.5 mm
03:55 PM 72.3°F22.4°C 45.3°F7.4°C 38% 9.4 mph WSW15.1 kmh WSW 13.5 mph21.7 kmh 29.64 in1003.7 mb 0.00 in0.0 mm 0.00 in0.0 mm 0.61 in15.5 mm
03:56 PM 72.3°F22.4°C 45.3°F7.4°C 38% 4.7 mph W7.6 kmh W 13.5 mph21.7 kmh 29.64 in1003.7 mb 0.00 in0.0 mm 0.00 in0.0 mm 0.61 in15.5 mm
03:57 PM 72.3°F22.4°C 45.9°F7.7°C 39% 10.9 mph WNW17.5 kmh WNW 13.5 mph21.7 kmh 29.64 in1003.7 mb 0.00 in0.0 mm 0.00 in0.0 mm 0.61 in15.5 mm
03:58 PM 72.1°F22.3°C 46.4°F8.0°C 40% 10.4 mph WSW16.7 kmh WSW 13.5 mph21.7 kmh 29.64 in1003.7 mb 0.00 in0.0 mm 0.00 in0.0 mm 0.61 in15.5 mm
03:59 PM 72.1°F22.3°C 47.1°F8.4°C 41% 8.3 mph WSW13.4 kmh WSW 13.5 mph21.7 kmh 29.64 in1003.7 mb 0.00 in0.0 mm 0.00 in0.0 mm 0.61 in15.5 mm
04:00 PM 72.0°F22.2°C 47.0°F8.3°C 41% 9.4 mph W15.1 kmh W 13.5 mph21.7 kmh 29.64 in1003.7 mb 0.00 in0.0 mm 0.00 in0.0 mm 0.61 in15.5 mm
04:01 PM 72.0°F22.2°C 47.0°F8.3°C 41% 8.3 mph WNW13.4 kmh WNW 13.5 mph21.7 kmh 29.64 in1003.7 mb 0.00 in0.0 mm 0.00 in0.0 mm 0.61 in15.5 mm
04:02 PM 72.0°F22.2°C 47.6°F8.7°C 42% 8.3 mph SSW13.4 kmh SSW 13.5 mph21.7 kmh 29.64 in1003.7 mb 0.00 in0.0 mm 0.00 in0.0 mm 0.61 in15.5 mm
04:03 PM 71.8°F22.1°C 48.1°F8.9°C 43% 10.4 mph WNW16.7 kmh WNW 13.5 mph21.7 kmh 29.64 in1003.7 mb 0.00 in0.0 mm 0.00 in0.0 mm 0.61 in15.5 mm
04:04 PM 71.6°F22.0°C 47.9°F8.8°C 43% 9.4 mph SSW15.1 kmh SSW 14.5 mph23.3 kmh 29.64 in1003.7 mb 0.00 in0.0 mm 0.00 in0.0 mm 0.61 in15.5 mm
04:05 PM 71.6°F22.0°C 48.5°F9.2°C 44% 8.9 mph WNW14.3 kmh WNW 14.5 mph23.3 kmh 29.66 in1004.4 mb 0.00 in0.0 mm 0.00 in0.0 mm 0.61 in15.5 mm
04:06 PM 71.6°F22.0°C 48.5°F9.2°C 44% 8.3 mph W13.4 kmh W 14.5 mph23.3 kmh 29.66 in1004.4 mb 0.00 in0.0 mm 0.00 in0.0 mm 0.61 in15.5 mm
04:10 PM 71.6°F22.0°C 48.5°F9.2°C 44% 11.4 mph W18.3 kmh W 14.5 mph23.3 kmh 29.66 in1004.4 mb 0.00 in0.0 mm 0.00 in0.0 mm 0.61 in15.5 mm
04:11 PM 71.2°F21.8°C 48.2°F9.0°C 44% 6.3 mph WNW10.1 kmh WNW 14.5 mph23.3 kmh 29.66 in1004.4 mb 0.00 in0.0 mm 0.00 in0.0 mm 0.61 in15.5 mm
04:12 PM 71.1°F21.7°C 48.7°F9.3°C 45% 5.8 mph NW9.3 kmh NW 14.5 mph23.3 kmh 29.66 in1004.4 mb 0.00 in0.0 mm 0.00 in0.0 mm 0.61 in15.5 mm
04:13 PM 71.2°F21.8°C 48.8°F9.3°C 45% 7.3 mph WNW11.7 kmh WNW 14.5 mph23.3 kmh 29.66 in1004.4 mb 0.00 in0.0 mm 0.00 in0.0 mm 0.61 in15.5 mm
04:14 PM 71.1°F21.7°C 48.7°F9.3°C 45% 6.8 mph WNW10.9 kmh WNW 11.9 mph19.2 kmh 29.66 in1004.4 mb 0.00 in0.0 mm 0.00 in0.0 mm 0.61 in15.5 mm
04:15 PM 71.1°F21.7°C 48.7°F9.3°C 45% 8.3 mph NW13.4 kmh NW 11.9 mph19.2 kmh 29.66 in1004.4 mb 0.00 in0.0 mm 0.00 in0.0 mm 0.61 in15.5 mm
04:16 PM 70.9°F21.6°C 48.5°F9.2°C 45% 8.3 mph NNW13.4 kmh NNW 11.9 mph19.2 kmh 29.66 in1004.4 mb 0.00 in0.0 mm 0.00 in0.0 mm 0.61 in15.5 mm
04:17 PM 70.9°F21.6°C 48.5°F9.2°C 45% 11.4 mph N18.3 kmh N 11.9 mph19.2 kmh 29.66 in1004.4 mb 0.00 in0.0 mm 0.00 in0.0 mm 0.61 in15.5 mm
04:18 PM 70.5°F21.4°C 48.1°F8.9°C 45% 10.9 mph NNE17.5 kmh NNE 13.0 mph20.9 kmh 29.66 in1004.4 mb 0.00 in0.0 mm 0.00 in0.0 mm 0.61 in15.5 mm
04:19 PM 70.2°F21.2°C 47.3°F8.5°C 44% 9.9 mph W15.9 kmh W 13.0 mph20.9 kmh 29.66 in1004.4 mb 0.00 in0.0 mm 0.00 in0.0 mm 0.61 in15.5 mm
04:20 PM 70.0°F21.1°C 47.1°F8.4°C 44% 7.8 mph WNW12.6 kmh WNW 13.0 mph20.9 kmh 29.66 in1004.4 mb 0.00 in0.0 mm 0.00 in0.0 mm 0.61 in15.5 mm
04:21 PM 69.8°F21.0°C 46.9°F8.3°C 44% 10.9 mph WNW17.5 kmh WNW 15.5 mph24.9 kmh 29.66 in1004.4 mb 0.00 in0.0 mm 0.00 in0.0 mm 0.61 in15.5 mm
04:22 PM 69.8°F21.0°C 46.9°F8.3°C 44% 19.7 mph W31.7 kmh W 19.7 mph31.7 kmh 29.66 in1004.4 mb 0.00 in0.0 mm 0.00 in0.0 mm 0.61 in15.5 mm
04:23 PM 69.4°F20.8°C 45.9°F7.7°C 43% 10.4 mph WSW16.7 kmh WSW 19.7 mph31.7 kmh 29.66 in1004.4 mb 0.00 in0.0 mm 0.00 in0.0 mm 0.61 in15.5 mm
04:24 PM 69.4°F20.8°C 45.9°F7.7°C 43% 7.8 mph NW12.6 kmh NW 19.7 mph31.7 kmh 29.66 in1004.4 mb 0.00 in0.0 mm 0.00 in0.0 mm 0.61 in15.5 mm
04:25 PM 69.4°F20.8°C 45.9°F7.7°C 43% 10.4 mph W16.7 kmh W 19.7 mph31.7 kmh 29.66 in1004.4 mb 0.00 in0.0 mm 0.00 in0.0 mm 0.61 in15.5 mm
04:26 PM 69.4°F20.8°C 45.9°F7.7°C 43% 7.8 mph W12.6 kmh W 19.7 mph31.7 kmh 29.66 in1004.4 mb 0.00 in0.0 mm 0.00 in0.0 mm 0.61 in15.5 mm
04:27 PM 69.3°F20.7°C 45.8°F7.7°C 43% 10.4 mph NNW16.7 kmh NNW 19.7 mph31.7 kmh 29.66 in1004.4 mb 0.00 in0.0 mm 0.00 in0.0 mm 0.61 in15.5 mm
04:28 PM 69.3°F20.7°C 45.8°F7.7°C 43% 10.9 mph NNW17.5 kmh NNW 19.7 mph31.7 kmh 29.66 in1004.4 mb 0.00 in0.0 mm 0.00 in0.0 mm 0.61 in15.5 mm
04:29 PM 69.1°F20.6°C 45.0°F7.2°C 42% 13.5 mph W21.7 kmh W 19.7 mph31.7 kmh 29.68 in1005.1 mb 0.00 in0.0 mm 0.00 in0.0 mm 0.61 in15.5 mm
04:30 PM 69.1°F20.6°C 45.0°F7.2°C 42% 7.8 mph W12.6 kmh W 19.7 mph31.7 kmh 29.68 in1005.1 mb 0.00 in0.0 mm 0.00 in0.0 mm 0.61 in15.5 mm
04:31 PM 69.1°F20.6°C 45.0°F7.2°C 42% 8.3 mph W13.4 kmh W 19.7 mph31.7 kmh 29.68 in1005.1 mb 0.00 in0.0 mm 0.00 in0.0 mm 0.61 in15.5 mm
04:32 PM 68.9°F20.5°C 44.9°F7.2°C 42% 8.3 mph WNW13.4 kmh WNW 13.5 mph21.7 kmh 29.68 in1005.1 mb 0.00 in0.0 mm 0.00 in0.0 mm 0.61 in15.5 mm
04:33 PM 68.9°F20.5°C 44.9°F7.2°C 42% 12.5 mph W20.1 kmh W 13.5 mph21.7 kmh 29.68 in1005.1 mb 0.00 in0.0 mm 0.00 in0.0 mm 0.61 in15.5 mm
04:34 PM 68.7°F20.4°C 44.0°F6.7°C 41% 14.0 mph W22.5 kmh W 14.0 mph22.5 kmh 29.68 in1005.1 mb 0.00 in0.0 mm 0.00 in0.0 mm 0.61 in15.5 mm
04:35 PM 68.7°F20.4°C 44.0°F6.7°C 41% 14.0 mph W22.5 kmh W 14.0 mph22.5 kmh 29.68 in1005.1 mb 0.00 in0.0 mm 0.00 in0.0 mm 0.61 in15.5 mm
04:40 PM 67.8°F19.9°C 41.3°F5.2°C 38% 7.8 mph W12.6 kmh W 14.0 mph22.5 kmh 29.68 in1005.1 mb 0.00 in0.0 mm 0.00 in0.0 mm 0.61 in15.5 mm
04:41 PM 67.8°F19.9°C 41.3°F5.2°C 38% 8.9 mph W14.3 kmh W 14.0 mph22.5 kmh 29.68 in1005.1 mb 0.00 in0.0 mm 0.00 in0.0 mm 0.61 in15.5 mm
04:42 PM 67.8°F19.9°C 41.3°F5.2°C 38% 11.4 mph SW18.3 kmh SW 14.0 mph22.5 kmh 29.68 in1005.1 mb 0.00 in0.0 mm 0.00 in0.0 mm 0.61 in15.5 mm
04:43 PM 67.6°F19.8°C 40.4°F4.7°C 37% 10.9 mph NNW17.5 kmh NNW 19.7 mph31.7 kmh 29.68 in1005.1 mb 0.00 in0.0 mm 0.00 in0.0 mm 0.61 in15.5 mm
04:44 PM 67.5°F19.7°C 40.3°F4.6°C 37% 7.3 mph NNE11.7 kmh NNE 19.7 mph31.7 kmh 29.68 in1005.1 mb 0.00 in0.0 mm 0.00 in0.0 mm 0.61 in15.5 mm
04:45 PM 67.5°F19.7°C 40.3°F4.6°C 37% 8.9 mph W14.3 kmh W 19.7 mph31.7 kmh 29.68 in1005.1 mb 0.00 in0.0 mm 0.00 in0.0 mm 0.61 in15.5 mm
04:46 PM 67.5°F19.7°C 40.3°F4.6°C 37% 10.9 mph WNW17.5 kmh WNW 19.7 mph31.7 kmh 29.68 in1005.1 mb 0.00 in0.0 mm 0.00 in0.0 mm 0.61 in15.5 mm
04:47 PM 67.3°F19.6°C 40.1°F4.5°C 37% 14.5 mph WNW23.3 kmh WNW 19.7 mph31.7 kmh 29.68 in1005.1 mb 0.00 in0.0 mm 0.00 in0.0 mm 0.61 in15.5 mm
04:48 PM 67.1°F19.5°C 40.0°F4.4°C 37% 6.8 mph W10.9 kmh W 19.7 mph31.7 kmh 29.68 in1005.1 mb 0.00 in0.0 mm 0.00 in0.0 mm 0.61 in15.5 mm
04:49 PM 67.1°F19.5°C 40.0°F4.4°C 37% 12.5 mph WNW20.1 kmh WNW 19.7 mph31.7 kmh 29.68 in1005.1 mb 0.00 in0.0 mm 0.00 in0.0 mm 0.61 in15.5 mm
04:50 PM 67.1°F19.5°C 40.0°F4.4°C 37% 10.4 mph WNW16.7 kmh WNW 19.7 mph31.7 kmh 29.68 in1005.1 mb 0.00 in0.0 mm 0.00 in0.0 mm 0.61 in15.5 mm
04:51 PM 66.9°F19.4°C 39.8°F4.3°C 37% 6.8 mph W10.9 kmh W 19.7 mph31.7 kmh 29.68 in1005.1 mb 0.00 in0.0 mm 0.00 in0.0 mm 0.61 in15.5 mm
04:52 PM 66.9°F19.4°C 39.8°F4.3°C 37% 8.9 mph W14.3 kmh W 15.0 mph24.1 kmh 29.69 in1005.4 mb 0.00 in0.0 mm 0.00 in0.0 mm 0.61 in15.5 mm
04:57 PM 66.0°F18.9°C 39.0°F3.9°C 37% 7.8 mph W12.6 kmh W 12.5 mph20.1 kmh 29.69 in1005.4 mb 0.00 in0.0 mm 0.00 in0.0 mm 0.61 in15.5 mm
04:58 PM 66.0°F18.9°C 39.0°F3.9°C 37% 7.8 mph NW12.6 kmh NW 12.5 mph20.1 kmh 29.69 in1005.4 mb 0.00 in0.0 mm 0.00 in0.0 mm 0.61 in15.5 mm
04:59 PM 65.8°F18.8°C 38.8°F3.8°C 37% 7.3 mph W11.7 kmh W 12.5 mph20.1 kmh 29.69 in1005.4 mb 0.00 in0.0 mm 0.00 in0.0 mm 0.61 in15.5 mm
05:00 PM 65.7°F18.7°C 39.4°F4.1°C 38% 7.3 mph W11.7 kmh W 10.4 mph16.7 kmh 29.69 in1005.4 mb 0.00 in0.0 mm 0.00 in0.0 mm 0.61 in15.5 mm
05:01 PM 65.7°F18.7°C 38.7°F3.7°C 37% 10.9 mph WNW17.5 kmh WNW 14.0 mph22.5 kmh 29.69 in1005.4 mb 0.00 in0.0 mm 0.00 in0.0 mm 0.61 in15.5 mm
05:02 PM 65.5°F18.6°C 38.5°F3.6°C 37% 5.8 mph NW9.3 kmh NW 14.0 mph22.5 kmh 29.69 in1005.4 mb 0.00 in0.0 mm 0.00 in0.0 mm 0.61 in15.5 mm
05:03 PM 65.5°F18.6°C 38.5°F3.6°C 37% 11.4 mph W18.3 kmh W 14.0 mph22.5 kmh 29.69 in1005.4 mb 0.00 in0.0 mm 0.00 in0.0 mm 0.61 in15.5 mm
05:04 PM 65.5°F18.6°C 38.5°F3.6°C 37% 7.8 mph NNE12.6 kmh NNE 14.0 mph22.5 kmh 29.70 in1005.8 mb 0.00 in0.0 mm 0.00 in0.0 mm 0.61 in15.5 mm
05:05 PM 65.3°F18.5°C 38.4°F3.6°C 37% 8.9 mph W14.3 kmh W 14.0 mph22.5 kmh 29.70 in1005.8 mb 0.00 in0.0 mm 0.00 in0.0 mm 0.61 in15.5 mm
05:06 PM 65.3°F18.5°C 38.4°F3.6°C 37% 7.3 mph WSW11.7 kmh WSW 14.0 mph22.5 kmh 29.70 in1005.8 mb 0.00 in0.0 mm 0.00 in0.0 mm 0.61 in15.5 mm
05:07 PM 65.3°F18.5°C 38.4°F3.6°C 37% 9.9 mph WNW15.9 kmh WNW 14.0 mph22.5 kmh 29.70 in1005.8 mb 0.00 in0.0 mm 0.00 in0.0 mm 0.61 in15.5 mm
05:08 PM 65.1°F18.4°C 38.2°F3.4°C 37% 2.7 mph WNW4.3 kmh WNW 14.0 mph22.5 kmh 29.70 in1005.8 mb 0.00 in0.0 mm 0.00 in0.0 mm 0.61 in15.5 mm
05:09 PM 65.1°F18.4°C 38.2°F3.4°C 37% 3.2 mph WNW5.1 kmh WNW 14.0 mph22.5 kmh 29.70 in1005.8 mb 0.00 in0.0 mm 0.00 in0.0 mm 0.61 in15.5 mm
05:10 PM 64.9°F18.3°C 38.0°F3.3°C 37% 8.9 mph W14.3 kmh W 14.0 mph22.5 kmh 29.70 in1005.8 mb 0.00 in0.0 mm 0.00 in0.0 mm 0.61 in15.5 mm
05:11 PM 64.8°F18.2°C 37.9°F3.3°C 37% 10.4 mph SW16.7 kmh SW 11.4 mph18.3 kmh 29.70 in1005.8 mb 0.00 in0.0 mm 0.00 in0.0 mm 0.61 in15.5 mm
05:12 PM 64.8°F18.2°C 37.9°F3.3°C 37% 11.4 mph WSW18.3 kmh WSW 11.4 mph18.3 kmh 29.70 in1005.8 mb 0.00 in0.0 mm 0.00 in0.0 mm 0.61 in15.5 mm
05:13 PM 64.8°F18.2°C 37.9°F3.3°C 37% 8.3 mph WSW13.4 kmh WSW 11.4 mph18.3 kmh 29.70 in1005.8 mb 0.00 in0.0 mm 0.00 in0.0 mm 0.61 in15.5 mm
05:14 PM 64.8°F18.2°C 37.9°F3.3°C 37% 8.9 mph N14.3 kmh N 11.4 mph18.3 kmh 29.70 in1005.8 mb 0.00 in0.0 mm 0.00 in0.0 mm 0.61 in15.5 mm
05:15 PM 64.8°F18.2°C 37.9°F3.3°C 37% 8.9 mph N14.3 kmh N 11.4 mph18.3 kmh 29.70 in1005.8 mb 0.00 in0.0 mm 0.00 in0.0 mm 0.61 in15.5 mm
05:16 PM 64.8°F18.2°C 37.2°F2.9°C 36% 5.3 mph NNW8.5 kmh NNW 11.4 mph18.3 kmh 29.70 in1005.8 mb 0.00 in0.0 mm 0.00 in0.0 mm 0.61 in15.5 mm
05:17 PM 64.8°F18.2°C 37.2°F2.9°C 36% 4.7 mph SW7.6 kmh SW 11.4 mph18.3 kmh 29.70 in1005.8 mb 0.00 in0.0 mm 0.00 in0.0 mm 0.61 in15.5 mm
05:18 PM 64.4°F18.0°C 37.6°F3.1°C 37% 7.3 mph W11.7 kmh W 11.4 mph18.3 kmh 29.70 in1005.8 mb 0.00 in0.0 mm 0.00 in0.0 mm 0.61 in15.5 mm
05:19 PM 64.4°F18.0°C 36.9°F2.7°C 36% 11.4 mph WNW18.3 kmh WNW 11.4 mph18.3 kmh 29.70 in1005.8 mb 0.00 in0.0 mm 0.00 in0.0 mm 0.61 in15.5 mm
05:20 PM 64.4°F18.0°C 36.9°F2.7°C 36% 6.8 mph WNW10.9 kmh WNW 11.4 mph18.3 kmh 29.70 in1005.8 mb 0.00 in0.0 mm 0.00 in0.0 mm 0.61 in15.5 mm
05:21 PM 64.2°F17.9°C 36.7°F2.6°C 36% 8.9 mph NW14.3 kmh NW 11.4 mph18.3 kmh 29.70 in1005.8 mb 0.00 in0.0 mm 0.00 in0.0 mm 0.61 in15.5 mm
05:22 PM 64.2°F17.9°C 36.7°F2.6°C 36% 5.8 mph NW9.3 kmh NW 11.4 mph18.3 kmh 29.70 in1005.8 mb 0.00 in0.0 mm 0.00 in0.0 mm 0.61 in15.5 mm
05:23 PM 64.2°F17.9°C 36.7°F2.6°C 36% 5.8 mph W9.3 kmh W 11.4 mph18.3 kmh 29.70 in1005.8 mb 0.00 in0.0 mm 0.00 in0.0 mm 0.61 in15.5 mm
05:24 PM 64.2°F17.9°C 36.7°F2.6°C 36% 10.4 mph WNW16.7 kmh WNW 11.4 mph18.3 kmh 29.70 in1005.8 mb 0.00 in0.0 mm 0.00 in0.0 mm 0.61 in15.5 mm
05:25 PM 64.2°F17.9°C 36.7°F2.6°C 36% 5.8 mph W9.3 kmh W 11.4 mph18.3 kmh 29.70 in1005.8 mb 0.00 in0.0 mm 0.00 in0.0 mm 0.61 in15.5 mm
05:26 PM 64.0°F17.8°C 36.5°F2.5°C 36% 7.3 mph WSW11.7 kmh WSW 11.4 mph18.3 kmh 29.70 in1005.8 mb 0.00 in0.0 mm 0.00 in0.0 mm 0.61 in15.5 mm
05:27 PM 63.9°F17.7°C 36.4°F2.4°C 36% 6.8 mph W10.9 kmh W 11.4 mph18.3 kmh 29.70 in1005.8 mb 0.00 in0.0 mm 0.00 in0.0 mm 0.61 in15.5 mm
05:28 PM 63.9°F17.7°C 36.4°F2.4°C 36% 5.3 mph W8.5 kmh W 11.4 mph18.3 kmh 29.70 in1005.8 mb 0.00 in0.0 mm 0.00 in0.0 mm 0.61 in15.5 mm
05:29 PM 63.9°F17.7°C 36.4°F2.4°C 36% 4.7 mph W7.6 kmh W 11.4 mph18.3 kmh 29.72 in1006.4 mb 0.00 in0.0 mm 0.00 in0.0 mm 0.61 in15.5 mm
05:30 PM 63.5°F17.5°C 36.8°F2.7°C 37% 5.3 mph SW8.5 kmh SW 10.4 mph16.7 kmh 29.72 in1006.4 mb 0.00 in0.0 mm 0.00 in0.0 mm 0.61 in15.5 mm
05:31 PM 63.5°F17.5°C 36.8°F2.7°C 37% 7.3 mph W11.7 kmh W 10.4 mph16.7 kmh 29.72 in1006.4 mb 0.00 in0.0 mm 0.00 in0.0 mm 0.61 in15.5 mm
05:32 PM 63.3°F17.4°C 35.9°F2.2°C 36% 8.3 mph W13.4 kmh W 11.4 mph18.3 kmh 29.72 in1006.4 mb 0.00 in0.0 mm 0.00 in0.0 mm 0.61 in15.5 mm
05:33 PM 63.5°F17.5°C 35.4°F1.9°C 35% 6.3 mph NNW10.1 kmh NNW 11.4 mph18.3 kmh 29.72 in1006.4 mb 0.00 in0.0 mm 0.00 in0.0 mm 0.61 in15.5 mm
05:34 PM 63.5°F17.5°C 35.4°F1.9°C 35% 12.5 mph N20.1 kmh N 12.5 mph20.1 kmh 29.72 in1006.4 mb 0.00 in0.0 mm 0.00 in0.0 mm 0.61 in15.5 mm
05:35 PM 63.5°F17.5°C 34.6°F1.4°C 34% 6.3 mph W10.1 kmh W 12.5 mph20.1 kmh 29.72 in1006.4 mb 0.00 in0.0 mm 0.00 in0.0 mm 0.61 in15.5 mm
05:36 PM 63.5°F17.5°C 34.6°F1.4°C 34% 8.3 mph WNW13.4 kmh WNW 12.5 mph20.1 kmh 29.72 in1006.4 mb 0.00 in0.0 mm 0.00 in0.0 mm 0.61 in15.5 mm
05:37 PM 63.5°F17.5°C 34.6°F1.4°C 34% 5.3 mph W8.5 kmh W 12.5 mph20.1 kmh 29.72 in1006.4 mb 0.00 in0.0 mm 0.00 in0.0 mm 0.61 in15.5 mm
05:38 PM 63.3°F17.4°C 34.5°F1.4°C 34% 4.2 mph W6.8 kmh W 12.5 mph20.1 kmh 29.72 in1006.4 mb 0.00 in0.0 mm 0.00 in0.0 mm 0.61 in15.5 mm
05:39 PM 63.3°F17.4°C 34.5°F1.4°C 34% 7.3 mph WNW11.7 kmh WNW 12.5 mph20.1 kmh 29.72 in1006.4 mb 0.00 in0.0 mm 0.00 in0.0 mm 0.61 in15.5 mm
05:40 PM 63.3°F17.4°C 33.7°F0.9°C 33% 6.8 mph WNW10.9 kmh WNW 12.5 mph20.1 kmh 29.72 in1006.4 mb 0.00 in0.0 mm 0.00 in0.0 mm 0.61 in15.5 mm
05:41 PM 63.3°F17.4°C 32.9°F0.5°C 32% 10.4 mph W16.7 kmh W 12.5 mph20.1 kmh 29.72 in1006.4 mb 0.00 in0.0 mm 0.00 in0.0 mm 0.61 in15.5 mm
05:42 PM 63.3°F17.4°C 32.9°F0.5°C 32% 6.3 mph W10.1 kmh W 12.5 mph20.1 kmh 29.73 in1006.8 mb 0.00 in0.0 mm 0.00 in0.0 mm 0.61 in15.5 mm
05:43 PM 63.3°F17.4°C 33.7°F0.9°C 33% 4.7 mph WSW7.6 kmh WSW 12.5 mph20.1 kmh 29.73 in1006.8 mb 0.00 in0.0 mm 0.00 in0.0 mm 0.61 in15.5 mm
05:44 PM 63.1°F17.3°C 33.5°F0.8°C 33% 7.3 mph W11.7 kmh W 12.5 mph20.1 kmh 29.73 in1006.8 mb 0.00 in0.0 mm 0.00 in0.0 mm 0.61 in15.5 mm
05:45 PM 63.1°F17.3°C 33.5°F0.8°C 33% 7.3 mph W11.7 kmh W 12.5 mph20.1 kmh 29.73 in1006.8 mb 0.00 in0.0 mm 0.00 in0.0 mm 0.61 in15.5 mm
05:50 PM 62.6°F17.0°C 33.1°F0.6°C 33% 5.8 mph W9.3 kmh W 12.5 mph20.1 kmh 29.73 in1006.8 mb 0.00 in0.0 mm 0.00 in0.0 mm 0.61 in15.5 mm
05:51 PM 62.6°F17.0°C 32.3°F0.2°C 32% 5.8 mph WNW9.3 kmh WNW 7.3 mph11.7 kmh 29.73 in1006.8 mb 0.00 in0.0 mm 0.00 in0.0 mm 0.61 in15.5 mm
05:52 PM 62.4°F16.9°C 32.2°F0.1°C 32% 4.2 mph N6.8 kmh N 7.3 mph11.7 kmh 29.73 in1006.8 mb 0.00 in0.0 mm 0.00 in0.0 mm 0.61 in15.5 mm
05:53 PM 62.4°F16.9°C 32.2°F0.1°C 32% 4.2 mph SW6.8 kmh SW 7.3 mph11.7 kmh 29.74 in1007.1 mb 0.00 in0.0 mm 0.00 in0.0 mm 0.61 in15.5 mm
05:54 PM 62.2°F16.8°C 32.7°F0.4°C 33% 4.7 mph N7.6 kmh N 7.3 mph11.7 kmh 29.74 in1007.1 mb 0.00 in0.0 mm 0.00 in0.0 mm 0.61 in15.5 mm
05:55 PM 62.2°F16.8°C 32.7°F0.4°C 33% 5.3 mph W8.5 kmh W 6.8 mph10.9 kmh 29.74 in1007.1 mb 0.00 in0.0 mm 0.00 in0.0 mm 0.61 in15.5 mm
05:56 PM 62.2°F16.8°C 32.7°F0.4°C 33% 6.3 mph W10.1 kmh W 6.8 mph10.9 kmh 29.74 in1007.1 mb 0.00 in0.0 mm 0.00 in0.0 mm 0.61 in15.5 mm
05:57 PM 62.2°F16.8°C 32.0°F0.0°C 32% 5.8 mph W9.3 kmh W 6.8 mph10.9 kmh 29.74 in1007.1 mb 0.00 in0.0 mm 0.00 in0.0 mm 0.61 in15.5 mm
05:58 PM 62.2°F16.8°C 32.0°F0.0°C 32% 4.2 mph W6.8 kmh W 6.8 mph10.9 kmh 29.74 in1007.1 mb 0.00 in0.0 mm 0.00 in0.0 mm 0.61 in15.5 mm
05:59 PM 62.1°F16.7°C 31.9°F-0.1°C 32% 7.3 mph NW11.7 kmh NW 7.3 mph11.7 kmh 29.74 in1007.1 mb 0.00 in0.0 mm 0.00 in0.0 mm 0.61 in15.5 mm
06:00 PM 62.1°F16.7°C 31.1°F-0.5°C 31% 6.3 mph W10.1 kmh W 7.3 mph11.7 kmh 29.74 in1007.1 mb 0.00 in0.0 mm 0.00 in0.0 mm 0.61 in15.5 mm
06:01 PM 62.1°F16.7°C 31.1°F-0.5°C 31% 5.8 mph WSW9.3 kmh WSW 7.3 mph11.7 kmh 29.74 in1007.1 mb 0.00 in0.0 mm 0.00 in0.0 mm 0.61 in15.5 mm
06:02 PM 62.1°F16.7°C 31.1°F-0.5°C 31% 6.3 mph NW10.1 kmh NW 7.3 mph11.7 kmh 29.74 in1007.1 mb 0.00 in0.0 mm 0.00 in0.0 mm 0.61 in15.5 mm
06:03 PM 62.1°F16.7°C 31.9°F-0.1°C 32% 3.7 mph SSW6.0 kmh SSW 7.3 mph11.7 kmh 29.74 in1007.1 mb 0.00 in0.0 mm 0.00 in0.0 mm 0.61 in15.5 mm
06:04 PM 61.9°F16.6°C 31.7°F-0.2°C 32% 7.8 mph NW12.6 kmh NW 7.8 mph12.6 kmh 29.74 in1007.1 mb 0.00 in0.0 mm 0.00 in0.0 mm 0.61 in15.5 mm
06:05 PM 61.9°F16.6°C 31.7°F-0.2°C 32% 9.4 mph WNW15.1 kmh WNW 9.4 mph15.1 kmh 29.74 in1007.1 mb 0.00 in0.0 mm 0.00 in0.0 mm 0.61 in15.5 mm
06:06 PM 61.9°F16.6°C 30.9°F-0.6°C 31% 6.3 mph W10.1 kmh W 9.4 mph15.1 kmh 29.74 in1007.1 mb 0.00 in0.0 mm 0.00 in0.0 mm 0.61 in15.5 mm
06:07 PM 61.9°F16.6°C 30.9°F-0.6°C 31% 9.9 mph W15.9 kmh W 9.9 mph15.9 kmh 29.74 in1007.1 mb 0.00 in0.0 mm 0.00 in0.0 mm 0.61 in15.5 mm
06:08 PM 61.9°F16.6°C 30.1°F-1.1°C 30% 7.8 mph W12.6 kmh W 9.9 mph15.9 kmh 29.74 in1007.1 mb 0.00 in0.0 mm 0.00 in0.0 mm 0.61 in15.5 mm
06:09 PM 61.9°F16.6°C 30.9°F-0.6°C 31% 3.2 mph WSW5.1 kmh WSW 9.9 mph15.9 kmh 29.74 in1007.1 mb 0.00 in0.0 mm 0.00 in0.0 mm 0.61 in15.5 mm
06:10 PM 61.9°F16.6°C 30.9°F-0.6°C 31% 4.7 mph W7.6 kmh W 9.9 mph15.9 kmh 29.74 in1007.1 mb 0.00 in0.0 mm 0.00 in0.0 mm 0.61 in15.5 mm
06:11 PM 61.7°F16.5°C 30.8°F-0.7°C 31% 3.7 mph W6.0 kmh W 9.9 mph15.9 kmh 29.74 in1007.1 mb 0.00 in0.0 mm 0.00 in0.0 mm 0.61 in15.5 mm
06:12 PM 61.5°F16.4°C 30.6°F-0.8°C 31% 6.3 mph WNW10.1 kmh WNW 9.9 mph15.9 kmh 29.74 in1007.1 mb 0.00 in0.0 mm 0.00 in0.0 mm 0.61 in15.5 mm
06:13 PM 61.5°F16.4°C 30.6°F-0.8°C 31% 3.2 mph NNW5.1 kmh NNW 9.9 mph15.9 kmh 29.74 in1007.1 mb 0.00 in0.0 mm 0.00 in0.0 mm 0.61 in15.5 mm
06:14 PM 61.5°F16.4°C 30.6°F-0.8°C 31% 4.2 mph WNW6.8 kmh WNW 9.9 mph15.9 kmh 29.74 in1007.1 mb 0.00 in0.0 mm 0.00 in0.0 mm 0.61 in15.5 mm
06:15 PM 61.3°F16.3°C 30.4°F-0.9°C 31% 4.7 mph WNW7.6 kmh WNW 9.9 mph15.9 kmh 29.74 in1007.1 mb 0.00 in0.0 mm 0.00 in0.0 mm 0.61 in15.5 mm
06:16 PM 61.3°F16.3°C 30.4°F-0.9°C 31% 4.2 mph W6.8 kmh W 9.9 mph15.9 kmh 29.74 in1007.1 mb 0.00 in0.0 mm 0.00 in0.0 mm 0.61 in15.5 mm
06:17 PM 61.2°F16.2°C 30.3°F-0.9°C 31% 4.2 mph W6.8 kmh W 9.9 mph15.9 kmh 29.75 in1007.5 mb 0.00 in0.0 mm 0.00 in0.0 mm 0.61 in15.5 mm
06:18 PM 61.2°F16.2°C 30.3°F-0.9°C 31% 4.2 mph W6.8 kmh W 7.8 mph12.6 kmh 29.75 in1007.5 mb 0.00 in0.0 mm 0.00 in0.0 mm 0.61 in15.5 mm
06:19 PM 61.0°F16.1°C 30.9°F-0.6°C 32% 5.8 mph WNW9.3 kmh WNW 6.3 mph10.1 kmh 29.75 in1007.5 mb 0.00 in0.0 mm 0.00 in0.0 mm 0.61 in15.5 mm
06:20 PM 61.0°F16.1°C 30.9°F-0.6°C 32% 3.2 mph W5.1 kmh W 6.3 mph10.1 kmh 29.75 in1007.5 mb 0.00 in0.0 mm 0.00 in0.0 mm 0.61 in15.5 mm
06:21 PM 60.8°F16.0°C 30.8°F-0.7°C 32% 4.7 mph W7.6 kmh W 6.3 mph10.1 kmh 29.75 in1007.5 mb 0.00 in0.0 mm 0.00 in0.0 mm 0.61 in15.5 mm
06:22 PM 60.8°F16.0°C 30.8°F-0.7°C 32% 3.7 mph W6.0 kmh W 6.3 mph10.1 kmh 29.75 in1007.5 mb 0.00 in0.0 mm 0.00 in0.0 mm 0.61 in15.5 mm
06:23 PM 60.6°F15.9°C 31.3°F-0.4°C 33% 4.7 mph W7.6 kmh W 5.8 mph9.3 kmh 29.75 in1007.5 mb 0.00 in0.0 mm 0.00 in0.0 mm 0.61 in15.5 mm
06:24 PM 60.6°F15.9°C 31.3°F-0.4°C 33% 5.8 mph W9.3 kmh W 5.8 mph9.3 kmh 29.75 in1007.5 mb 0.00 in0.0 mm 0.00 in0.0 mm 0.61 in15.5 mm
06:25 PM 60.4°F15.8°C 31.2°F-0.4°C 33% 4.2 mph W6.8 kmh W 5.8 mph9.3 kmh 29.75 in1007.5 mb 0.00 in0.0 mm 0.00 in0.0 mm 0.61 in15.5 mm
06:26 PM 60.4°F15.8°C 31.2°F-0.4°C 33% 3.7 mph WNW6.0 kmh WNW 5.8 mph9.3 kmh 29.75 in1007.5 mb 0.00 in0.0 mm 0.00 in0.0 mm 0.61 in15.5 mm
06:27 PM 60.4°F15.8°C 30.4°F-0.9°C 32% 5.3 mph WSW8.5 kmh WSW 5.8 mph9.3 kmh 29.75 in1007.5 mb 0.00 in0.0 mm 0.00 in0.0 mm 0.61 in15.5 mm
06:28 PM 60.4°F15.8°C 30.4°F-0.9°C 32% 3.7 mph W6.0 kmh W 5.8 mph9.3 kmh 29.75 in1007.5 mb 0.00 in0.0 mm 0.00 in0.0 mm 0.61 in15.5 mm
06:29 PM 60.4°F15.8°C 30.4°F-0.9°C 32% 4.2 mph W6.8 kmh W 5.8 mph9.3 kmh 29.76 in1007.8 mb 0.00 in0.0 mm 0.00 in0.0 mm 0.61 in15.5 mm
06:30 PM 60.3°F15.7°C 31.1°F-0.5°C 33% 2.7 mph W4.3 kmh W 5.8 mph9.3 kmh 29.76 in1007.8 mb 0.00 in0.0 mm 0.00 in0.0 mm 0.61 in15.5 mm
06:31 PM 60.3°F15.7°C 31.1°F-0.5°C 33% 4.2 mph W6.8 kmh W 5.8 mph9.3 kmh 29.76 in1007.8 mb 0.00 in0.0 mm 0.00 in0.0 mm 0.61 in15.5 mm
06:32 PM 59.9°F15.5°C 31.5°F-0.3°C 34% 3.2 mph S5.1 kmh S 5.8 mph9.3 kmh 29.76 in1007.8 mb 0.00 in0.0 mm 0.00 in0.0 mm 0.61 in15.5 mm
06:33 PM 59.9°F15.5°C 31.5°F-0.3°C 34% 4.2 mph W6.8 kmh W 5.8 mph9.3 kmh 29.76 in1007.8 mb 0.00 in0.0 mm 0.00 in0.0 mm 0.61 in15.5 mm
06:34 PM 59.7°F15.4°C 31.3°F-0.4°C 34% 3.7 mph W6.0 kmh W 5.3 mph8.5 kmh 29.76 in1007.8 mb 0.00 in0.0 mm 0.00 in0.0 mm 0.61 in15.5 mm
06:35 PM 59.9°F15.5°C 30.7°F-0.7°C 33% 5.8 mph W9.3 kmh W 6.8 mph10.9 kmh 29.76 in1007.8 mb 0.00 in0.0 mm 0.00 in0.0 mm 0.61 in15.5 mm
06:36 PM 59.9°F15.5°C 30.7°F-0.7°C 33% 5.8 mph WNW9.3 kmh WNW 6.8 mph10.9 kmh 29.76 in1007.8 mb 0.00 in0.0 mm 0.00 in0.0 mm 0.61 in15.5 mm
06:37 PM 60.1°F15.6°C 30.9°F-0.6°C 33% 4.2 mph NW6.8 kmh NW 6.8 mph10.9 kmh 29.76 in1007.8 mb 0.00 in0.0 mm 0.00 in0.0 mm 0.61 in15.5 mm
06:38 PM 60.1°F15.6°C 31.6°F-0.2°C 34% 5.3 mph W8.5 kmh W 6.8 mph10.9 kmh 29.76 in1007.8 mb 0.00 in0.0 mm 0.00 in0.0 mm 0.61 in15.5 mm
06:39 PM 60.1°F15.6°C 30.9°F-0.6°C 33% 5.8 mph WNW9.3 kmh WNW 6.8 mph10.9 kmh 29.76 in1007.8 mb 0.00 in0.0 mm 0.00 in0.0 mm 0.61 in15.5 mm
06:40 PM 60.1°F15.6°C 30.9°F-0.6°C 33% 4.7 mph W7.6 kmh W 6.8 mph10.9 kmh 29.76 in1007.8 mb 0.00 in0.0 mm 0.00 in0.0 mm 0.61 in15.5 mm
06:41 PM 60.1°F15.6°C 30.9°F-0.6°C 33% 3.7 mph W6.0 kmh W 6.8 mph10.9 kmh 29.77 in1008.1 mb 0.00 in0.0 mm 0.00 in0.0 mm 0.61 in15.5 mm
06:42 PM 60.1°F15.6°C 30.9°F-0.6°C 33% 3.2 mph WNW5.1 kmh WNW 6.8 mph10.9 kmh 29.77 in1008.1 mb 0.00 in0.0 mm 0.00 in0.0 mm 0.61 in15.5 mm
06:43 PM 59.9°F15.5°C 31.5°F-0.3°C 34% 4.2 mph WNW6.8 kmh WNW 6.8 mph10.9 kmh 29.77 in1008.1 mb 0.00 in0.0 mm 0.00 in0.0 mm 0.61 in15.5 mm
06:44 PM 59.9°F15.5°C 31.5°F-0.3°C 34% 6.3 mph NNW10.1 kmh NNW 6.8 mph10.9 kmh 29.77 in1008.1 mb 0.00 in0.0 mm 0.00 in0.0 mm 0.61 in15.5 mm
06:45 PM 59.9°F15.5°C 32.2°F0.1°C 35% 5.3 mph W8.5 kmh W 6.8 mph10.9 kmh 29.77 in1008.1 mb 0.00 in0.0 mm 0.00 in0.0 mm 0.61 in15.5 mm
06:46 PM 59.9°F15.5°C 32.2°F0.1°C 35% 4.7 mph WSW7.6 kmh WSW 6.8 mph10.9 kmh 29.77 in1008.1 mb 0.00 in0.0 mm 0.00 in0.0 mm 0.61 in15.5 mm
06:47 PM 59.9°F15.5°C 31.5°F-0.3°C 34% 5.3 mph W8.5 kmh W 6.8 mph10.9 kmh 29.77 in1008.1 mb 0.00 in0.0 mm 0.00 in0.0 mm 0.61 in15.5 mm
06:48 PM 59.9°F15.5°C 31.5°F-0.3°C 34% 5.3 mph W8.5 kmh W 6.8 mph10.9 kmh 29.77 in1008.1 mb 0.00 in0.0 mm 0.00 in0.0 mm 0.61 in15.5 mm
06:49 PM 59.9°F15.5°C 31.5°F-0.3°C 34% 3.7 mph WNW6.0 kmh WNW 6.8 mph10.9 kmh 29.77 in1008.1 mb 0.00 in0.0 mm 0.00 in0.0 mm 0.61 in15.5 mm
06:50 PM 59.9°F15.5°C 31.5°F-0.3°C 34% 5.8 mph W9.3 kmh W 6.8 mph10.9 kmh 29.77 in1008.1 mb 0.00 in0.0 mm 0.00 in0.0 mm 0.61 in15.5 mm
06:51 PM 59.9°F15.5°C 31.5°F-0.3°C 34% 6.3 mph W10.1 kmh W 6.8 mph10.9 kmh 29.77 in1008.1 mb 0.00 in0.0 mm 0.00 in0.0 mm 0.61 in15.5 mm
06:52 PM 59.9°F15.5°C 31.5°F-0.3°C 34% 4.2 mph W6.8 kmh W 6.8 mph10.9 kmh 29.77 in1008.1 mb 0.00 in0.0 mm 0.00 in0.0 mm 0.61 in15.5 mm
06:53 PM 59.7°F15.4°C 31.3°F-0.4°C 34% 4.2 mph W6.8 kmh W 6.8 mph10.9 kmh 29.77 in1008.1 mb 0.00 in0.0 mm 0.00 in0.0 mm 0.61 in15.5 mm
06:54 PM 59.7°F15.4°C 31.3°F-0.4°C 34% 2.2 mph W3.5 kmh W 6.8 mph10.9 kmh 29.77 in1008.1 mb 0.00 in0.0 mm 0.00 in0.0 mm 0.61 in15.5 mm
06:55 PM 59.5°F15.3°C 31.1°F-0.5°C 34% 3.2 mph W5.1 kmh W 6.8 mph10.9 kmh 29.77 in1008.1 mb 0.00 in0.0 mm 0.00 in0.0 mm 0.61 in15.5 mm
06:56 PM 59.4°F15.2°C 31.7°F-0.2°C 35% 4.2 mph W6.8 kmh W 6.3 mph10.1 kmh 29.77 in1008.1 mb 0.00 in0.0 mm 0.00 in0.0 mm 0.61 in15.5 mm
06:57 PM 59.4°F15.2°C 31.7°F-0.2°C 35% 3.7 mph W6.0 kmh W 6.3 mph10.1 kmh 29.77 in1008.1 mb 0.00 in0.0 mm 0.00 in0.0 mm 0.61 in15.5 mm
06:58 PM 59.2°F15.1°C 32.3°F0.2°C 36% 3.2 mph W5.1 kmh W 6.3 mph10.1 kmh 29.77 in1008.1 mb 0.00 in0.0 mm 0.00 in0.0 mm 0.61 in15.5 mm
06:59 PM 59.0°F15.0°C 32.1°F0.1°C 36% 3.2 mph W5.1 kmh W 6.3 mph10.1 kmh 29.77 in1008.1 mb 0.00 in0.0 mm 0.00 in0.0 mm 0.61 in15.5 mm
07:00 PM 59.0°F15.0°C 32.1°F0.1°C 36% 4.7 mph WSW7.6 kmh WSW 6.3 mph10.1 kmh 29.77 in1008.1 mb 0.00 in0.0 mm 0.00 in0.0 mm 0.61 in15.5 mm
07:01 PM 59.0°F15.0°C 32.1°F0.1°C 36% 3.7 mph W6.0 kmh W 6.3 mph10.1 kmh 29.77 in1008.1 mb 0.00 in0.0 mm 0.00 in0.0 mm 0.61 in15.5 mm
07:02 PM 59.0°F15.0°C 31.4°F-0.3°C 35% 3.7 mph WNW6.0 kmh WNW 5.8 mph9.3 kmh 29.77 in1008.1 mb 0.00 in0.0 mm 0.00 in0.0 mm 0.61 in15.5 mm
07:03 PM 59.0°F15.0°C 31.4°F-0.3°C 35% 3.2 mph WSW5.1 kmh WSW 5.8 mph9.3 kmh 29.77 in1008.1 mb 0.00 in0.0 mm 0.00 in0.0 mm 0.61 in15.5 mm
07:04 PM 58.8°F14.9°C 31.2°F-0.4°C 35% 3.7 mph NW6.0 kmh NW 5.8 mph9.3 kmh 29.77 in1008.1 mb 0.00 in0.0 mm 0.00 in0.0 mm 0.61 in15.5 mm
07:05 PM 58.8°F14.9°C 31.2°F-0.4°C 35% 3.2 mph W5.1 kmh W 5.8 mph9.3 kmh 29.78 in1008.5 mb 0.00 in0.0 mm 0.00 in0.0 mm 0.61 in15.5 mm
07:06 PM 58.8°F14.9°C 31.2°F-0.4°C 35% 4.7 mph W7.6 kmh W 5.8 mph9.3 kmh 29.78 in1008.5 mb 0.00 in0.0 mm 0.00 in0.0 mm 0.61 in15.5 mm
07:07 PM 58.8°F14.9°C 31.2°F-0.4°C 35% 5.8 mph NW9.3 kmh NW 6.3 mph10.1 kmh 29.78 in1008.5 mb 0.00 in0.0 mm 0.00 in0.0 mm 0.61 in15.5 mm
07:08 PM 58.8°F14.9°C 31.2°F-0.4°C 35% 2.7 mph WSW4.3 kmh WSW 6.3 mph10.1 kmh 29.78 in1008.5 mb 0.00 in0.0 mm 0.00 in0.0 mm 0.61 in15.5 mm
07:09 PM 58.6°F14.8°C 31.7°F-0.2°C 36% 2.7 mph N4.3 kmh N 6.3 mph10.1 kmh 29.78 in1008.5 mb 0.00 in0.0 mm 0.00 in0.0 mm 0.61 in15.5 mm
07:10 PM 58.5°F14.7°C 31.6°F-0.2°C 36% 2.7 mph WNW4.3 kmh WNW 6.3 mph10.1 kmh 29.78 in1008.5 mb 0.00 in0.0 mm 0.00 in0.0 mm 0.61 in15.5 mm
07:11 PM 58.3°F14.6°C 31.5°F-0.3°C 36% 3.2 mph W5.1 kmh W 6.3 mph10.1 kmh 29.78 in1008.5 mb 0.00 in0.0 mm 0.00 in0.0 mm 0.61 in15.5 mm
07:12 PM 58.1°F14.5°C 31.3°F-0.4°C 36% 4.2 mph W6.8 kmh W 6.3 mph10.1 kmh 29.78 in1008.5 mb 0.00 in0.0 mm 0.00 in0.0 mm 0.61 in15.5 mm
07:13 PM 58.1°F14.5°C 31.3°F-0.4°C 36% 3.7 mph WSW6.0 kmh WSW 6.3 mph10.1 kmh 29.78 in1008.5 mb 0.00 in0.0 mm 0.00 in0.0 mm 0.61 in15.5 mm
07:14 PM 58.1°F14.5°C 31.3°F-0.4°C 36% 3.2 mph NNE5.1 kmh NNE 6.3 mph10.1 kmh 29.78 in1008.5 mb 0.00 in0.0 mm 0.00 in0.0 mm 0.61 in15.5 mm
07:15 PM 58.1°F14.5°C 31.3°F-0.4°C 36% 3.7 mph NNE6.0 kmh NNE 6.3 mph10.1 kmh 29.78 in1008.5 mb 0.00 in0.0 mm 0.00 in0.0 mm 0.61 in15.5 mm
07:16 PM 58.1°F14.5°C 31.3°F-0.4°C 36% 2.2 mph W3.5 kmh W 6.3 mph10.1 kmh 29.78 in1008.5 mb 0.00 in0.0 mm 0.00 in0.0 mm 0.61 in15.5 mm
07:17 PM 57.7°F14.3°C 30.9°F-0.6°C 36% 4.2 mph W6.8 kmh W 5.8 mph9.3 kmh 29.80 in1009.1 mb 0.00 in0.0 mm 0.00 in0.0 mm 0.61 in15.5 mm
07:18 PM 57.7°F14.3°C 31.6°F-0.2°C 37% 3.7 mph NW6.0 kmh NW 4.2 mph6.8 kmh 29.80 in1009.1 mb 0.00 in0.0 mm 0.00 in0.0 mm 0.61 in15.5 mm
07:19 PM 57.7°F14.3°C 31.6°F-0.2°C 37% 3.2 mph W5.1 kmh W 4.2 mph6.8 kmh 29.80 in1009.1 mb 0.00 in0.0 mm 0.00 in0.0 mm 0.61 in15.5 mm
07:20 PM 57.7°F14.3°C 32.3°F0.2°C 38% 4.7 mph W7.6 kmh W 4.7 mph7.6 kmh 29.80 in1009.1 mb 0.00 in0.0 mm 0.00 in0.0 mm 0.61 in15.5 mm
07:21 PM 57.7°F14.3°C 32.3°F0.2°C 38% 5.3 mph W8.5 kmh W 5.3 mph8.5 kmh 29.80 in1009.1 mb 0.00 in0.0 mm 0.00 in0.0 mm 0.61 in15.5 mm
07:22 PM 57.7°F14.3°C 32.3°F0.2°C 38% 3.2 mph W5.1 kmh W 5.3 mph8.5 kmh 29.80 in1009.1 mb 0.00 in0.0 mm 0.00 in0.0 mm 0.61 in15.5 mm
07:23 PM 57.7°F14.3°C 32.3°F0.2°C 38% 3.7 mph NW6.0 kmh NW 5.8 mph9.3 kmh 29.80 in1009.1 mb 0.00 in0.0 mm 0.00 in0.0 mm 0.61 in15.5 mm
07:24 PM 57.7°F14.3°C 32.3°F0.2°C 38% 3.7 mph W6.0 kmh W 5.8 mph9.3 kmh 29.80 in1009.1 mb 0.00 in0.0 mm 0.00 in0.0 mm 0.61 in15.5 mm
07:25 PM 57.6°F14.2°C 32.2°F0.1°C 38% 3.7 mph WNW6.0 kmh WNW 5.8 mph9.3 kmh 29.80 in1009.1 mb 0.00 in0.0 mm 0.00 in0.0 mm 0.61 in15.5 mm
07:26 PM 57.4°F14.1°C 32.0°F0.0°C 38% 2.2 mph W3.5 kmh W 5.8 mph9.3 kmh 29.80 in1009.1 mb 0.00 in0.0 mm 0.00 in0.0 mm 0.61 in15.5 mm
07:27 PM 57.2°F14.0°C 32.5°F0.3°C 39% 3.7 mph SW6.0 kmh SW 5.8 mph9.3 kmh 29.80 in1009.1 mb 0.00 in0.0 mm 0.00 in0.0 mm 0.61 in15.5 mm
07:28 PM 57.0°F13.9°C 32.3°F0.2°C 39% 2.7 mph W4.3 kmh W 5.8 mph9.3 kmh 29.80 in1009.1 mb 0.00 in0.0 mm 0.00 in0.0 mm 0.61 in15.5 mm
07:29 PM 57.0°F13.9°C 32.3°F0.2°C 39% 2.2 mph W3.5 kmh W 5.8 mph9.3 kmh 29.80 in1009.1 mb 0.00 in0.0 mm 0.00 in0.0 mm 0.61 in15.5 mm
07:30 PM 57.0°F13.9°C 32.3°F0.2°C 39% 2.2 mph SW3.5 kmh SW 5.8 mph9.3 kmh 29.80 in1009.1 mb 0.00 in0.0 mm 0.00 in0.0 mm 0.61 in15.5 mm
07:31 PM 56.8°F13.8°C 32.1°F0.1°C 39% 2.2 mph NW3.5 kmh NW 5.8 mph9.3 kmh 29.80 in1009.1 mb 0.00 in0.0 mm 0.00 in0.0 mm 0.61 in15.5 mm
07:32 PM 56.7°F13.7°C 32.0°F0.0°C 39% 2.7 mph NW4.3 kmh NW 5.8 mph9.3 kmh 29.80 in1009.1 mb 0.00 in0.0 mm 0.00 in0.0 mm 0.61 in15.5 mm
07:33 PM 56.7°F13.7°C 32.7°F0.4°C 40% 6.3 mph NW10.1 kmh NW 6.3 mph10.1 kmh 29.80 in1009.1 mb 0.00 in0.0 mm 0.00 in0.0 mm 0.61 in15.5 mm
07:34 PM 56.7°F13.7°C 32.7°F0.4°C 40% 4.7 mph NNW7.6 kmh NNW 6.3 mph10.1 kmh 29.80 in1009.1 mb 0.00 in0.0 mm 0.00 in0.0 mm 0.61 in15.5 mm
07:35 PM 56.7°F13.7°C 32.7°F0.4°C 40% 3.7 mph NNE6.0 kmh NNE 6.3 mph10.1 kmh 29.80 in1009.1 mb 0.00 in0.0 mm 0.00 in0.0 mm 0.61 in15.5 mm
07:36 PM 56.7°F13.7°C 33.3°F0.7°C 41% 5.3 mph NNW8.5 kmh NNW 6.3 mph10.1 kmh 29.80 in1009.1 mb 0.00 in0.0 mm 0.00 in0.0 mm 0.61 in15.5 mm
07:37 PM 56.7°F13.7°C 33.3°F0.7°C 41% 4.2 mph NNE6.8 kmh NNE 6.3 mph10.1 kmh 29.80 in1009.1 mb 0.00 in0.0 mm 0.00 in0.0 mm 0.61 in15.5 mm
07:38 PM 56.7°F13.7°C 33.9°F1.1°C 42% 3.7 mph NW6.0 kmh NW 7.8 mph12.6 kmh 29.80 in1009.1 mb 0.00 in0.0 mm 0.00 in0.0 mm 0.61 in15.5 mm
07:39 PM 56.5°F13.6°C 33.7°F0.9°C 42% 3.2 mph W5.1 kmh W 7.8 mph12.6 kmh 29.80 in1009.1 mb 0.00 in0.0 mm 0.00 in0.0 mm 0.61 in15.5 mm
07:40 PM 56.5°F13.6°C 33.7°F0.9°C 42% 3.7 mph N6.0 kmh N 7.8 mph12.6 kmh 29.80 in1009.1 mb 0.00 in0.0 mm 0.00 in0.0 mm 0.61 in15.5 mm
07:41 PM 56.5°F13.6°C 34.3°F1.3°C 43% 5.3 mph NE8.5 kmh NE 8.3 mph13.4 kmh 29.81 in1009.5 mb 0.00 in0.0 mm 0.00 in0.0 mm 0.61 in15.5 mm
07:42 PM 56.5°F13.6°C 34.3°F1.3°C 43% 4.7 mph W7.6 kmh W 8.3 mph13.4 kmh 29.81 in1009.5 mb 0.00 in0.0 mm 0.00 in0.0 mm 0.61 in15.5 mm
07:43 PM 56.5°F13.6°C 34.3°F1.3°C 43% 6.8 mph W10.9 kmh W 8.3 mph13.4 kmh 29.81 in1009.5 mb 0.00 in0.0 mm 0.00 in0.0 mm 0.61 in15.5 mm
07:44 PM 56.3°F13.5°C 34.1°F1.2°C 43% 5.3 mph SW8.5 kmh SW 8.3 mph13.4 kmh 29.81 in1009.5 mb 0.00 in0.0 mm 0.00 in0.0 mm 0.61 in15.5 mm
07:45 PM 56.3°F13.5°C 34.7°F1.5°C 44% 4.2 mph W6.8 kmh W 8.3 mph13.4 kmh 29.81 in1009.5 mb 0.00 in0.0 mm 0.00 in0.0 mm 0.61 in15.5 mm
07:46 PM 56.3°F13.5°C 34.7°F1.5°C 44% 4.7 mph NNW7.6 kmh NNW 8.3 mph13.4 kmh 29.81 in1009.5 mb 0.00 in0.0 mm 0.00 in0.0 mm 0.61 in15.5 mm
07:47 PM 56.3°F13.5°C 34.7°F1.5°C 44% 6.3 mph NNW10.1 kmh NNW 8.3 mph13.4 kmh 29.81 in1009.5 mb 0.00 in0.0 mm 0.00 in0.0 mm 0.61 in15.5 mm
07:48 PM 56.3°F13.5°C 34.7°F1.5°C 44% 5.8 mph NW9.3 kmh NW 8.3 mph13.4 kmh 29.81 in1009.5 mb 0.00 in0.0 mm 0.00 in0.0 mm 0.61 in15.5 mm
07:49 PM 56.3°F13.5°C 34.7°F1.5°C 44% 9.4 mph NNE15.1 kmh NNE 9.4 mph15.1 kmh 29.81 in1009.5 mb 0.00 in0.0 mm 0.00 in0.0 mm 0.61 in15.5 mm
07:50 PM 56.3°F13.5°C 34.7°F1.5°C 44% 5.3 mph NNW8.5 kmh NNW 9.4 mph15.1 kmh 29.81 in1009.5 mb 0.00 in0.0 mm 0.00 in0.0 mm 0.61 in15.5 mm
07:51 PM 56.3°F13.5°C 34.7°F1.5°C 44% 4.2 mph NNE6.8 kmh NNE 9.4 mph15.1 kmh 29.81 in1009.5 mb 0.00 in0.0 mm 0.00 in0.0 mm 0.61 in15.5 mm
07:52 PM 56.3°F13.5°C 35.2°F1.8°C 45% 4.2 mph W6.8 kmh W 9.4 mph15.1 kmh 29.81 in1009.5 mb 0.00 in0.0 mm 0.00 in0.0 mm 0.61 in15.5 mm
07:53 PM 56.1°F13.4°C 35.1°F1.7°C 45% 5.3 mph NNE8.5 kmh NNE 9.4 mph15.1 kmh 29.81 in1009.5 mb 0.00 in0.0 mm 0.00 in0.0 mm 0.61 in15.5 mm
07:54 PM 55.9°F13.3°C 35.4°F1.9°C 46% 3.7 mph WNW6.0 kmh WNW 9.4 mph15.1 kmh 29.81 in1009.5 mb 0.00 in0.0 mm 0.00 in0.0 mm 0.61 in15.5 mm
07:55 PM 55.9°F13.3°C 35.4°F1.9°C 46% 4.7 mph W7.6 kmh W 9.4 mph15.1 kmh 29.81 in1009.5 mb 0.00 in0.0 mm 0.00 in0.0 mm 0.61 in15.5 mm
07:56 PM 55.9°F13.3°C 35.4°F1.9°C 46% 4.7 mph NNW7.6 kmh NNW 9.4 mph15.1 kmh 29.81 in1009.5 mb 0.00 in0.0 mm 0.00 in0.0 mm 0.61 in15.5 mm
07:57 PM 55.8°F13.2°C 35.3°F1.8°C 46% 5.3 mph NNE8.5 kmh NNE 9.4 mph15.1 kmh 29.81 in1009.5 mb 0.00 in0.0 mm 0.00 in0.0 mm 0.61 in15.5 mm
07:58 PM 55.6°F13.1°C 35.2°F1.8°C 46% 4.2 mph NNW6.8 kmh NNW 9.4 mph15.1 kmh 29.81 in1009.5 mb 0.00 in0.0 mm 0.00 in0.0 mm 0.61 in15.5 mm
07:59 PM 55.6°F13.1°C 35.2°F1.8°C 46% 5.8 mph NNW9.3 kmh NNW 6.3 mph10.1 kmh 29.81 in1009.5 mb 0.00 in0.0 mm 0.00 in0.0 mm 0.61 in15.5 mm
08:00 PM 55.6°F13.1°C 35.2°F1.8°C 46% 7.3 mph NNW11.7 kmh NNW 7.3 mph11.7 kmh 29.81 in1009.5 mb 0.00 in0.0 mm 0.00 in0.0 mm 0.61 in15.5 mm
08:01 PM 55.6°F13.1°C 35.2°F1.8°C 46% 3.7 mph NW6.0 kmh NW 8.9 mph14.3 kmh 29.81 in1009.5 mb 0.00 in0.0 mm 0.00 in0.0 mm 0.61 in15.5 mm
08:02 PM 55.4°F13.0°C 35.0°F1.7°C 46% 6.8 mph N10.9 kmh N 8.9 mph14.3 kmh 29.81 in1009.5 mb 0.00 in0.0 mm 0.00 in0.0 mm 0.61 in15.5 mm
08:03 PM 55.4°F13.0°C 35.5°F1.9°C 47% 4.2 mph WNW6.8 kmh WNW 8.9 mph14.3 kmh 29.81 in1009.5 mb 0.00 in0.0 mm 0.00 in0.0 mm 0.61 in15.5 mm
08:04 PM 55.4°F13.0°C 35.5°F1.9°C 47% 5.8 mph NNE9.3 kmh NNE 8.9 mph14.3 kmh 29.81 in1009.5 mb 0.00 in0.0 mm 0.00 in0.0 mm 0.61 in15.5 mm
08:05 PM 55.2°F12.9°C 35.3°F1.8°C 47% 4.7 mph NNW7.6 kmh NNW 8.9 mph14.3 kmh 29.82 in1009.8 mb 0.00 in0.0 mm 0.00 in0.0 mm 0.61 in15.5 mm
08:06 PM 55.2°F12.9°C 35.3°F1.8°C 47% 6.8 mph NNW10.9 kmh NNW 8.9 mph14.3 kmh 29.82 in1009.8 mb 0.00 in0.0 mm 0.00 in0.0 mm 0.61 in15.5 mm
08:07 PM 55.0°F12.8°C 35.1°F1.7°C 47% 6.8 mph NNE10.9 kmh NNE 8.9 mph14.3 kmh 29.82 in1009.8 mb 0.00 in0.0 mm 0.00 in0.0 mm 0.61 in15.5 mm
08:08 PM 55.0°F12.8°C 35.1°F1.7°C 47% 6.8 mph NW10.9 kmh NW 8.9 mph14.3 kmh 29.82 in1009.8 mb 0.00 in0.0 mm 0.00 in0.0 mm 0.61 in15.5 mm
08:09 PM 55.0°F12.8°C 35.1°F1.7°C 47% 6.8 mph N10.9 kmh N 8.9 mph14.3 kmh 29.82 in1009.8 mb 0.00 in0.0 mm 0.00 in0.0 mm 0.61 in15.5 mm
08:10 PM 55.0°F12.8°C 35.1°F1.7°C 47% 6.3 mph E10.1 kmh E 9.9 mph15.9 kmh 29.82 in1009.8 mb 0.00 in0.0 mm 0.00 in0.0 mm 0.61 in15.5 mm
08:11 PM 55.2°F12.9°C 34.8°F1.6°C 46% 9.4 mph W15.1 kmh W 9.9 mph15.9 kmh 29.82 in1009.8 mb 0.00 in0.0 mm 0.00 in0.0 mm 0.61 in15.5 mm
08:12 PM 55.2°F12.9°C 34.8°F1.6°C 46% 6.3 mph NNE10.1 kmh NNE 9.9 mph15.9 kmh 29.82 in1009.8 mb 0.00 in0.0 mm 0.00 in0.0 mm 0.61 in15.5 mm
08:13 PM 55.2°F12.9°C 34.2°F1.2°C 45% 7.3 mph SW11.7 kmh SW 9.9 mph15.9 kmh 29.82 in1009.8 mb 0.00 in0.0 mm 0.00 in0.0 mm 0.61 in15.5 mm
08:14 PM 55.2°F12.9°C 34.2°F1.2°C 45% 7.8 mph N12.6 kmh N 9.9 mph15.9 kmh 29.82 in1009.8 mb 0.00 in0.0 mm 0.00 in0.0 mm 0.61 in15.5 mm
08:15 PM 55.2°F12.9°C 34.2°F1.2°C 45% 5.3 mph N8.5 kmh N 9.9 mph15.9 kmh 29.82 in1009.8 mb 0.00 in0.0 mm 0.00 in0.0 mm 0.61 in15.5 mm
08:16 PM 55.2°F12.9°C 34.2°F1.2°C 45% 4.7 mph W7.6 kmh W 9.9 mph15.9 kmh 29.82 in1009.8 mb 0.00 in0.0 mm 0.00 in0.0 mm 0.61 in15.5 mm
08:17 PM 55.0°F12.8°C 34.1°F1.2°C 45% 5.8 mph W9.3 kmh W 9.9 mph15.9 kmh 29.83 in1010.2 mb 0.00 in0.0 mm 0.00 in0.0 mm 0.61 in15.5 mm
08:18 PM 55.0°F12.8°C 34.1°F1.2°C 45% 6.8 mph NNW10.9 kmh NNW 9.9 mph15.9 kmh 29.83 in1010.2 mb 0.00 in0.0 mm 0.00 in0.0 mm 0.61 in15.5 mm
08:19 PM 55.0°F12.8°C 33.5°F0.8°C 44% 8.3 mph NNE13.4 kmh NNE 10.4 mph16.7 kmh 29.83 in1010.2 mb 0.00 in0.0 mm 0.00 in0.0 mm 0.61 in15.5 mm
08:20 PM 55.0°F12.8°C 33.5°F0.8°C 44% 4.7 mph NNE7.6 kmh NNE 10.4 mph16.7 kmh 29.83 in1010.2 mb 0.00 in0.0 mm 0.00 in0.0 mm 0.61 in15.5 mm
08:21 PM 55.0°F12.8°C 33.5°F0.8°C 44% 7.8 mph NW12.6 kmh NW 10.4 mph16.7 kmh 29.83 in1010.2 mb 0.00 in0.0 mm 0.00 in0.0 mm 0.61 in15.5 mm
08:22 PM 55.0°F12.8°C 33.5°F0.8°C 44% 5.8 mph WSW9.3 kmh WSW 10.4 mph16.7 kmh 29.83 in1010.2 mb 0.00 in0.0 mm 0.00 in0.0 mm 0.61 in15.5 mm
08:23 PM 55.0°F12.8°C 32.9°F0.5°C 43% 6.8 mph W10.9 kmh W 10.4 mph16.7 kmh 29.83 in1010.2 mb 0.00 in0.0 mm 0.00 in0.0 mm 0.61 in15.5 mm
08:24 PM 55.0°F12.8°C 32.9°F0.5°C 43% 5.8 mph NNE9.3 kmh NNE 10.4 mph16.7 kmh 29.83 in1010.2 mb 0.00 in0.0 mm 0.00 in0.0 mm 0.61 in15.5 mm
08:25 PM 55.2°F12.9°C 33.1°F0.6°C 43% 6.8 mph N10.9 kmh N 10.4 mph16.7 kmh 29.83 in1010.2 mb 0.00 in0.0 mm 0.00 in0.0 mm 0.61 in15.5 mm
08:26 PM 55.2°F12.9°C 33.1°F0.6°C 43% 8.9 mph N14.3 kmh N 10.4 mph16.7 kmh 29.83 in1010.2 mb 0.00 in0.0 mm 0.00 in0.0 mm 0.61 in15.5 mm
08:27 PM 55.2°F12.9°C 33.1°F0.6°C 43% 3.7 mph N6.0 kmh N 10.4 mph16.7 kmh 29.83 in1010.2 mb 0.00 in0.0 mm 0.00 in0.0 mm 0.61 in15.5 mm
08:28 PM 55.0°F12.8°C 32.9°F0.5°C 43% 4.2 mph N6.8 kmh N 10.4 mph16.7 kmh 29.83 in1010.2 mb 0.00 in0.0 mm 0.00 in0.0 mm 0.61 in15.5 mm
08:29 PM 55.0°F12.8°C 32.9°F0.5°C 43% 4.7 mph W7.6 kmh W 10.4 mph16.7 kmh 29.83 in1010.2 mb 0.00 in0.0 mm 0.00 in0.0 mm 0.61 in15.5 mm
08:30 PM 55.0°F12.8°C 32.9°F0.5°C 43% 5.8 mph WNW9.3 kmh WNW 10.4 mph16.7 kmh 29.84 in1010.5 mb 0.00 in0.0 mm 0.00 in0.0 mm 0.61 in15.5 mm
08:31 PM 54.9°F12.7°C 32.8°F0.4°C 43% 6.8 mph W10.9 kmh W 10.4 mph16.7 kmh 29.84 in1010.5 mb 0.00 in0.0 mm 0.00 in0.0 mm 0.61 in15.5 mm
08:32 PM 54.9°F12.7°C 32.8°F0.4°C 43% 7.3 mph WNW11.7 kmh WNW 10.4 mph16.7 kmh 29.84 in1010.5 mb 0.00 in0.0 mm 0.00 in0.0 mm 0.61 in15.5 mm
08:33 PM 54.9°F12.7°C 32.8°F0.4°C 43% 5.3 mph N8.5 kmh N 10.4 mph16.7 kmh 29.84 in1010.5 mb 0.00 in0.0 mm 0.00 in0.0 mm 0.61 in15.5 mm
08:34 PM 54.7°F12.6°C 32.6°F0.3°C 43% 6.3 mph W10.1 kmh W 10.4 mph16.7 kmh 29.84 in1010.5 mb 0.00 in0.0 mm 0.00 in0.0 mm 0.61 in15.5 mm
08:35 PM 54.7°F12.6°C 32.6°F0.3°C 43% 4.2 mph W6.8 kmh W 10.4 mph16.7 kmh 29.84 in1010.5 mb 0.00 in0.0 mm 0.00 in0.0 mm 0.61 in15.5 mm
08:36 PM 54.7°F12.6°C 32.6°F0.3°C 43% 7.3 mph NW11.7 kmh NW 8.9 mph14.3 kmh 29.84 in1010.5 mb 0.00 in0.0 mm 0.00 in0.0 mm 0.61 in15.5 mm
08:37 PM 54.7°F12.6°C 32.6°F0.3°C 43% 4.7 mph NW7.6 kmh NW 8.3 mph13.4 kmh 29.84 in1010.5 mb 0.00 in0.0 mm 0.00 in0.0 mm 0.61 in15.5 mm
08:38 PM 54.7°F12.6°C 32.6°F0.3°C 43% 5.3 mph NNW8.5 kmh NNW 8.3 mph13.4 kmh 29.84 in1010.5 mb 0.00 in0.0 mm 0.00 in0.0 mm 0.61 in15.5 mm
08:39 PM 54.5°F12.5°C 32.5°F0.3°C 43% 6.8 mph N10.9 kmh N 8.3 mph13.4 kmh 29.84 in1010.5 mb 0.00 in0.0 mm 0.00 in0.0 mm 0.61 in15.5 mm
08:40 PM 54.5°F12.5°C 32.5°F0.3°C 43% 3.7 mph N6.0 kmh N 8.3 mph13.4 kmh 29.84 in1010.5 mb 0.00 in0.0 mm 0.00 in0.0 mm 0.61 in15.5 mm
08:41 PM 54.5°F12.5°C 32.5°F0.3°C 43% 4.7 mph N7.6 kmh N 8.3 mph13.4 kmh 29.84 in1010.5 mb 0.00 in0.0 mm 0.00 in0.0 mm 0.61 in15.5 mm
08:42 PM 54.3°F12.4°C 32.9°F0.5°C 44% 4.7 mph WSW7.6 kmh WSW 8.3 mph13.4 kmh 29.84 in1010.5 mb 0.00 in0.0 mm 0.00 in0.0 mm 0.61 in15.5 mm
08:43 PM 54.1°F12.3°C 32.7°F0.4°C 44% 3.7 mph W6.0 kmh W 8.3 mph13.4 kmh 29.84 in1010.5 mb 0.00 in0.0 mm 0.00 in0.0 mm 0.61 in15.5 mm
08:44 PM 54.1°F12.3°C 32.7°F0.4°C 44% 4.7 mph W7.6 kmh W 8.3 mph13.4 kmh 29.84 in1010.5 mb 0.00 in0.0 mm 0.00 in0.0 mm 0.61 in15.5 mm
08:45 PM 54.0°F12.2°C 32.6°F0.3°C 44% 4.2 mph W6.8 kmh W 8.3 mph13.4 kmh 29.84 in1010.5 mb 0.00 in0.0 mm 0.00 in0.0 mm 0.61 in15.5 mm
08:46 PM 54.0°F12.2°C 32.6°F0.3°C 44% 4.2 mph W6.8 kmh W 7.8 mph12.6 kmh 29.84 in1010.5 mb 0.00 in0.0 mm 0.00 in0.0 mm 0.61 in15.5 mm
08:47 PM 54.0°F12.2°C 32.6°F0.3°C 44% 4.7 mph N7.6 kmh N 7.8 mph12.6 kmh 29.84 in1010.5 mb 0.00 in0.0 mm 0.00 in0.0 mm 0.61 in15.5 mm
08:48 PM 54.0°F12.2°C 32.6°F0.3°C 44% 4.7 mph W7.6 kmh W 7.8 mph12.6 kmh 29.84 in1010.5 mb 0.00 in0.0 mm 0.00 in0.0 mm 0.61 in15.5 mm
08:49 PM 53.8°F12.1°C 32.4°F0.2°C 44% 5.3 mph WSW8.5 kmh WSW 6.8 mph10.9 kmh 29.84 in1010.5 mb 0.00 in0.0 mm 0.00 in0.0 mm 0.61 in15.5 mm
08:50 PM 53.8°F12.1°C 32.4°F0.2°C 44% 3.7 mph W6.0 kmh W 6.3 mph10.1 kmh 29.84 in1010.5 mb 0.00 in0.0 mm 0.00 in0.0 mm 0.61 in15.5 mm
08:51 PM 53.8°F12.1°C 32.4°F0.2°C 44% 4.2 mph W6.8 kmh W 8.9 mph14.3 kmh 29.84 in1010.5 mb 0.00 in0.0 mm 0.00 in0.0 mm 0.61 in15.5 mm
08:52 PM 53.8°F12.1°C 32.4°F0.2°C 44% 7.8 mph W12.6 kmh W 8.9 mph14.3 kmh 29.84 in1010.5 mb 0.00 in0.0 mm 0.00 in0.0 mm 0.61 in15.5 mm
08:53 PM 53.8°F12.1°C 32.4°F0.2°C 44% 4.7 mph NNE7.6 kmh NNE 8.9 mph14.3 kmh 29.85 in1010.8 mb 0.00 in0.0 mm 0.00 in0.0 mm 0.61 in15.5 mm
08:54 PM 53.8°F12.1°C 32.4°F0.2°C 44% 7.8 mph NNW12.6 kmh NNW 8.9 mph14.3 kmh 29.85 in1010.8 mb 0.00 in0.0 mm 0.00 in0.0 mm 0.61 in15.5 mm
08:55 PM 53.8°F12.1°C 32.4°F0.2°C 44% 6.3 mph W10.1 kmh W 8.9 mph14.3 kmh 29.85 in1010.8 mb 0.00 in0.0 mm 0.00 in0.0 mm 0.61 in15.5 mm
08:56 PM 53.8°F12.1°C 32.4°F0.2°C 44% 8.3 mph SW13.4 kmh SW 8.9 mph14.3 kmh 29.85 in1010.8 mb 0.00 in0.0 mm 0.00 in0.0 mm 0.61 in15.5 mm
08:57 PM 53.8°F12.1°C 32.4°F0.2°C 44% 8.3 mph NNW13.4 kmh NNW 10.4 mph16.7 kmh 29.85 in1010.8 mb 0.00 in0.0 mm 0.00 in0.0 mm 0.61 in15.5 mm
08:58 PM 53.8°F12.1°C 32.4°F0.2°C 44% 6.3 mph NNW10.1 kmh NNW 10.4 mph16.7 kmh 29.85 in1010.8 mb 0.00 in0.0 mm 0.00 in0.0 mm 0.61 in15.5 mm
08:59 PM 53.8°F12.1°C 32.4°F0.2°C 44% 9.4 mph NNW15.1 kmh NNW 10.4 mph16.7 kmh 29.85 in1010.8 mb 0.00 in0.0 mm 0.00 in0.0 mm 0.61 in15.5 mm
09:00 PM 53.8°F12.1°C 32.4°F0.2°C 44% 7.3 mph W11.7 kmh W 10.4 mph16.7 kmh 29.85 in1010.8 mb 0.00 in0.0 mm 0.00 in0.0 mm 0.61 in15.5 mm
09:01 PM 53.8°F12.1°C 32.4°F0.2°C 44% 9.9 mph NNW15.9 kmh NNW 10.4 mph16.7 kmh 29.85 in1010.8 mb 0.00 in0.0 mm 0.00 in0.0 mm 0.61 in15.5 mm
09:02 PM 53.8°F12.1°C 31.8°F-0.1°C 43% 6.8 mph NNE10.9 kmh NNE 11.4 mph18.3 kmh 29.85 in1010.8 mb 0.00 in0.0 mm 0.00 in0.0 mm 0.61 in15.5 mm
09:03 PM 53.8°F12.1°C 31.8°F-0.1°C 43% 6.8 mph N10.9 kmh N 11.4 mph18.3 kmh 29.85 in1010.8 mb 0.00 in0.0 mm 0.00 in0.0 mm 0.61 in15.5 mm
09:04 PM 53.8°F12.1°C 31.8°F-0.1°C 43% 11.9 mph NNE19.2 kmh NNE 11.9 mph19.2 kmh 29.85 in1010.8 mb 0.00 in0.0 mm 0.00 in0.0 mm 0.61 in15.5 mm
09:05 PM 53.8°F12.1°C 31.8°F-0.1°C 43% 8.9 mph WNW14.3 kmh WNW 11.9 mph19.2 kmh 29.85 in1010.8 mb 0.00 in0.0 mm 0.00 in0.0 mm 0.61 in15.5 mm
09:06 PM 53.8°F12.1°C 31.8°F-0.1°C 43% 5.3 mph W8.5 kmh W 11.9 mph19.2 kmh 29.85 in1010.8 mb 0.00 in0.0 mm 0.00 in0.0 mm 0.61 in15.5 mm
09:11 PM 53.6°F12.0°C 31.7°F-0.2°C 43% 6.8 mph W10.9 kmh W 11.9 mph19.2 kmh 29.85 in1010.8 mb 0.00 in0.0 mm 0.00 in0.0 mm 0.61 in15.5 mm
09:12 PM 53.6°F12.0°C 31.7°F-0.2°C 43% 4.7 mph WNW7.6 kmh WNW 11.9 mph19.2 kmh 29.85 in1010.8 mb 0.00 in0.0 mm 0.00 in0.0 mm 0.61 in15.5 mm
09:13 PM 53.6°F12.0°C 31.7°F-0.2°C 43% 9.4 mph NNW15.1 kmh NNW 11.9 mph19.2 kmh 29.85 in1010.8 mb 0.00 in0.0 mm 0.00 in0.0 mm 0.61 in15.5 mm
09:14 PM 53.4°F11.9°C 31.5°F-0.3°C 43% 5.3 mph WNW8.5 kmh WNW 11.9 mph19.2 kmh 29.85 in1010.8 mb 0.00 in0.0 mm 0.00 in0.0 mm 0.61 in15.5 mm
09:15 PM 53.4°F11.9°C 31.5°F-0.3°C 43% 5.3 mph NNE8.5 kmh NNE 9.4 mph15.1 kmh 29.85 in1010.8 mb 0.00 in0.0 mm 0.00 in0.0 mm 0.61 in15.5 mm
09:16 PM 53.4°F11.9°C 31.5°F-0.3°C 43% 9.9 mph W15.9 kmh W 11.4 mph18.3 kmh 29.85 in1010.8 mb 0.00 in0.0 mm 0.00 in0.0 mm 0.61 in15.5 mm
09:17 PM 53.4°F11.9°C 31.5°F-0.3°C 43% 9.9 mph W15.9 kmh W 11.4 mph18.3 kmh 29.86 in1011.2 mb 0.00 in0.0 mm 0.00 in0.0 mm 0.61 in15.5 mm
09:18 PM 53.4°F11.9°C 31.5°F-0.3°C 43% 7.8 mph W12.6 kmh W 14.0 mph22.5 kmh 29.86 in1011.2 mb 0.00 in0.0 mm 0.00 in0.0 mm 0.61 in15.5 mm
09:19 PM 53.4°F11.9°C 31.5°F-0.3°C 43% 9.9 mph N15.9 kmh N 14.0 mph22.5 kmh 29.86 in1011.2 mb 0.00 in0.0 mm 0.00 in0.0 mm 0.61 in15.5 mm
09:20 PM 53.4°F11.9°C 31.5°F-0.3°C 43% 7.8 mph SW12.6 kmh SW 14.0 mph22.5 kmh 29.86 in1011.2 mb 0.00 in0.0 mm 0.00 in0.0 mm 0.61 in15.5 mm
09:21 PM 53.2°F11.8°C 31.3°F-0.4°C 43% 6.8 mph NNW10.9 kmh NNW 14.0 mph22.5 kmh 29.86 in1011.2 mb 0.00 in0.0 mm 0.00 in0.0 mm 0.61 in15.5 mm
09:22 PM 53.2°F11.8°C 31.3°F-0.4°C 43% 8.3 mph SW13.4 kmh SW 14.0 mph22.5 kmh 29.86 in1011.2 mb 0.00 in0.0 mm 0.00 in0.0 mm 0.61 in15.5 mm
09:23 PM 53.2°F11.8°C 31.3°F-0.4°C 43% 4.2 mph W6.8 kmh W 14.0 mph22.5 kmh 29.86 in1011.2 mb 0.00 in0.0 mm 0.00 in0.0 mm 0.61 in15.5 mm
09:24 PM 53.2°F11.8°C 31.3°F-0.4°C 43% 5.8 mph NNW9.3 kmh NNW 14.0 mph22.5 kmh 29.86 in1011.2 mb 0.00 in0.0 mm 0.00 in0.0 mm 0.61 in15.5 mm
09:25 PM 53.1°F11.7°C 31.2°F-0.4°C 43% 6.3 mph NNW10.1 kmh NNW 14.0 mph22.5 kmh 29.86 in1011.2 mb 0.00 in0.0 mm 0.00 in0.0 mm 0.61 in15.5 mm
09:26 PM 53.1°F11.7°C 31.2°F-0.4°C 43% 12.5 mph N20.1 kmh N 14.0 mph22.5 kmh 29.86 in1011.2 mb 0.00 in0.0 mm 0.00 in0.0 mm 0.61 in15.5 mm
09:27 PM 53.1°F11.7°C 31.2°F-0.4°C 43% 6.3 mph W10.1 kmh W 14.0 mph22.5 kmh 29.86 in1011.2 mb 0.00 in0.0 mm 0.00 in0.0 mm 0.61 in15.5 mm
09:28 PM 52.9°F11.6°C 31.0°F-0.6°C 43% 7.3 mph NW11.7 kmh NW 12.5 mph20.1 kmh 29.86 in1011.2 mb 0.00 in0.0 mm 0.00 in0.0 mm 0.61 in15.5 mm
09:29 PM 52.9°F11.6°C 31.0°F-0.6°C 43% 9.9 mph NW15.9 kmh NW 12.5 mph20.1 kmh 29.86 in1011.2 mb 0.00 in0.0 mm 0.00 in0.0 mm 0.61 in15.5 mm
09:30 PM 52.9°F11.6°C 31.0°F-0.6°C 43% 13.5 mph WNW21.7 kmh WNW 14.0 mph22.5 kmh 29.86 in1011.2 mb 0.00 in0.0 mm 0.00 in0.0 mm 0.61 in15.5 mm
09:31 PM 52.9°F11.6°C 31.0°F-0.6°C 43% 6.8 mph W10.9 kmh W 14.0 mph22.5 kmh 29.86 in1011.2 mb 0.00 in0.0 mm 0.00 in0.0 mm 0.61 in15.5 mm
09:32 PM 52.9°F11.6°C 31.0°F-0.6°C 43% 6.8 mph WNW10.9 kmh WNW 14.0 mph22.5 kmh 29.86 in1011.2 mb 0.00 in0.0 mm 0.00 in0.0 mm 0.61 in15.5 mm
09:33 PM 52.9°F11.6°C 31.0°F-0.6°C 43% 11.4 mph NNW18.3 kmh NNW 14.0 mph22.5 kmh 29.86 in1011.2 mb 0.00 in0.0 mm 0.00 in0.0 mm 0.61 in15.5 mm
09:34 PM 52.9°F11.6°C 31.0°F-0.6°C 43% 9.4 mph NW15.1 kmh NW 14.0 mph22.5 kmh 29.86 in1011.2 mb 0.00 in0.0 mm 0.00 in0.0 mm 0.61 in15.5 mm
09:35 PM 52.9°F11.6°C 31.0°F-0.6°C 43% 11.9 mph NW19.2 kmh NW 14.0 mph22.5 kmh 29.86 in1011.2 mb 0.00 in0.0 mm 0.00 in0.0 mm 0.61 in15.5 mm
09:36 PM 52.7°F11.5°C 30.8°F-0.7°C 43% 6.3 mph N10.1 kmh N 14.0 mph22.5 kmh 29.86 in1011.2 mb 0.00 in0.0 mm 0.00 in0.0 mm 0.61 in15.5 mm
09:37 PM 52.7°F11.5°C 31.4°F-0.3°C 44% 5.8 mph NNE9.3 kmh NNE 14.0 mph22.5 kmh 29.86 in1011.2 mb 0.00 in0.0 mm 0.00 in0.0 mm 0.61 in15.5 mm
09:38 PM 52.5°F11.4°C 31.2°F-0.4°C 44% 4.7 mph NNE7.6 kmh NNE 14.0 mph22.5 kmh 29.86 in1011.2 mb 0.00 in0.0 mm 0.00 in0.0 mm 0.61 in15.5 mm
09:39 PM 52.3°F11.3°C 31.0°F-0.6°C 44% 3.7 mph W6.0 kmh W 14.0 mph22.5 kmh 29.86 in1011.2 mb 0.00 in0.0 mm 0.00 in0.0 mm 0.61 in15.5 mm
09:40 PM 52.3°F11.3°C 31.6°F-0.2°C 45% 4.7 mph SW7.6 kmh SW 13.5 mph21.7 kmh 29.86 in1011.2 mb 0.00 in0.0 mm 0.00 in0.0 mm 0.61 in15.5 mm
09:41 PM 52.3°F11.3°C 31.6°F-0.2°C 45% 7.3 mph WNW11.7 kmh WNW 13.5 mph21.7 kmh 29.86 in1011.2 mb 0.00 in0.0 mm 0.00 in0.0 mm 0.61 in15.5 mm
09:42 PM 52.3°F11.3°C 31.6°F-0.2°C 45% 6.3 mph W10.1 kmh W 13.5 mph21.7 kmh 29.86 in1011.2 mb 0.00 in0.0 mm 0.00 in0.0 mm 0.61 in15.5 mm
09:43 PM 52.2°F11.2°C 31.5°F-0.3°C 45% 6.3 mph WSW10.1 kmh WSW 11.9 mph19.2 kmh 29.86 in1011.2 mb 0.00 in0.0 mm 0.00 in0.0 mm 0.61 in15.5 mm
09:44 PM 52.2°F11.2°C 31.5°F-0.3°C 45% 5.8 mph NNW9.3 kmh NNW 11.9 mph19.2 kmh 29.86 in1011.2 mb 0.00 in0.0 mm 0.00 in0.0 mm 0.61 in15.5 mm
09:45 PM 52.2°F11.2°C 31.5°F-0.3°C 45% 5.3 mph W8.5 kmh W 8.9 mph14.3 kmh 29.86 in1011.2 mb 0.00 in0.0 mm 0.00 in0.0 mm 0.61 in15.5 mm
09:46 PM 52.0°F11.1°C 31.3°F-0.4°C 45% 7.8 mph N12.6 kmh N 8.9 mph14.3 kmh 29.86 in1011.2 mb 0.00 in0.0 mm 0.00 in0.0 mm 0.61 in15.5 mm
09:47 PM 52.0°F11.1°C 31.3°F-0.4°C 45% 6.3 mph WSW10.1 kmh WSW 8.9 mph14.3 kmh 29.86 in1011.2 mb 0.00 in0.0 mm 0.00 in0.0 mm 0.61 in15.5 mm
09:48 PM 52.0°F11.1°C 31.3°F-0.4°C 45% 8.9 mph NNE14.3 kmh NNE 8.9 mph14.3 kmh 29.86 in1011.2 mb 0.00 in0.0 mm 0.00 in0.0 mm 0.61 in15.5 mm
09:49 PM 52.0°F11.1°C 31.3°F-0.4°C 45% 11.4 mph NNE18.3 kmh NNE 11.9 mph19.2 kmh 29.86 in1011.2 mb 0.00 in0.0 mm 0.00 in0.0 mm 0.61 in15.5 mm
09:50 PM 52.0°F11.1°C 31.3°F-0.4°C 45% 5.3 mph N8.5 kmh N 11.9 mph19.2 kmh 29.86 in1011.2 mb 0.00 in0.0 mm 0.00 in0.0 mm 0.61 in15.5 mm
09:51 PM 52.0°F11.1°C 31.3°F-0.4°C 45% 5.8 mph NNE9.3 kmh NNE 11.9 mph19.2 kmh 29.86 in1011.2 mb 0.00 in0.0 mm 0.00 in0.0 mm 0.61 in15.5 mm
09:52 PM 52.0°F11.1°C 31.3°F-0.4°C 45% 4.2 mph N6.8 kmh N 11.9 mph19.2 kmh 29.86 in1011.2 mb 0.00 in0.0 mm 0.00 in0.0 mm 0.61 in15.5 mm
09:53 PM 52.0°F11.1°C 31.3°F-0.4°C 45% 9.4 mph WSW15.1 kmh WSW 11.9 mph19.2 kmh 29.87 in1011.5 mb 0.00 in0.0 mm 0.00 in0.0 mm 0.61 in15.5 mm
09:54 PM 52.0°F11.1°C 30.8°F-0.7°C 44% 4.7 mph W7.6 kmh W 11.9 mph19.2 kmh 29.87 in1011.5 mb 0.00 in0.0 mm 0.00 in0.0 mm 0.61 in15.5 mm
09:55 PM 52.0°F11.1°C 30.8°F-0.7°C 44% 8.3 mph SW13.4 kmh SW 11.9 mph19.2 kmh 29.87 in1011.5 mb 0.00 in0.0 mm 0.00 in0.0 mm 0.61 in15.5 mm
09:56 PM 52.0°F11.1°C 30.8°F-0.7°C 44% 4.7 mph NNW7.6 kmh NNW 11.9 mph19.2 kmh 29.87 in1011.5 mb 0.00 in0.0 mm 0.00 in0.0 mm 0.61 in15.5 mm
09:57 PM 51.8°F11.0°C 31.1°F-0.5°C 45% 4.7 mph N7.6 kmh N 11.9 mph19.2 kmh 29.87 in1011.5 mb 0.00 in0.0 mm 0.00 in0.0 mm 0.61 in15.5 mm
09:58 PM 51.8°F11.0°C 31.1°F-0.5°C 45% 8.3 mph NNE13.4 kmh NNE 11.9 mph19.2 kmh 29.87 in1011.5 mb 0.00 in0.0 mm 0.00 in0.0 mm 0.61 in15.5 mm
09:59 PM 51.8°F11.0°C 31.1°F-0.5°C 45% 4.7 mph WSW7.6 kmh WSW 11.4 mph18.3 kmh 29.87 in1011.5 mb 0.00 in0.0 mm 0.00 in0.0 mm 0.61 in15.5 mm
10:00 PM 51.6°F10.9°C 31.0°F-0.6°C 45% 4.7 mph W7.6 kmh W 9.4 mph15.1 kmh 29.87 in1011.5 mb 0.00 in0.0 mm 0.00 in0.0 mm 0.61 in15.5 mm
10:01 PM 51.4°F10.8°C 31.3°F-0.4°C 46% 3.2 mph W5.1 kmh W 9.4 mph15.1 kmh 29.87 in1011.5 mb 0.00 in0.0 mm 0.00 in0.0 mm 0.61 in15.5 mm
10:02 PM 51.4°F10.8°C 31.3°F-0.4°C 46% 4.2 mph W6.8 kmh W 9.4 mph15.1 kmh 29.87 in1011.5 mb 0.00 in0.0 mm 0.00 in0.0 mm 0.61 in15.5 mm
10:03 PM 51.3°F10.7°C 31.2°F-0.4°C 46% 3.7 mph WNW6.0 kmh WNW 9.4 mph15.1 kmh 29.87 in1011.5 mb 0.00 in0.0 mm 0.00 in0.0 mm 0.61 in15.5 mm
10:04 PM 51.3°F10.7°C 31.2°F-0.4°C 46% 7.3 mph NNW11.7 kmh NNW 9.4 mph15.1 kmh 29.87 in1011.5 mb 0.00 in0.0 mm 0.00 in0.0 mm 0.61 in15.5 mm
10:05 PM 51.3°F10.7°C 31.2°F-0.4°C 46% 4.2 mph WNW6.8 kmh WNW 9.4 mph15.1 kmh 29.88 in1011.9 mb 0.00 in0.0 mm 0.00 in0.0 mm 0.61 in15.5 mm
10:06 PM 51.3°F10.7°C 31.2°F-0.4°C 46% 5.3 mph WNW8.5 kmh WNW 9.4 mph15.1 kmh 29.88 in1011.9 mb 0.00 in0.0 mm 0.00 in0.0 mm 0.61 in15.5 mm
10:07 PM 51.3°F10.7°C 31.2°F-0.4°C 46% 2.2 mph W3.5 kmh W 9.4 mph15.1 kmh 29.88 in1011.9 mb 0.00 in0.0 mm 0.00 in0.0 mm 0.61 in15.5 mm
10:08 PM 51.1°F10.6°C 31.0°F-0.6°C 46% 4.7 mph SSW7.6 kmh SSW 9.4 mph15.1 kmh 29.88 in1011.9 mb 0.00 in0.0 mm 0.00 in0.0 mm 0.61 in15.5 mm
10:09 PM 51.1°F10.6°C 31.0°F-0.6°C 46% 6.8 mph NW10.9 kmh NW 7.3 mph11.7 kmh 29.88 in1011.9 mb 0.00 in0.0 mm 0.00 in0.0 mm 0.61 in15.5 mm
10:10 PM 51.1°F10.6°C 31.0°F-0.6°C 46% 3.7 mph WNW6.0 kmh WNW 7.3 mph11.7 kmh 29.88 in1011.9 mb 0.00 in0.0 mm 0.00 in0.0 mm 0.61 in15.5 mm
10:11 PM 51.1°F10.6°C 31.0°F-0.6°C 46% 2.2 mph WSW3.5 kmh WSW 7.3 mph11.7 kmh 29.88 in1011.9 mb 0.00 in0.0 mm 0.00 in0.0 mm 0.61 in15.5 mm
10:12 PM 50.9°F10.5°C 30.9°F-0.6°C 46% 2.7 mph NNW4.3 kmh NNW 7.3 mph11.7 kmh 29.88 in1011.9 mb 0.00 in0.0 mm 0.00 in0.0 mm 0.61 in15.5 mm
10:13 PM 50.9°F10.5°C 30.9°F-0.6°C 46% 3.2 mph W5.1 kmh W 7.3 mph11.7 kmh 29.88 in1011.9 mb 0.00 in0.0 mm 0.00 in0.0 mm 0.61 in15.5 mm
10:14 PM 50.9°F10.5°C 30.9°F-0.6°C 46% 3.7 mph WNW6.0 kmh WNW 7.3 mph11.7 kmh 29.88 in1011.9 mb 0.00 in0.0 mm 0.00 in0.0 mm 0.61 in15.5 mm
10:15 PM 50.7°F10.4°C 31.2°F-0.4°C 47% 2.7 mph WNW4.3 kmh WNW 6.8 mph10.9 kmh 29.88 in1011.9 mb 0.00 in0.0 mm 0.00 in0.0 mm 0.61 in15.5 mm
10:16 PM 50.7°F10.4°C 31.2°F-0.4°C 47% 3.2 mph WNW5.1 kmh WNW 6.8 mph10.9 kmh 29.88 in1011.9 mb 0.00 in0.0 mm 0.00 in0.0 mm 0.61 in15.5 mm
10:17 PM 50.5°F10.3°C 31.0°F-0.6°C 47% 3.2 mph W5.1 kmh W 6.8 mph10.9 kmh 29.89 in1012.2 mb 0.00 in0.0 mm 0.00 in0.0 mm 0.61 in15.5 mm
10:18 PM 50.5°F10.3°C 31.0°F-0.6°C 47% 2.7 mph W4.3 kmh W 6.8 mph10.9 kmh 29.89 in1012.2 mb 0.00 in0.0 mm 0.00 in0.0 mm 0.61 in15.5 mm
10:19 PM 50.5°F10.3°C 31.0°F-0.6°C 47% 4.2 mph WNW6.8 kmh WNW 6.8 mph10.9 kmh 29.89 in1012.2 mb 0.00 in0.0 mm 0.00 in0.0 mm 0.61 in15.5 mm
10:20 PM 50.5°F10.3°C 31.0°F-0.6°C 47% 2.2 mph W3.5 kmh W 4.2 mph6.8 kmh 29.89 in1012.2 mb 0.00 in0.0 mm 0.00 in0.0 mm 0.61 in15.5 mm
10:21 PM 50.4°F10.2°C 30.9°F-0.6°C 47% 2.7 mph W4.3 kmh W 4.2 mph6.8 kmh 29.89 in1012.2 mb 0.00 in0.0 mm 0.00 in0.0 mm 0.61 in15.5 mm
10:22 PM 50.4°F10.2°C 30.9°F-0.6°C 47% 3.7 mph W6.0 kmh W 4.7 mph7.6 kmh 29.89 in1012.2 mb 0.00 in0.0 mm 0.00 in0.0 mm 0.61 in15.5 mm
10:23 PM 50.2°F10.1°C 30.8°F-0.7°C 47% 3.2 mph WNW5.1 kmh WNW 4.7 mph7.6 kmh 29.89 in1012.2 mb 0.00 in0.0 mm 0.00 in0.0 mm 0.61 in15.5 mm
10:24 PM 50.2°F10.1°C 31.3°F-0.4°C 48% 3.2 mph WNW5.1 kmh WNW 4.7 mph7.6 kmh 29.89 in1012.2 mb 0.00 in0.0 mm 0.00 in0.0 mm 0.61 in15.5 mm
10:25 PM 50.0°F10.0°C 31.1°F-0.5°C 48% 3.2 mph WNW5.1 kmh WNW 4.7 mph7.6 kmh 29.89 in1012.2 mb 0.00 in0.0 mm 0.00 in0.0 mm 0.61 in15.5 mm
10:26 PM 50.0°F10.0°C 31.1°F-0.5°C 48% 4.2 mph NNW6.8 kmh NNW 4.7 mph7.6 kmh 29.89 in1012.2 mb 0.00 in0.0 mm 0.00 in0.0 mm 0.61 in15.5 mm
10:27 PM 50.0°F10.0°C 31.1°F-0.5°C 48% 4.2 mph W6.8 kmh W 4.7 mph7.6 kmh 29.89 in1012.2 mb 0.00 in0.0 mm 0.00 in0.0 mm 0.61 in15.5 mm
10:28 PM 50.0°F10.0°C 31.1°F-0.5°C 48% 4.2 mph SSW6.8 kmh SSW 4.7 mph7.6 kmh 29.89 in1012.2 mb 0.00 in0.0 mm 0.00 in0.0 mm 0.61 in15.5 mm
10:29 PM 50.0°F10.0°C 31.1°F-0.5°C 48% 4.7 mph W7.6 kmh W 4.7 mph7.6 kmh 29.89 in1012.2 mb 0.00 in0.0 mm 0.00 in0.0 mm 0.61 in15.5 mm
10:30 PM 50.0°F10.0°C 31.1°F-0.5°C 48% 5.3 mph W8.5 kmh W 5.3 mph8.5 kmh 29.89 in1012.2 mb 0.00 in0.0 mm 0.00 in0.0 mm 0.61 in15.5 mm
10:31 PM 50.0°F10.0°C 31.1°F-0.5°C 48% 3.7 mph W6.0 kmh W 5.3 mph8.5 kmh 29.89 in1012.2 mb 0.00 in0.0 mm 0.00 in0.0 mm 0.61 in15.5 mm
10:32 PM 50.0°F10.0°C 31.1°F-0.5°C 48% 3.7 mph N6.0 kmh N 5.3 mph8.5 kmh 29.89 in1012.2 mb 0.00 in0.0 mm 0.00 in0.0 mm 0.61 in15.5 mm
10:33 PM 49.8°F9.9°C 30.9°F-0.6°C 48% 3.2 mph W5.1 kmh W 5.3 mph8.5 kmh 29.89 in1012.2 mb 0.00 in0.0 mm 0.00 in0.0 mm 0.61 in15.5 mm
10:34 PM 49.8°F9.9°C 30.9°F-0.6°C 48% 2.7 mph W4.3 kmh W 5.3 mph8.5 kmh 29.89 in1012.2 mb 0.00 in0.0 mm 0.00 in0.0 mm 0.61 in15.5 mm
10:35 PM 49.8°F9.9°C 30.9°F-0.6°C 48% 2.7 mph W4.3 kmh W 5.3 mph8.5 kmh 29.89 in1012.2 mb 0.00 in0.0 mm 0.00 in0.0 mm 0.61 in15.5 mm
10:36 PM 49.6°F9.8°C 30.7°F-0.7°C 48% 4.7 mph W7.6 kmh W 5.3 mph8.5 kmh 29.89 in1012.2 mb 0.00 in0.0 mm 0.00 in0.0 mm 0.61 in15.5 mm
10:37 PM 49.6°F9.8°C 30.7°F-0.7°C 48% 3.2 mph WNW5.1 kmh WNW 5.3 mph8.5 kmh 29.89 in1012.2 mb 0.00 in0.0 mm 0.00 in0.0 mm 0.61 in15.5 mm
10:38 PM 49.6°F9.8°C 30.7°F-0.7°C 48% 3.2 mph W5.1 kmh W 5.3 mph8.5 kmh 29.89 in1012.2 mb 0.00 in0.0 mm 0.00 in0.0 mm 0.61 in15.5 mm
10:39 PM 49.6°F9.8°C 30.7°F-0.7°C 48% 3.7 mph W6.0 kmh W 5.3 mph8.5 kmh 29.89 in1012.2 mb 0.00 in0.0 mm 0.00 in0.0 mm 0.61 in15.5 mm
10:40 PM 49.5°F9.7°C 30.6°F-0.8°C 48% 4.7 mph W7.6 kmh W 4.7 mph7.6 kmh 29.89 in1012.2 mb 0.00 in0.0 mm 0.00 in0.0 mm 0.61 in15.5 mm
10:41 PM 49.5°F9.7°C 30.6°F-0.8°C 48% 4.2 mph WSW6.8 kmh WSW 4.7 mph7.6 kmh 29.89 in1012.2 mb 0.00 in0.0 mm 0.00 in0.0 mm 0.61 in15.5 mm
10:42 PM 49.5°F9.7°C 30.6°F-0.8°C 48% 4.2 mph NW6.8 kmh NW 5.8 mph9.3 kmh 29.89 in1012.2 mb 0.00 in0.0 mm 0.00 in0.0 mm 0.61 in15.5 mm
10:43 PM 49.3°F9.6°C 31.0°F-0.6°C 49% 2.7 mph W4.3 kmh W 5.8 mph9.3 kmh 29.89 in1012.2 mb 0.00 in0.0 mm 0.00 in0.0 mm 0.61 in15.5 mm
10:44 PM 49.3°F9.6°C 31.0°F-0.6°C 49% 3.7 mph SW6.0 kmh SW 5.8 mph9.3 kmh 29.89 in1012.2 mb 0.00 in0.0 mm 0.00 in0.0 mm 0.61 in15.5 mm
10:45 PM 49.3°F9.6°C 31.0°F-0.6°C 49% 2.7 mph NW4.3 kmh NW 5.8 mph9.3 kmh 29.89 in1012.2 mb 0.00 in0.0 mm 0.00 in0.0 mm 0.61 in15.5 mm
10:46 PM 49.3°F9.6°C 31.0°F-0.6°C 49% 3.7 mph WNW6.0 kmh WNW 5.8 mph9.3 kmh 29.89 in1012.2 mb 0.00 in0.0 mm 0.00 in0.0 mm 0.61 in15.5 mm
10:47 PM 49.3°F9.6°C 31.0°F-0.6°C 49% 2.2 mph W3.5 kmh W 5.8 mph9.3 kmh 29.89 in1012.2 mb 0.00 in0.0 mm 0.00 in0.0 mm 0.61 in15.5 mm
10:48 PM 49.3°F9.6°C 31.0°F-0.6°C 49% 2.7 mph W4.3 kmh W 5.8 mph9.3 kmh 29.89 in1012.2 mb 0.00 in0.0 mm 0.00 in0.0 mm 0.61 in15.5 mm
10:49 PM 49.1°F9.5°C 30.8°F-0.7°C 49% 2.2 mph W3.5 kmh W 5.8 mph9.3 kmh 29.89 in1012.2 mb 0.00 in0.0 mm 0.00 in0.0 mm 0.61 in15.5 mm
10:50 PM 49.1°F9.5°C 30.8°F-0.7°C 49% 2.7 mph W4.3 kmh W 5.8 mph9.3 kmh 29.89 in1012.2 mb 0.00 in0.0 mm 0.00 in0.0 mm 0.61 in15.5 mm
10:51 PM 49.1°F9.5°C 30.8°F-0.7°C 49% 4.2 mph W6.8 kmh W 5.8 mph9.3 kmh 29.89 in1012.2 mb 0.00 in0.0 mm 0.00 in0.0 mm 0.61 in15.5 mm
10:52 PM 48.9°F9.4°C 31.6°F-0.2°C 51% 2.7 mph SSW4.3 kmh SSW 4.2 mph6.8 kmh 29.89 in1012.2 mb 0.00 in0.0 mm 0.00 in0.0 mm 0.61 in15.5 mm
10:53 PM 48.9°F9.4°C 31.1°F-0.5°C 50% 4.2 mph NW6.8 kmh NW 4.2 mph6.8 kmh 29.90 in1012.5 mb 0.00 in0.0 mm 0.00 in0.0 mm 0.61 in15.5 mm
10:54 PM 48.9°F9.4°C 30.6°F-0.8°C 49% 4.2 mph NW6.8 kmh NW 4.2 mph6.8 kmh 29.90 in1012.5 mb 0.00 in0.0 mm 0.00 in0.0 mm 0.61 in15.5 mm
10:55 PM 48.9°F9.4°C 30.6°F-0.8°C 49% 4.2 mph NW6.8 kmh NW 4.2 mph6.8 kmh 29.90 in1012.5 mb 0.00 in0.0 mm 0.00 in0.0 mm 0.61 in15.5 mm
10:56 PM 48.9°F9.4°C 30.6°F-0.8°C 49% 4.2 mph SW6.8 kmh SW 4.2 mph6.8 kmh 29.90 in1012.5 mb 0.00 in0.0 mm 0.00 in0.0 mm 0.61 in15.5 mm
10:57 PM 48.9°F9.4°C 30.6°F-0.8°C 49% 2.7 mph W4.3 kmh W 4.2 mph6.8 kmh 29.90 in1012.5 mb 0.00 in0.0 mm 0.00 in0.0 mm 0.61 in15.5 mm
10:58 PM 48.9°F9.4°C 31.1°F-0.5°C 50% 3.2 mph W5.1 kmh W 4.7 mph7.6 kmh 29.90 in1012.5 mb 0.00 in0.0 mm 0.00 in0.0 mm 0.61 in15.5 mm
10:59 PM 48.9°F9.4°C 31.1°F-0.5°C 50% 3.7 mph NW6.0 kmh NW 4.7 mph7.6 kmh 29.90 in1012.5 mb 0.00 in0.0 mm 0.00 in0.0 mm 0.61 in15.5 mm
11:00 PM 48.7°F9.3°C 30.9°F-0.6°C 50% 1.7 mph W2.7 kmh W 4.7 mph7.6 kmh 29.90 in1012.5 mb 0.00 in0.0 mm 0.00 in0.0 mm 0.61 in15.5 mm
11:01 PM 48.7°F9.3°C 30.9°F-0.6°C 50% 2.7 mph WNW4.3 kmh WNW 4.7 mph7.6 kmh 29.90 in1012.5 mb 0.00 in0.0 mm 0.00 in0.0 mm 0.61 in15.5 mm
11:02 PM 48.7°F9.3°C 30.9°F-0.6°C 50% 4.2 mph NW6.8 kmh NW 4.7 mph7.6 kmh 29.90 in1012.5 mb 0.00 in0.0 mm 0.00 in0.0 mm 0.61 in15.5 mm
11:03 PM 48.7°F9.3°C 30.9°F-0.6°C 50% 1.7 mph W2.7 kmh W 4.7 mph7.6 kmh 29.90 in1012.5 mb 0.00 in0.0 mm 0.00 in0.0 mm 0.61 in15.5 mm
11:04 PM 48.7°F9.3°C 30.9°F-0.6°C 50% 2.7 mph NW4.3 kmh NW 4.7 mph7.6 kmh 29.90 in1012.5 mb 0.00 in0.0 mm 0.00 in0.0 mm 0.61 in15.5 mm
11:05 PM 48.6°F9.2°C 30.8°F-0.7°C 50% 2.2 mph W3.5 kmh W 4.7 mph7.6 kmh 29.90 in1012.5 mb 0.00 in0.0 mm 0.00 in0.0 mm 0.61 in15.5 mm
11:06 PM 48.6°F9.2°C 30.8°F-0.7°C 50% 4.2 mph W6.8 kmh W 4.7 mph7.6 kmh 29.90 in1012.5 mb 0.00 in0.0 mm 0.00 in0.0 mm 0.61 in15.5 mm
11:07 PM 48.4°F9.1°C 30.6°F-0.8°C 50% 3.7 mph W6.0 kmh W 4.7 mph7.6 kmh 29.90 in1012.5 mb 0.00 in0.0 mm 0.00 in0.0 mm 0.61 in15.5 mm
11:08 PM 48.4°F9.1°C 30.6°F-0.8°C 50% 3.2 mph W5.1 kmh W 4.7 mph7.6 kmh 29.90 in1012.5 mb 0.00 in0.0 mm 0.00 in0.0 mm 0.61 in15.5 mm
11:09 PM 48.4°F9.1°C 30.6°F-0.8°C 50% 2.2 mph W3.5 kmh W 4.7 mph7.6 kmh 29.90 in1012.5 mb 0.00 in0.0 mm 0.00 in0.0 mm 0.61 in15.5 mm
11:10 PM 48.4°F9.1°C 30.6°F-0.8°C 50% 1.7 mph W2.7 kmh W 4.7 mph7.6 kmh 29.90 in1012.5 mb 0.00 in0.0 mm 0.00 in0.0 mm 0.61 in15.5 mm
11:11 PM 48.2°F9.0°C 30.4°F-0.9°C 50% 2.2 mph W3.5 kmh W 4.7 mph7.6 kmh 29.90 in1012.5 mb 0.00 in0.0 mm 0.00 in0.0 mm 0.61 in15.5 mm
11:12 PM 48.2°F9.0°C 30.4°F-0.9°C 50% 2.2 mph W3.5 kmh W 4.7 mph7.6 kmh 29.90 in1012.5 mb 0.00 in0.0 mm 0.00 in0.0 mm 0.61 in15.5 mm
11:13 PM 48.2°F9.0°C 30.4°F-0.9°C 50% 2.7 mph W4.3 kmh W 4.7 mph7.6 kmh 29.90 in1012.5 mb 0.00 in0.0 mm 0.00 in0.0 mm 0.61 in15.5 mm
11:14 PM 48.2°F9.0°C 30.4°F-0.9°C 50% 2.7 mph WSW4.3 kmh WSW 4.7 mph7.6 kmh 29.90 in1012.5 mb 0.00 in0.0 mm 0.00 in0.0 mm 0.61 in15.5 mm
11:15 PM 48.2°F9.0°C 30.4°F-0.9°C 50% 3.7 mph NW6.0 kmh NW 4.7 mph7.6 kmh 29.90 in1012.5 mb 0.00 in0.0 mm 0.00 in0.0 mm 0.61 in15.5 mm
11:16 PM 48.0°F8.9°C 30.3°F-0.9°C 50% 3.2 mph SW5.1 kmh SW 4.7 mph7.6 kmh 29.90 in1012.5 mb 0.00 in0.0 mm 0.00 in0.0 mm 0.61 in15.5 mm
11:17 PM 48.0°F8.9°C 30.7°F-0.7°C 51% 3.2 mph WNW5.1 kmh WNW 3.7 mph6.0 kmh 29.91 in1012.9 mb 0.00 in0.0 mm 0.00 in0.0 mm 0.61 in15.5 mm
11:18 PM 48.0°F8.9°C 30.7°F-0.7°C 51% 3.2 mph W5.1 kmh W 3.7 mph6.0 kmh 29.91 in1012.9 mb 0.00 in0.0 mm 0.00 in0.0 mm 0.61 in15.5 mm
11:19 PM 48.0°F8.9°C 30.7°F-0.7°C 51% 2.7 mph WNW4.3 kmh WNW 3.7 mph6.0 kmh 29.91 in1012.9 mb 0.00 in0.0 mm 0.00 in0.0 mm 0.61 in15.5 mm
11:20 PM 47.8°F8.8°C 30.6°F-0.8°C 51% 1.7 mph SW2.7 kmh SW 3.7 mph6.0 kmh 29.91 in1012.9 mb 0.00 in0.0 mm 0.00 in0.0 mm 0.61 in15.5 mm
11:21 PM 47.8°F8.8°C 30.6°F-0.8°C 51% 1.1 mph SW1.8 kmh SW 3.7 mph6.0 kmh 29.91 in1012.9 mb 0.00 in0.0 mm 0.00 in0.0 mm 0.61 in15.5 mm
11:22 PM 47.5°F8.6°C 30.8°F-0.7°C 52% 1.7 mph SSW2.7 kmh SSW 3.7 mph6.0 kmh 29.91 in1012.9 mb 0.00 in0.0 mm 0.00 in0.0 mm 0.61 in15.5 mm
11:23 PM 47.3°F8.5°C 30.6°F-0.8°C 52% 1.1 mph WSW1.8 kmh WSW 3.7 mph6.0 kmh 29.91 in1012.9 mb 0.00 in0.0 mm 0.00 in0.0 mm 0.61 in15.5 mm
11:24 PM 47.3°F8.5°C 30.6°F-0.8°C 52% 1.7 mph SW2.7 kmh SW 3.7 mph6.0 kmh 29.91 in1012.9 mb 0.00 in0.0 mm 0.00 in0.0 mm 0.61 in15.5 mm
11:25 PM 47.3°F8.5°C 30.6°F-0.8°C 52% 2.2 mph W3.5 kmh W 3.7 mph6.0 kmh 29.91 in1012.9 mb 0.00 in0.0 mm 0.00 in0.0 mm 0.61 in15.5 mm
11:26 PM 47.1°F8.4°C 30.4°F-0.9°C 52% 1.1 mph SSW1.8 kmh SSW 3.2 mph5.1 kmh 29.91 in1012.9 mb 0.00 in0.0 mm 0.00 in0.0 mm 0.61 in15.5 mm
11:27 PM 46.9°F8.3°C 30.7°F-0.7°C 53% 1.1 mph SSW1.8 kmh SSW 3.2 mph5.1 kmh 29.91 in1012.9 mb 0.00 in0.0 mm 0.00 in0.0 mm 0.61 in15.5 mm
11:28 PM 46.8°F8.2°C 30.6°F-0.8°C 53% 1.7 mph SW2.7 kmh SW 2.7 mph4.3 kmh 29.91 in1012.9 mb 0.00 in0.0 mm 0.00 in0.0 mm 0.61 in15.5 mm
11:29 PM 46.8°F8.2°C 30.6°F-0.8°C 53% 2.7 mph SSW4.3 kmh SSW 2.7 mph4.3 kmh 29.91 in1012.9 mb 0.00 in0.0 mm 0.00 in0.0 mm 0.61 in15.5 mm
11:30 PM 46.8°F8.2°C 30.1°F-1.1°C 52% 2.7 mph W4.3 kmh W 3.7 mph6.0 kmh 29.91 in1012.9 mb 0.00 in0.0 mm 0.00 in0.0 mm 0.61 in15.5 mm
11:31 PM 46.8°F8.2°C 30.1°F-1.1°C 52% 1.7 mph W2.7 kmh W 3.7 mph6.0 kmh 29.91 in1012.9 mb 0.00 in0.0 mm 0.00 in0.0 mm 0.61 in15.5 mm
11:32 PM 46.8°F8.2°C 30.1°F-1.1°C 52% 2.2 mph W3.5 kmh W 3.7 mph6.0 kmh 29.91 in1012.9 mb 0.00 in0.0 mm 0.00 in0.0 mm 0.61 in15.5 mm
11:33 PM 46.8°F8.2°C 30.1°F-1.1°C 52% 2.2 mph W3.5 kmh W 3.7 mph6.0 kmh 29.91 in1012.9 mb 0.00 in0.0 mm 0.00 in0.0 mm 0.61 in15.5 mm
11:34 PM 46.6°F8.1°C 29.9°F-1.2°C 52% 1.1 mph WSW1.8 kmh WSW 3.7 mph6.0 kmh 29.91 in1012.9 mb 0.00 in0.0 mm 0.00 in0.0 mm 0.61 in15.5 mm
11:35 PM 46.6°F8.1°C 29.9°F-1.2°C 52% 1.7 mph W2.7 kmh W 3.7 mph6.0 kmh 29.91 in1012.9 mb 0.00 in0.0 mm 0.00 in0.0 mm 0.61 in15.5 mm
11:36 PM 46.6°F8.1°C 29.9°F-1.2°C 52% 1.1 mph WSW1.8 kmh WSW 3.7 mph6.0 kmh 29.91 in1012.9 mb 0.00 in0.0 mm 0.00 in0.0 mm 0.61 in15.5 mm
11:37 PM 46.4°F8.0°C 30.2°F-1.0°C 53% 2.2 mph W3.5 kmh W 3.7 mph6.0 kmh 29.91 in1012.9 mb 0.00 in0.0 mm 0.00 in0.0 mm 0.61 in15.5 mm
11:38 PM 46.4°F8.0°C 30.7°F-0.7°C 54% 1.1 mph W1.8 kmh W 3.7 mph6.0 kmh 29.91 in1012.9 mb 0.00 in0.0 mm 0.00 in0.0 mm 0.61 in15.5 mm
11:39 PM 46.0°F7.8°C 30.3°F-0.9°C 54% 1.1 mph W1.8 kmh W 3.7 mph6.0 kmh 29.91 in1012.9 mb 0.00 in0.0 mm 0.00 in0.0 mm 0.61 in15.5 mm
11:40 PM 46.0°F7.8°C 30.3°F-0.9°C 54% 2.2 mph WSW3.5 kmh WSW 2.7 mph4.3 kmh 29.91 in1012.9 mb 0.00 in0.0 mm 0.00 in0.0 mm 0.61 in15.5 mm
11:41 PM 45.9°F7.7°C 30.2°F-1.0°C 54% 1.7 mph SW2.7 kmh SW 2.2 mph3.5 kmh 29.91 in1012.9 mb 0.00 in0.0 mm 0.00 in0.0 mm 0.61 in15.5 mm
11:42 PM 45.9°F7.7°C 30.2°F-1.0°C 54% Calm Calm 2.2 mph3.5 kmh 29.91 in1012.9 mb 0.00 in0.0 mm 0.00 in0.0 mm 0.61 in15.5 mm
11:43 PM 45.7°F7.6°C 30.0°F-1.1°C 54% 1.7 mph SSW2.7 kmh SSW 2.2 mph3.5 kmh 29.91 in1012.9 mb 0.00 in0.0 mm 0.00 in0.0 mm 0.61 in15.5 mm
11:44 PM 45.7°F7.6°C 30.0°F-1.1°C 54% 1.1 mph WSW1.8 kmh WSW 2.2 mph3.5 kmh 29.91 in1012.9 mb 0.00 in0.0 mm 0.00 in0.0 mm 0.61 in15.5 mm
11:45 PM 45.5°F7.5°C 29.8°F-1.2°C 54% 1.1 mph SW1.8 kmh SW 2.2 mph3.5 kmh 29.91 in1012.9 mb 0.00 in0.0 mm 0.00 in0.0 mm 0.61 in15.5 mm
11:46 PM 45.5°F7.5°C 30.3°F-0.9°C 55% 1.1 mph SW1.8 kmh SW 2.2 mph3.5 kmh 29.91 in1012.9 mb 0.00 in0.0 mm 0.00 in0.0 mm 0.61 in15.5 mm
11:47 PM 45.3°F7.4°C 30.1°F-1.1°C 55% 1.1 mph SW1.8 kmh SW 2.2 mph3.5 kmh 29.91 in1012.9 mb 0.00 in0.0 mm 0.00 in0.0 mm 0.61 in15.5 mm
11:48 PM 45.3°F7.4°C 30.1°F-1.1°C 55% 1.1 mph W1.8 kmh W 2.2 mph3.5 kmh 29.91 in1012.9 mb 0.00 in0.0 mm 0.00 in0.0 mm 0.61 in15.5 mm
11:49 PM 45.1°F7.3°C 29.9°F-1.2°C 55% 2.2 mph W3.5 kmh W 2.2 mph3.5 kmh 29.91 in1012.9 mb 0.00 in0.0 mm 0.00 in0.0 mm 0.61 in15.5 mm
11:50 PM 45.1°F7.3°C 29.9°F-1.2°C 55% 1.1 mph W1.8 kmh W 2.7 mph4.3 kmh 29.91 in1012.9 mb 0.00 in0.0 mm 0.00 in0.0 mm 0.61 in15.5 mm
11:51 PM 45.1°F7.3°C 29.9°F-1.2°C 55% 1.7 mph W2.7 kmh W 2.7 mph4.3 kmh 29.91 in1012.9 mb 0.00 in0.0 mm 0.00 in0.0 mm 0.61 in15.5 mm
11:52 PM 45.1°F7.3°C 29.9°F-1.2°C 55% 1.7 mph SSW2.7 kmh SSW 2.7 mph4.3 kmh 29.91 in1012.9 mb 0.00 in0.0 mm 0.00 in0.0 mm 0.61 in15.5 mm
11:53 PM 45.0°F7.2°C 29.8°F-1.2°C 55% 2.7 mph WSW4.3 kmh WSW 2.7 mph4.3 kmh 29.91 in1012.9 mb 0.00 in0.0 mm 0.00 in0.0 mm 0.61 in15.5 mm
11:54 PM 45.0°F7.2°C 29.8°F-1.2°C 55% 1.7 mph WSW2.7 kmh WSW 2.7 mph4.3 kmh 29.91 in1012.9 mb 0.00 in0.0 mm 0.00 in0.0 mm 0.61 in15.5 mm
11:55 PM 45.0°F7.2°C 29.8°F-1.2°C 55% 2.2 mph WSW3.5 kmh WSW 4.2 mph6.8 kmh 29.91 in1012.9 mb 0.00 in0.0 mm 0.00 in0.0 mm 0.61 in15.5 mm
11:56 PM 45.0°F7.2°C 29.8°F-1.2°C 55% 1.7 mph W2.7 kmh W 4.2 mph6.8 kmh 29.91 in1012.9 mb 0.00 in0.0 mm 0.00 in0.0 mm 0.61 in15.5 mm
11:57 PM 45.0°F7.2°C 30.3°F-0.9°C 56% 1.1 mph W1.8 kmh W 4.2 mph6.8 kmh 29.91 in1012.9 mb 0.00 in0.0 mm 0.00 in0.0 mm 0.61 in15.5 mm
11:58 PM 44.8°F7.1°C 30.5°F-0.8°C 57% 1.1 mph SSW1.8 kmh SSW 4.2 mph6.8 kmh 29.91 in1012.9 mb 0.00 in0.0 mm 0.00 in0.0 mm 0.61 in15.5 mm
11:59 PM 44.6°F7.0°C 30.3°F-0.9°C 57% 2.7 mph WSW4.3 kmh WSW 4.2 mph6.8 kmh 29.91 in1012.9 mb 0.00 in0.0 mm 0.00 in0.0 mm 0.61 in15.5 mm